<?xml version="1.0" encoding="UTF-8" standalone="no" ?>
<gpx xmlns="http://www.topografix.com/GPX/1/1" xmlns:xsi="http://www.w3.org/2001/XMLSchema-instance" xsi:schemaLocation="http://www.topografix.com/GPX/1/1 http://www.topografix.com/GPX/1/1/gpx.xsd" version="1.1" creator="VisuGPX - https://www.visugpx.com">
  <metadata>
    <name>lacs Pavin - Anglard - Chandeze</name>
    <desc><![CDATA[2015-08 - Lacs Pavin - Montcineyre - Bourdouze - Anglard - Chandeze

[b]album[/b] : [url]https://goo.gl/photos/vwdkm8GGm9Nwc4ZZ7[/url]
[img]https://4.bp.blogspot.com/-vNqi8CTRHHo/WMrOVNfPvNI/AAAAAAAAQzI/pUBQvqBGMpAxUnvH9p0R8OnyhI67zd9tQCLcB/s1600/2015-08_volcans-Auvergne_Photos_i1.jpg[/img]
[b]Idées de randonnées dans la même région[/b]
Parcours : [url]https://www.visugpx.com/membres/24856/montagne/massif-central/[/url]
Photos : [url]https://jcvertygo.blogspot.com/p/massif-central.html[/url]]]></desc>
  </metadata>
  <trk>
    <name><![CDATA[lacs Pavin - Anglard - Chandeze_1]]></name>
    <trkseg>
      <trkpt lat="45.49225" lon="2.89286">
        <ele>1278.5</ele>
        <time>2015-08-17T07:20:56Z</time>
      </trkpt>
      <trkpt lat="45.49226" lon="2.89281">
        <ele>1278.5</ele>
        <time>2015-08-17T07:21:01Z</time>
      </trkpt>
      <trkpt lat="45.49229" lon="2.8928">
        <ele>1278.5</ele>
        <time>2015-08-17T07:21:06Z</time>
      </trkpt>
      <trkpt lat="45.49231" lon="2.89279">
        <ele>1278.5</ele>
        <time>2015-08-17T07:21:11Z</time>
      </trkpt>
      <trkpt lat="45.49235" lon="2.89279">
        <ele>1271.6433</ele>
        <time>2015-08-17T07:21:16Z</time>
      </trkpt>
      <trkpt lat="45.49241" lon="2.89275">
        <ele>1271.6433</ele>
        <time>2015-08-17T07:21:21Z</time>
      </trkpt>
      <trkpt lat="45.49246" lon="2.8927">
        <ele>1278.3147</ele>
        <time>2015-08-17T07:21:26Z</time>
      </trkpt>
      <trkpt lat="45.49251" lon="2.89269">
        <ele>1278.3147</ele>
        <time>2015-08-17T07:21:31Z</time>
      </trkpt>
      <trkpt lat="45.49256" lon="2.89268">
        <ele>1284.6509</ele>
        <time>2015-08-17T07:21:36Z</time>
      </trkpt>
      <trkpt lat="45.4926" lon="2.89269">
        <ele>1284.6509</ele>
        <time>2015-08-17T07:21:41Z</time>
      </trkpt>
      <trkpt lat="45.49264" lon="2.89272">
        <ele>1284.6509</ele>
        <time>2015-08-17T07:21:46Z</time>
      </trkpt>
      <trkpt lat="45.49269" lon="2.89273">
        <ele>1290.7905</ele>
        <time>2015-08-17T07:21:51Z</time>
      </trkpt>
      <trkpt lat="45.49275" lon="2.89274">
        <ele>1290.7905</ele>
        <time>2015-08-17T07:21:56Z</time>
      </trkpt>
      <trkpt lat="45.4928" lon="2.89275">
        <ele>1296.6354</ele>
        <time>2015-08-17T07:22:01Z</time>
      </trkpt>
      <trkpt lat="45.49283" lon="2.89279">
        <ele>1296.6354</ele>
        <time>2015-08-17T07:22:06Z</time>
      </trkpt>
      <trkpt lat="45.49283" lon="2.8928">
        <ele>1296.6354</ele>
        <time>2015-08-17T07:22:11Z</time>
      </trkpt>
      <trkpt lat="45.49287" lon="2.8928">
        <ele>1296.6354</ele>
        <time>2015-08-17T07:22:18Z</time>
      </trkpt>
      <trkpt lat="45.49303" lon="2.89293">
        <ele>1302.1139</ele>
        <time>2015-08-17T07:22:41Z</time>
      </trkpt>
      <trkpt lat="45.49309" lon="2.89301">
        <ele>1302.1139</ele>
        <time>2015-08-17T07:22:46Z</time>
      </trkpt>
      <trkpt lat="45.49312" lon="2.89305">
        <ele>1306.9564</ele>
        <time>2015-08-17T07:22:55Z</time>
      </trkpt>
      <trkpt lat="45.49322" lon="2.89313">
        <ele>1311.0133</ele>
        <time>2015-08-17T07:23:04Z</time>
      </trkpt>
      <trkpt lat="45.49338" lon="2.89314">
        <ele>1314.1467</ele>
        <time>2015-08-17T07:23:11Z</time>
      </trkpt>
      <trkpt lat="45.49345" lon="2.89318">
        <ele>1314.1467</ele>
        <time>2015-08-17T07:23:28Z</time>
      </trkpt>
      <trkpt lat="45.49359" lon="2.89325">
        <ele>1316.3971</ele>
        <time>2015-08-17T07:23:33Z</time>
      </trkpt>
      <trkpt lat="45.49362" lon="2.89327">
        <ele>1316.3971</ele>
        <time>2015-08-17T07:23:38Z</time>
      </trkpt>
      <trkpt lat="45.49426" lon="2.89382">
        <ele>1317.9834</ele>
        <time>2015-08-17T07:24:47Z</time>
      </trkpt>
      <trkpt lat="45.49435" lon="2.89389">
        <ele>1318.7303</ele>
        <time>2015-08-17T07:24:56Z</time>
      </trkpt>
      <trkpt lat="45.49448" lon="2.89404">
        <ele>1318.7344</ele>
        <time>2015-08-17T07:25:01Z</time>
      </trkpt>
      <trkpt lat="45.49493" lon="2.89414">
        <ele>1317.9739</ele>
        <time>2015-08-17T07:25:41Z</time>
      </trkpt>
      <trkpt lat="45.49509" lon="2.89418">
        <ele>1316.3082</ele>
        <time>2015-08-17T07:26:12Z</time>
      </trkpt>
      <trkpt lat="45.4951" lon="2.89419">
        <ele>1316.3082</ele>
        <time>2015-08-17T07:26:25Z</time>
      </trkpt>
      <trkpt lat="45.49517" lon="2.8942">
        <ele>1316.3082</ele>
        <time>2015-08-17T07:26:26Z</time>
      </trkpt>
      <trkpt lat="45.4952" lon="2.89421">
        <ele>1314.1772</ele>
        <time>2015-08-17T07:26:38Z</time>
      </trkpt>
      <trkpt lat="45.49542" lon="2.89416">
        <ele>1311.7083</ele>
        <time>2015-08-17T07:27:38Z</time>
      </trkpt>
      <trkpt lat="45.49561" lon="2.89408">
        <ele>1308.7303</ele>
        <time>2015-08-17T07:27:43Z</time>
      </trkpt>
      <trkpt lat="45.49569" lon="2.89397">
        <ele>1305.3884</ele>
        <time>2015-08-17T07:27:53Z</time>
      </trkpt>
      <trkpt lat="45.49569" lon="2.89395">
        <ele>1305.3884</ele>
        <time>2015-08-17T07:27:54Z</time>
      </trkpt>
      <trkpt lat="45.49578" lon="2.8939">
        <ele>1302.0676</ele>
        <time>2015-08-17T07:28:00Z</time>
      </trkpt>
      <trkpt lat="45.49598" lon="2.89377">
        <ele>1298.568</ele>
        <time>2015-08-17T07:28:21Z</time>
      </trkpt>
      <trkpt lat="45.49599" lon="2.89375">
        <ele>1298.568</ele>
        <time>2015-08-17T07:28:28Z</time>
      </trkpt>
      <trkpt lat="45.49613" lon="2.89364">
        <ele>1294.9962</ele>
        <time>2015-08-17T07:28:38Z</time>
      </trkpt>
      <trkpt lat="45.49617" lon="2.8936">
        <ele>1294.9962</ele>
        <time>2015-08-17T07:28:41Z</time>
      </trkpt>
      <trkpt lat="45.49622" lon="2.89352">
        <ele>1291.5283</ele>
        <time>2015-08-17T07:29:03Z</time>
      </trkpt>
      <trkpt lat="45.49625" lon="2.89348">
        <ele>1291.5283</ele>
        <time>2015-08-17T07:29:10Z</time>
      </trkpt>
      <trkpt lat="45.49632" lon="2.89341">
        <ele>1288.0463</ele>
        <time>2015-08-17T07:29:18Z</time>
      </trkpt>
      <trkpt lat="45.49621" lon="2.89336">
        <ele>1284.6312</ele>
        <time>2015-08-17T07:29:31Z</time>
      </trkpt>
      <trkpt lat="45.49613" lon="2.89338">
        <ele>1284.6312</ele>
        <time>2015-08-17T07:29:39Z</time>
      </trkpt>
      <trkpt lat="45.49613" lon="2.89339">
        <ele>1284.6312</ele>
        <time>2015-08-17T07:29:43Z</time>
      </trkpt>
      <trkpt lat="45.49613" lon="2.8934">
        <ele>1281.2795</ele>
        <time>2015-08-17T07:29:52Z</time>
      </trkpt>
      <trkpt lat="45.49596" lon="2.8934">
        <ele>1277.8572</ele>
        <time>2015-08-17T07:30:06Z</time>
      </trkpt>
      <trkpt lat="45.49587" lon="2.89339">
        <ele>1274.4408</ele>
        <time>2015-08-17T07:30:19Z</time>
      </trkpt>
      <trkpt lat="45.49574" lon="2.89325">
        <ele>1270.8462</ele>
        <time>2015-08-17T07:30:31Z</time>
      </trkpt>
      <trkpt lat="45.49582" lon="2.89321">
        <ele>1267.352</ele>
        <time>2015-08-17T07:30:43Z</time>
      </trkpt>
      <trkpt lat="45.49588" lon="2.8932">
        <ele>1267.352</ele>
        <time>2015-08-17T07:30:52Z</time>
      </trkpt>
      <trkpt lat="45.49629" lon="2.89306">
        <ele>1263.199</ele>
        <time>2015-08-17T07:31:33Z</time>
      </trkpt>
      <trkpt lat="45.49638" lon="2.89297">
        <ele>1259.0068</ele>
        <time>2015-08-17T07:31:39Z</time>
      </trkpt>
      <trkpt lat="45.4964" lon="2.89295">
        <ele>1259.0068</ele>
        <time>2015-08-17T07:31:41Z</time>
      </trkpt>
      <trkpt lat="45.49702" lon="2.89254">
        <ele>1254.1975</ele>
        <time>2015-08-17T07:32:39Z</time>
      </trkpt>
      <trkpt lat="45.49703" lon="2.89254">
        <ele>1254.1975</ele>
        <time>2015-08-17T07:32:42Z</time>
      </trkpt>
      <trkpt lat="45.49708" lon="2.89256">
        <ele>1254.1975</ele>
        <time>2015-08-17T07:32:46Z</time>
      </trkpt>
      <trkpt lat="45.4971" lon="2.89256">
        <ele>1254.1975</ele>
        <time>2015-08-17T07:32:53Z</time>
      </trkpt>
      <trkpt lat="45.49709" lon="2.89254">
        <ele>1249.6102</ele>
        <time>2015-08-17T07:32:59Z</time>
      </trkpt>
      <trkpt lat="45.49713" lon="2.89254">
        <ele>1249.6102</ele>
        <time>2015-08-17T07:33:01Z</time>
      </trkpt>
      <trkpt lat="45.49721" lon="2.89235">
        <ele>1244.8322</ele>
        <time>2015-08-17T07:33:48Z</time>
      </trkpt>
      <trkpt lat="45.49753" lon="2.89196">
        <ele>1240.7253</ele>
        <time>2015-08-17T07:34:47Z</time>
      </trkpt>
      <trkpt lat="45.49759" lon="2.89188">
        <ele>1240.7253</ele>
        <time>2015-08-17T07:35:00Z</time>
      </trkpt>
      <trkpt lat="45.4979" lon="2.89172">
        <ele>1236.9775</ele>
        <time>2015-08-17T07:35:29Z</time>
      </trkpt>
      <trkpt lat="45.49815" lon="2.89164">
        <ele>1233.4794</ele>
        <time>2015-08-17T07:35:41Z</time>
      </trkpt>
      <trkpt lat="45.49819" lon="2.8916">
        <ele>1233.4794</ele>
        <time>2015-08-17T07:35:46Z</time>
      </trkpt>
      <trkpt lat="45.49823" lon="2.89157">
        <ele>1230.2562</ele>
        <time>2015-08-17T07:35:51Z</time>
      </trkpt>
      <trkpt lat="45.49848" lon="2.89101">
        <ele>1227.2885</ele>
        <time>2015-08-17T07:36:41Z</time>
      </trkpt>
      <trkpt lat="45.49865" lon="2.8907">
        <ele>1224.5428</ele>
        <time>2015-08-17T07:37:10Z</time>
      </trkpt>
      <trkpt lat="45.49874" lon="2.89039">
        <ele>1221.9861</ele>
        <time>2015-08-17T07:37:21Z</time>
      </trkpt>
      <trkpt lat="45.49876" lon="2.89029">
        <ele>1221.9861</ele>
        <time>2015-08-17T07:37:33Z</time>
      </trkpt>
      <trkpt lat="45.49881" lon="2.89012">
        <ele>1219.6149</ele>
        <time>2015-08-17T07:37:40Z</time>
      </trkpt>
      <trkpt lat="45.49881" lon="2.89012">
        <ele>1219.6149</ele>
        <time>2015-08-17T07:37:41Z</time>
      </trkpt>
      <trkpt lat="45.49914" lon="2.88943">
        <ele>1217.5573</ele>
        <time>2015-08-17T07:38:41Z</time>
      </trkpt>
      <trkpt lat="45.49916" lon="2.88916">
        <ele>1215.9763</ele>
        <time>2015-08-17T07:39:07Z</time>
      </trkpt>
      <trkpt lat="45.49928" lon="2.88865">
        <ele>1214.7395</ele>
        <time>2015-08-17T07:39:41Z</time>
      </trkpt>
      <trkpt lat="45.49943" lon="2.88823">
        <ele>1213.8988</ele>
        <time>2015-08-17T07:40:44Z</time>
      </trkpt>
      <trkpt lat="45.49942" lon="2.88814">
        <ele>1213.8988</ele>
        <time>2015-08-17T07:40:46Z</time>
      </trkpt>
      <trkpt lat="45.49947" lon="2.888">
        <ele>1212.975</ele>
        <time>2015-08-17T07:41:12Z</time>
      </trkpt>
      <trkpt lat="45.49949" lon="2.88785">
        <ele>1212.0167</ele>
        <time>2015-08-17T07:41:29Z</time>
      </trkpt>
      <trkpt lat="45.49951" lon="2.8873">
        <ele>1210.3009</ele>
        <time>2015-08-17T07:41:41Z</time>
      </trkpt>
      <trkpt lat="45.49947" lon="2.88721">
        <ele>1210.3009</ele>
        <time>2015-08-17T07:42:08Z</time>
      </trkpt>
      <trkpt lat="45.49934" lon="2.88655">
        <ele>1207.039</ele>
        <time>2015-08-17T07:42:40Z</time>
      </trkpt>
      <trkpt lat="45.49934" lon="2.88653">
        <ele>1207.039</ele>
        <time>2015-08-17T07:42:41Z</time>
      </trkpt>
      <trkpt lat="45.4997" lon="2.88646">
        <ele>1203.682</ele>
        <time>2015-08-17T07:43:46Z</time>
      </trkpt>
      <trkpt lat="45.49939" lon="2.88233">
        <ele>1200.109</ele>
        <time>2015-08-17T07:44:48Z</time>
      </trkpt>
      <trkpt lat="45.4994" lon="2.88233">
        <ele>1200.109</ele>
        <time>2015-08-17T07:44:51Z</time>
      </trkpt>
      <trkpt lat="45.50045" lon="2.88265">
        <ele>1158.8652</ele>
        <time>2015-08-17T07:49:42Z</time>
      </trkpt>
      <trkpt lat="45.50049" lon="2.88214">
        <ele>1101.8853</ele>
        <time>2015-08-17T07:50:10Z</time>
      </trkpt>
      <trkpt lat="45.5003" lon="2.88225">
        <ele>1053.8439</ele>
        <time>2015-08-17T07:50:41Z</time>
      </trkpt>
      <trkpt lat="45.50024" lon="2.88236">
        <ele>1013.2164</ele>
        <time>2015-08-17T07:51:16Z</time>
      </trkpt>
      <trkpt lat="45.50023" lon="2.88231">
        <ele>1013.2164</ele>
        <time>2015-08-17T07:51:36Z</time>
      </trkpt>
      <trkpt lat="45.50021" lon="2.88232">
        <ele>1013.2164</ele>
        <time>2015-08-17T07:51:41Z</time>
      </trkpt>
      <trkpt lat="45.5002" lon="2.88223">
        <ele>976.04443</ele>
        <time>2015-08-17T07:51:46Z</time>
      </trkpt>
      <trkpt lat="45.50015" lon="2.88213">
        <ele>976.04443</ele>
        <time>2015-08-17T07:51:51Z</time>
      </trkpt>
      <trkpt lat="45.50009" lon="2.88206">
        <ele>942.62915</ele>
        <time>2015-08-17T07:51:59Z</time>
      </trkpt>
      <trkpt lat="45.50008" lon="2.88204">
        <ele>942.62915</ele>
        <time>2015-08-17T07:52:01Z</time>
      </trkpt>
      <trkpt lat="45.50004" lon="2.88204">
        <ele>942.62915</ele>
        <time>2015-08-17T07:52:06Z</time>
      </trkpt>
      <trkpt lat="45.50005" lon="2.88196">
        <ele>912.8546</ele>
        <time>2015-08-17T07:52:11Z</time>
      </trkpt>
      <trkpt lat="45.50005" lon="2.88189">
        <ele>912.8546</ele>
        <time>2015-08-17T07:52:16Z</time>
      </trkpt>
      <trkpt lat="45.50002" lon="2.88186">
        <ele>912.8546</ele>
        <time>2015-08-17T07:52:21Z</time>
      </trkpt>
      <trkpt lat="45.49999" lon="2.88183">
        <ele>886.38983</ele>
        <time>2015-08-17T07:52:26Z</time>
      </trkpt>
      <trkpt lat="45.49995" lon="2.8818">
        <ele>886.38983</ele>
        <time>2015-08-17T07:52:31Z</time>
      </trkpt>
      <trkpt lat="45.49992" lon="2.88177">
        <ele>886.38983</ele>
        <time>2015-08-17T07:52:36Z</time>
      </trkpt>
      <trkpt lat="45.49988" lon="2.88172">
        <ele>862.82916</ele>
        <time>2015-08-17T07:52:41Z</time>
      </trkpt>
      <trkpt lat="45.49983" lon="2.88169">
        <ele>862.82916</ele>
        <time>2015-08-17T07:52:46Z</time>
      </trkpt>
      <trkpt lat="45.4998" lon="2.88164">
        <ele>841.84937</ele>
        <time>2015-08-17T07:52:51Z</time>
      </trkpt>
      <trkpt lat="45.49975" lon="2.88159">
        <ele>841.84937</ele>
        <time>2015-08-17T07:52:56Z</time>
      </trkpt>
      <trkpt lat="45.4997" lon="2.88153">
        <ele>823.5593</ele>
        <time>2015-08-17T07:53:01Z</time>
      </trkpt>
      <trkpt lat="45.49965" lon="2.88149">
        <ele>823.5593</ele>
        <time>2015-08-17T07:53:06Z</time>
      </trkpt>
      <trkpt lat="45.49939" lon="2.88126">
        <ele>807.5929</ele>
        <time>2015-08-17T07:53:35Z</time>
      </trkpt>
      <trkpt lat="45.49938" lon="2.88125">
        <ele>807.5929</ele>
        <time>2015-08-17T07:53:36Z</time>
      </trkpt>
      <trkpt lat="45.4993" lon="2.88118">
        <ele>794.0196</ele>
        <time>2015-08-17T07:53:51Z</time>
      </trkpt>
      <trkpt lat="45.49913" lon="2.88094">
        <ele>782.6906</ele>
        <time>2015-08-17T07:53:58Z</time>
      </trkpt>
      <trkpt lat="45.49891" lon="2.88063">
        <ele>773.2728</ele>
        <time>2015-08-17T07:54:21Z</time>
      </trkpt>
      <trkpt lat="45.4988" lon="2.88037">
        <ele>765.83527</ele>
        <time>2015-08-17T07:54:41Z</time>
      </trkpt>
      <trkpt lat="45.49857" lon="2.88">
        <ele>760.4361</ele>
        <time>2015-08-17T07:55:06Z</time>
      </trkpt>
      <trkpt lat="45.49823" lon="2.87977">
        <ele>756.6716</ele>
        <time>2015-08-17T07:55:34Z</time>
      </trkpt>
      <trkpt lat="45.49817" lon="2.8797">
        <ele>756.6716</ele>
        <time>2015-08-17T07:55:41Z</time>
      </trkpt>
      <trkpt lat="45.49789" lon="2.87941">
        <ele>754.50055</ele>
        <time>2015-08-17T07:56:16Z</time>
      </trkpt>
      <trkpt lat="45.49771" lon="2.87905">
        <ele>753.8079</ele>
        <time>2015-08-17T07:56:31Z</time>
      </trkpt>
      <trkpt lat="45.49765" lon="2.87893">
        <ele>754.353</ele>
        <time>2015-08-17T07:56:42Z</time>
      </trkpt>
      <trkpt lat="45.4976" lon="2.87887">
        <ele>754.353</ele>
        <time>2015-08-17T07:56:48Z</time>
      </trkpt>
      <trkpt lat="45.49755" lon="2.8788">
        <ele>755.9827</ele>
        <time>2015-08-17T07:57:03Z</time>
      </trkpt>
      <trkpt lat="45.49738" lon="2.87877">
        <ele>758.6538</ele>
        <time>2015-08-17T07:57:09Z</time>
      </trkpt>
      <trkpt lat="45.49735" lon="2.87878">
        <ele>758.6538</ele>
        <time>2015-08-17T07:57:12Z</time>
      </trkpt>
      <trkpt lat="45.49709" lon="2.8787">
        <ele>762.20734</ele>
        <time>2015-08-17T07:57:31Z</time>
      </trkpt>
      <trkpt lat="45.49704" lon="2.87864">
        <ele>762.20734</ele>
        <time>2015-08-17T07:57:42Z</time>
      </trkpt>
      <trkpt lat="45.49699" lon="2.8786">
        <ele>766.49396</ele>
        <time>2015-08-17T07:57:46Z</time>
      </trkpt>
      <trkpt lat="45.49636" lon="2.87852">
        <ele>771.9798</ele>
        <time>2015-08-17T07:58:40Z</time>
      </trkpt>
      <trkpt lat="45.49623" lon="2.87847">
        <ele>777.9806</ele>
        <time>2015-08-17T07:59:07Z</time>
      </trkpt>
      <trkpt lat="45.4961" lon="2.87842">
        <ele>784.28076</ele>
        <time>2015-08-17T07:59:23Z</time>
      </trkpt>
      <trkpt lat="45.49572" lon="2.87838">
        <ele>791.9635</ele>
        <time>2015-08-17T07:59:42Z</time>
      </trkpt>
      <trkpt lat="45.49566" lon="2.87839">
        <ele>791.9635</ele>
        <time>2015-08-17T07:59:47Z</time>
      </trkpt>
      <trkpt lat="45.49522" lon="2.87825">
        <ele>801.4653</ele>
        <time>2015-08-17T08:00:43Z</time>
      </trkpt>
      <trkpt lat="45.49518" lon="2.8783">
        <ele>801.4653</ele>
        <time>2015-08-17T08:00:48Z</time>
      </trkpt>
      <trkpt lat="45.49515" lon="2.87833">
        <ele>811.03705</ele>
        <time>2015-08-17T08:00:55Z</time>
      </trkpt>
      <trkpt lat="45.4942" lon="2.87928">
        <ele>825.5478</ele>
        <time>2015-08-17T08:02:47Z</time>
      </trkpt>
      <trkpt lat="45.49408" lon="2.87938">
        <ele>840.00726</ele>
        <time>2015-08-17T08:02:55Z</time>
      </trkpt>
      <trkpt lat="45.49392" lon="2.87961">
        <ele>855.3446</ele>
        <time>2015-08-17T08:03:29Z</time>
      </trkpt>
      <trkpt lat="45.49373" lon="2.87974">
        <ele>871.0206</ele>
        <time>2015-08-17T08:03:46Z</time>
      </trkpt>
      <trkpt lat="45.49309" lon="2.88031">
        <ele>891.03406</ele>
        <time>2015-08-17T08:05:18Z</time>
      </trkpt>
      <trkpt lat="45.49258" lon="2.88084">
        <ele>911.8556</ele>
        <time>2015-08-17T08:05:47Z</time>
      </trkpt>
      <trkpt lat="45.49249" lon="2.88087">
        <ele>911.8556</ele>
        <time>2015-08-17T08:06:20Z</time>
      </trkpt>
      <trkpt lat="45.49242" lon="2.88086">
        <ele>932.1607</ele>
        <time>2015-08-17T08:06:42Z</time>
      </trkpt>
      <trkpt lat="45.49239" lon="2.88086">
        <ele>932.1607</ele>
        <time>2015-08-17T08:06:46Z</time>
      </trkpt>
      <trkpt lat="45.49233" lon="2.88095">
        <ele>951.6043</ele>
        <time>2015-08-17T08:07:00Z</time>
      </trkpt>
      <trkpt lat="45.49213" lon="2.88115">
        <ele>969.9863</ele>
        <time>2015-08-17T08:07:10Z</time>
      </trkpt>
      <trkpt lat="45.49197" lon="2.88136">
        <ele>987.3856</ele>
        <time>2015-08-17T08:07:14Z</time>
      </trkpt>
      <trkpt lat="45.49183" lon="2.88158">
        <ele>1003.53375</ele>
        <time>2015-08-17T08:07:17Z</time>
      </trkpt>
      <trkpt lat="45.4919" lon="2.88156">
        <ele>1003.53375</ele>
        <time>2015-08-17T08:07:26Z</time>
      </trkpt>
      <trkpt lat="45.49068" lon="2.88351">
        <ele>1021.1589</ele>
        <time>2015-08-17T08:08:46Z</time>
      </trkpt>
      <trkpt lat="45.49036" lon="2.88392">
        <ele>1037.2623</ele>
        <time>2015-08-17T08:08:51Z</time>
      </trkpt>
      <trkpt lat="45.49025" lon="2.88404">
        <ele>1051.8562</ele>
        <time>2015-08-17T08:08:56Z</time>
      </trkpt>
      <trkpt lat="45.49017" lon="2.88417">
        <ele>1064.9719</ele>
        <time>2015-08-17T08:09:01Z</time>
      </trkpt>
      <trkpt lat="45.49014" lon="2.88423">
        <ele>1064.9719</ele>
        <time>2015-08-17T08:09:06Z</time>
      </trkpt>
      <trkpt lat="45.49006" lon="2.88434">
        <ele>1076.6599</ele>
        <time>2015-08-17T08:09:11Z</time>
      </trkpt>
      <trkpt lat="45.49001" lon="2.88444">
        <ele>1076.6599</ele>
        <time>2015-08-17T08:09:16Z</time>
      </trkpt>
      <trkpt lat="45.48988" lon="2.88448">
        <ele>1086.4968</ele>
        <time>2015-08-17T08:09:21Z</time>
      </trkpt>
      <trkpt lat="45.48983" lon="2.8845">
        <ele>1086.4968</ele>
        <time>2015-08-17T08:09:39Z</time>
      </trkpt>
      <trkpt lat="45.48955" lon="2.88469">
        <ele>1095.035</ele>
        <time>2015-08-17T08:09:43Z</time>
      </trkpt>
      <trkpt lat="45.4894" lon="2.88478">
        <ele>1102.3739</ele>
        <time>2015-08-17T08:09:46Z</time>
      </trkpt>
      <trkpt lat="45.48938" lon="2.8848">
        <ele>1102.3739</ele>
        <time>2015-08-17T08:09:52Z</time>
      </trkpt>
      <trkpt lat="45.48931" lon="2.88481">
        <ele>1108.5243</ele>
        <time>2015-08-17T08:09:56Z</time>
      </trkpt>
      <trkpt lat="45.48944" lon="2.88473">
        <ele>1113.5298</ele>
        <time>2015-08-17T08:10:04Z</time>
      </trkpt>
      <trkpt lat="45.48949" lon="2.88467">
        <ele>1113.5298</ele>
        <time>2015-08-17T08:10:08Z</time>
      </trkpt>
      <trkpt lat="45.48948" lon="2.88467">
        <ele>1113.5298</ele>
        <time>2015-08-17T08:10:11Z</time>
      </trkpt>
      <trkpt lat="45.48744" lon="2.88735">
        <ele>1115.0709</ele>
        <time>2015-08-17T08:10:42Z</time>
      </trkpt>
      <trkpt lat="45.48796" lon="2.88819">
        <ele>1118.2931</ele>
        <time>2015-08-17T08:11:46Z</time>
      </trkpt>
      <trkpt lat="45.48795" lon="2.8882">
        <ele>1118.2931</ele>
        <time>2015-08-17T08:11:51Z</time>
      </trkpt>
      <trkpt lat="45.48798" lon="2.88832">
        <ele>1120.9508</ele>
        <time>2015-08-17T08:12:00Z</time>
      </trkpt>
      <trkpt lat="45.48798" lon="2.88838">
        <ele>1120.9508</ele>
        <time>2015-08-17T08:12:08Z</time>
      </trkpt>
      <trkpt lat="45.4883" lon="2.88864">
        <ele>1124.197</ele>
        <time>2015-08-17T08:12:42Z</time>
      </trkpt>
      <trkpt lat="45.48833" lon="2.88874">
        <ele>1124.197</ele>
        <time>2015-08-17T08:12:47Z</time>
      </trkpt>
      <trkpt lat="45.48831" lon="2.88876">
        <ele>1127.2104</ele>
        <time>2015-08-17T08:12:59Z</time>
      </trkpt>
      <trkpt lat="45.48832" lon="2.88905">
        <ele>1130.6741</ele>
        <time>2015-08-17T08:13:33Z</time>
      </trkpt>
      <trkpt lat="45.48833" lon="2.8891">
        <ele>1130.6741</ele>
        <time>2015-08-17T08:13:41Z</time>
      </trkpt>
      <trkpt lat="45.48841" lon="2.88916">
        <ele>1133.7782</ele>
        <time>2015-08-17T08:13:47Z</time>
      </trkpt>
      <trkpt lat="45.48838" lon="2.88913">
        <ele>1133.7782</ele>
        <time>2015-08-17T08:14:02Z</time>
      </trkpt>
      <trkpt lat="45.48836" lon="2.88892">
        <ele>1136.6403</ele>
        <time>2015-08-17T08:14:26Z</time>
      </trkpt>
      <trkpt lat="45.48818" lon="2.88865">
        <ele>1139.1394</ele>
        <time>2015-08-17T08:14:44Z</time>
      </trkpt>
      <trkpt lat="45.48816" lon="2.88863">
        <ele>1139.1394</ele>
        <time>2015-08-17T08:14:46Z</time>
      </trkpt>
      <trkpt lat="45.48808" lon="2.88857">
        <ele>1141.0219</ele>
        <time>2015-08-17T08:15:00Z</time>
      </trkpt>
      <trkpt lat="45.48791" lon="2.88844">
        <ele>1142.6456</ele>
        <time>2015-08-17T08:15:19Z</time>
      </trkpt>
      <trkpt lat="45.48769" lon="2.8882">
        <ele>1144.0411</ele>
        <time>2015-08-17T08:15:31Z</time>
      </trkpt>
      <trkpt lat="45.48768" lon="2.88818">
        <ele>1144.0411</ele>
        <time>2015-08-17T08:15:43Z</time>
      </trkpt>
      <trkpt lat="45.48764" lon="2.88804">
        <ele>1145.0503</ele>
        <time>2015-08-17T08:15:52Z</time>
      </trkpt>
      <trkpt lat="45.48761" lon="2.88777">
        <ele>1145.8309</ele>
        <time>2015-08-17T08:16:06Z</time>
      </trkpt>
      <trkpt lat="45.48743" lon="2.88763">
        <ele>1146.4294</ele>
        <time>2015-08-17T08:16:31Z</time>
      </trkpt>
      <trkpt lat="45.48744" lon="2.88744">
        <ele>1146.6158</ele>
        <time>2015-08-17T08:16:44Z</time>
      </trkpt>
      <trkpt lat="45.48743" lon="2.88743">
        <ele>1146.6158</ele>
        <time>2015-08-17T08:16:47Z</time>
      </trkpt>
      <trkpt lat="45.48743" lon="2.88705">
        <ele>1146.5961</ele>
        <time>2015-08-17T08:17:06Z</time>
      </trkpt>
      <trkpt lat="45.48785" lon="2.88618">
        <ele>1146.6775</ele>
        <time>2015-08-17T08:17:46Z</time>
      </trkpt>
      <trkpt lat="45.48784" lon="2.88611">
        <ele>1146.6775</ele>
        <time>2015-08-17T08:18:06Z</time>
      </trkpt>
      <trkpt lat="45.48798" lon="2.88584">
        <ele>1146.4957</ele>
        <time>2015-08-17T08:18:16Z</time>
      </trkpt>
      <trkpt lat="45.48786" lon="2.88574">
        <ele>1145.7432</ele>
        <time>2015-08-17T08:18:31Z</time>
      </trkpt>
      <trkpt lat="45.48774" lon="2.88558">
        <ele>1144.698</ele>
        <time>2015-08-17T08:18:52Z</time>
      </trkpt>
      <trkpt lat="45.48774" lon="2.88549">
        <ele>1144.698</ele>
        <time>2015-08-17T08:19:08Z</time>
      </trkpt>
      <trkpt lat="45.48761" lon="2.88492">
        <ele>1144.2964</ele>
        <time>2015-08-17T08:19:48Z</time>
      </trkpt>
      <trkpt lat="45.48758" lon="2.88493">
        <ele>1144.2964</ele>
        <time>2015-08-17T08:19:51Z</time>
      </trkpt>
      <trkpt lat="45.48738" lon="2.88419">
        <ele>1144.4094</ele>
        <time>2015-08-17T08:20:46Z</time>
      </trkpt>
      <trkpt lat="45.48734" lon="2.88409">
        <ele>1144.4094</ele>
        <time>2015-08-17T08:21:17Z</time>
      </trkpt>
      <trkpt lat="45.48712" lon="2.8836">
        <ele>1145.6075</ele>
        <time>2015-08-17T08:21:48Z</time>
      </trkpt>
      <trkpt lat="45.48709" lon="2.88361">
        <ele>1145.6075</ele>
        <time>2015-08-17T08:21:48Z</time>
      </trkpt>
      <trkpt lat="45.48705" lon="2.8836">
        <ele>1145.6075</ele>
        <time>2015-08-17T08:21:53Z</time>
      </trkpt>
      <trkpt lat="45.48704" lon="2.88357">
        <ele>1146.7012</ele>
        <time>2015-08-17T08:21:56Z</time>
      </trkpt>
      <trkpt lat="45.48708" lon="2.88341">
        <ele>1147.6836</ele>
        <time>2015-08-17T08:22:03Z</time>
      </trkpt>
      <trkpt lat="45.48708" lon="2.88339">
        <ele>1147.6836</ele>
        <time>2015-08-17T08:22:11Z</time>
      </trkpt>
      <trkpt lat="45.48717" lon="2.88325">
        <ele>1148.4476</ele>
        <time>2015-08-17T08:22:11Z</time>
      </trkpt>
      <trkpt lat="45.48736" lon="2.88298">
        <ele>1149.0383</ele>
        <time>2015-08-17T08:22:24Z</time>
      </trkpt>
      <trkpt lat="45.4876" lon="2.88266">
        <ele>1149.5121</ele>
        <time>2015-08-17T08:22:52Z</time>
      </trkpt>
      <trkpt lat="45.48766" lon="2.88255">
        <ele>1149.7194</ele>
        <time>2015-08-17T08:23:17Z</time>
      </trkpt>
      <trkpt lat="45.48825" lon="2.88208">
        <ele>1157.0592</ele>
        <time>2015-08-17T08:23:52Z</time>
      </trkpt>
      <trkpt lat="45.48824" lon="2.88218">
        <ele>1157.0592</ele>
        <time>2015-08-17T08:24:08Z</time>
      </trkpt>
      <trkpt lat="45.48817" lon="2.88225">
        <ele>1164.1284</ele>
        <time>2015-08-17T08:24:16Z</time>
      </trkpt>
      <trkpt lat="45.48802" lon="2.8823">
        <ele>1170.524</ele>
        <time>2015-08-17T08:24:46Z</time>
      </trkpt>
      <trkpt lat="45.488" lon="2.88233">
        <ele>1170.524</ele>
        <time>2015-08-17T08:24:58Z</time>
      </trkpt>
      <trkpt lat="45.48793" lon="2.88242">
        <ele>1176.1631</ele>
        <time>2015-08-17T08:25:06Z</time>
      </trkpt>
      <trkpt lat="45.48798" lon="2.88244">
        <ele>1176.1631</ele>
        <time>2015-08-17T08:25:11Z</time>
      </trkpt>
      <trkpt lat="45.48798" lon="2.88248">
        <ele>1176.1631</ele>
        <time>2015-08-17T08:25:16Z</time>
      </trkpt>
      <trkpt lat="45.48792" lon="2.88272">
        <ele>1181.5175</ele>
        <time>2015-08-17T08:25:46Z</time>
      </trkpt>
      <trkpt lat="45.48775" lon="2.88288">
        <ele>1186.2185</ele>
        <time>2015-08-17T08:26:44Z</time>
      </trkpt>
      <trkpt lat="45.48767" lon="2.88296">
        <ele>1190.6898</ele>
        <time>2015-08-17T08:26:46Z</time>
      </trkpt>
      <trkpt lat="45.48767" lon="2.88296">
        <ele>1190.6898</ele>
        <time>2015-08-17T08:27:00Z</time>
      </trkpt>
      <trkpt lat="45.48757" lon="2.88299">
        <ele>1194.6758</ele>
        <time>2015-08-17T08:27:44Z</time>
      </trkpt>
      <trkpt lat="45.48748" lon="2.88294">
        <ele>1198.3154</ele>
        <time>2015-08-17T08:28:09Z</time>
      </trkpt>
      <trkpt lat="45.48734" lon="2.88301">
        <ele>1201.5366</ele>
        <time>2015-08-17T08:28:42Z</time>
      </trkpt>
      <trkpt lat="45.48731" lon="2.88307">
        <ele>1201.5366</ele>
        <time>2015-08-17T08:28:46Z</time>
      </trkpt>
      <trkpt lat="45.48717" lon="2.88332">
        <ele>1204.6626</ele>
        <time>2015-08-17T08:29:49Z</time>
      </trkpt>
      <trkpt lat="45.48716" lon="2.88334">
        <ele>1204.6626</ele>
        <time>2015-08-17T08:29:51Z</time>
      </trkpt>
      <trkpt lat="45.48716" lon="2.8834">
        <ele>1204.6626</ele>
        <time>2015-08-17T08:30:10Z</time>
      </trkpt>
      <trkpt lat="45.48716" lon="2.8834">
        <ele>1204.6626</ele>
        <time>2015-08-17T08:30:16Z</time>
      </trkpt>
      <trkpt lat="45.48709" lon="2.88344">
        <ele>1207.6184</ele>
        <time>2015-08-17T08:30:28Z</time>
      </trkpt>
      <trkpt lat="45.487" lon="2.88347">
        <ele>1210.1761</ele>
        <time>2015-08-17T08:30:47Z</time>
      </trkpt>
      <trkpt lat="45.48692" lon="2.88355">
        <ele>1212.3131</ele>
        <time>2015-08-17T08:31:26Z</time>
      </trkpt>
      <trkpt lat="45.48672" lon="2.88352">
        <ele>1216.0554</ele>
        <time>2015-08-17T08:31:46Z</time>
      </trkpt>
      <trkpt lat="45.48672" lon="2.8835">
        <ele>1216.0554</ele>
        <time>2015-08-17T08:31:56Z</time>
      </trkpt>
      <trkpt lat="45.48682" lon="2.88347">
        <ele>1222.224</ele>
        <time>2015-08-17T08:32:31Z</time>
      </trkpt>
      <trkpt lat="45.48684" lon="2.88346">
        <ele>1222.224</ele>
        <time>2015-08-17T08:32:36Z</time>
      </trkpt>
      <trkpt lat="45.48695" lon="2.88343">
        <ele>1229.3385</ele>
        <time>2015-08-17T08:32:46Z</time>
      </trkpt>
      <trkpt lat="45.48695" lon="2.88343">
        <ele>1229.3385</ele>
        <time>2015-08-17T08:32:51Z</time>
      </trkpt>
      <trkpt lat="45.48704" lon="2.88342">
        <ele>1237.2351</ele>
        <time>2015-08-17T08:33:26Z</time>
      </trkpt>
      <trkpt lat="45.48702" lon="2.88354">
        <ele>1237.2351</ele>
        <time>2015-08-17T08:34:03Z</time>
      </trkpt>
      <trkpt lat="45.48699" lon="2.88353">
        <ele>1245.4858</ele>
        <time>2015-08-17T08:34:06Z</time>
      </trkpt>
      <trkpt lat="45.48695" lon="2.88349">
        <ele>1245.4858</ele>
        <time>2015-08-17T08:34:11Z</time>
      </trkpt>
      <trkpt lat="45.48693" lon="2.88349">
        <ele>1245.4858</ele>
        <time>2015-08-17T08:34:39Z</time>
      </trkpt>
      <trkpt lat="45.48691" lon="2.88349">
        <ele>1245.4858</ele>
        <time>2015-08-17T08:34:44Z</time>
      </trkpt>
      <trkpt lat="45.48692" lon="2.88349">
        <ele>1245.4858</ele>
        <time>2015-08-17T08:34:46Z</time>
      </trkpt>
      <trkpt lat="45.48675" lon="2.88342">
        <ele>1253.4772</ele>
        <time>2015-08-17T08:35:22Z</time>
      </trkpt>
      <trkpt lat="45.4869" lon="2.88338">
        <ele>1261.0734</ele>
        <time>2015-08-17T08:36:36Z</time>
      </trkpt>
      <trkpt lat="45.48692" lon="2.88342">
        <ele>1261.0734</ele>
        <time>2015-08-17T08:36:45Z</time>
      </trkpt>
      <trkpt lat="45.48693" lon="2.88342">
        <ele>1261.0734</ele>
        <time>2015-08-17T08:36:46Z</time>
      </trkpt>
      <trkpt lat="45.48695" lon="2.88343">
        <ele>1261.0734</ele>
        <time>2015-08-17T08:36:51Z</time>
      </trkpt>
      <trkpt lat="45.48696" lon="2.88344">
        <ele>1261.0734</ele>
        <time>2015-08-17T08:36:56Z</time>
      </trkpt>
      <trkpt lat="45.48736" lon="2.88349">
        <ele>1268.4095</ele>
        <time>2015-08-17T08:38:16Z</time>
      </trkpt>
      <trkpt lat="45.4875" lon="2.8837">
        <ele>1274.9915</ele>
        <time>2015-08-17T08:38:31Z</time>
      </trkpt>
      <trkpt lat="45.48755" lon="2.88389">
        <ele>1280.8105</ele>
        <time>2015-08-17T08:38:46Z</time>
      </trkpt>
      <trkpt lat="45.48768" lon="2.88411">
        <ele>1286.0194</ele>
        <time>2015-08-17T08:39:11Z</time>
      </trkpt>
      <trkpt lat="45.48778" lon="2.8842">
        <ele>1290.5593</ele>
        <time>2015-08-17T08:39:36Z</time>
      </trkpt>
      <trkpt lat="45.48789" lon="2.8843">
        <ele>1294.407</ele>
        <time>2015-08-17T08:39:46Z</time>
      </trkpt>
      <trkpt lat="45.48793" lon="2.8844">
        <ele>1294.407</ele>
        <time>2015-08-17T08:40:00Z</time>
      </trkpt>
      <trkpt lat="45.48807" lon="2.88458">
        <ele>1298.1045</ele>
        <time>2015-08-17T08:40:22Z</time>
      </trkpt>
      <trkpt lat="45.48817" lon="2.88465">
        <ele>1302.7169</ele>
        <time>2015-08-17T08:40:36Z</time>
      </trkpt>
      <trkpt lat="45.48825" lon="2.8847">
        <ele>1302.7169</ele>
        <time>2015-08-17T08:40:46Z</time>
      </trkpt>
      <trkpt lat="45.48844" lon="2.88502">
        <ele>1308.868</ele>
        <time>2015-08-17T08:41:19Z</time>
      </trkpt>
      <trkpt lat="45.48848" lon="2.88513">
        <ele>1308.868</ele>
        <time>2015-08-17T08:41:25Z</time>
      </trkpt>
      <trkpt lat="45.48851" lon="2.88522">
        <ele>1314.7684</ele>
        <time>2015-08-17T08:41:26Z</time>
      </trkpt>
      <trkpt lat="45.4886" lon="2.88554">
        <ele>1320.7494</ele>
        <time>2015-08-17T08:41:47Z</time>
      </trkpt>
      <trkpt lat="45.4886" lon="2.88558">
        <ele>1320.7494</ele>
        <time>2015-08-17T08:42:00Z</time>
      </trkpt>
      <trkpt lat="45.48859" lon="2.88575">
        <ele>1326.2532</ele>
        <time>2015-08-17T08:42:46Z</time>
      </trkpt>
      <trkpt lat="45.48866" lon="2.88637">
        <ele>1334.3527</ele>
        <time>2015-08-17T08:42:54Z</time>
      </trkpt>
      <trkpt lat="45.48852" lon="2.88585">
        <ele>1342.8009</ele>
        <time>2015-08-17T08:43:46Z</time>
      </trkpt>
      <trkpt lat="45.48851" lon="2.88576">
        <ele>1342.8009</ele>
        <time>2015-08-17T08:44:02Z</time>
      </trkpt>
      <trkpt lat="45.488" lon="2.88543">
        <ele>1350.2787</ele>
        <time>2015-08-17T08:44:46Z</time>
      </trkpt>
      <trkpt lat="45.48795" lon="2.88539">
        <ele>1350.2787</ele>
        <time>2015-08-17T08:44:51Z</time>
      </trkpt>
      <trkpt lat="45.48796" lon="2.88538">
        <ele>1350.2787</ele>
        <time>2015-08-17T08:45:01Z</time>
      </trkpt>
      <trkpt lat="45.48758" lon="2.88541">
        <ele>1356.3881</ele>
        <time>2015-08-17T08:45:48Z</time>
      </trkpt>
      <trkpt lat="45.48754" lon="2.88541">
        <ele>1356.3881</ele>
        <time>2015-08-17T08:45:51Z</time>
      </trkpt>
      <trkpt lat="45.48741" lon="2.88552">
        <ele>1360.9517</ele>
        <time>2015-08-17T08:46:13Z</time>
      </trkpt>
      <trkpt lat="45.48693" lon="2.8859">
        <ele>1364.8186</ele>
        <time>2015-08-17T08:47:48Z</time>
      </trkpt>
      <trkpt lat="45.4869" lon="2.88592">
        <ele>1364.8186</ele>
        <time>2015-08-17T08:47:52Z</time>
      </trkpt>
      <trkpt lat="45.48686" lon="2.8859">
        <ele>1364.8186</ele>
        <time>2015-08-17T08:48:08Z</time>
      </trkpt>
      <trkpt lat="45.48666" lon="2.8862">
        <ele>1368.7051</ele>
        <time>2015-08-17T08:48:51Z</time>
      </trkpt>
      <trkpt lat="45.48664" lon="2.88632">
        <ele>1368.7051</ele>
        <time>2015-08-17T08:49:12Z</time>
      </trkpt>
      <trkpt lat="45.4868" lon="2.88774">
        <ele>1370.3644</ele>
        <time>2015-08-17T08:50:51Z</time>
      </trkpt>
      <trkpt lat="45.48681" lon="2.88788">
        <ele>1371.3091</ele>
        <time>2015-08-17T08:51:16Z</time>
      </trkpt>
      <trkpt lat="45.48687" lon="2.88818">
        <ele>1371.271</ele>
        <time>2015-08-17T08:51:46Z</time>
      </trkpt>
      <trkpt lat="45.48696" lon="2.88853">
        <ele>1370.5236</ele>
        <time>2015-08-17T08:51:51Z</time>
      </trkpt>
      <trkpt lat="45.48697" lon="2.88859">
        <ele>1370.5236</ele>
        <time>2015-08-17T08:52:02Z</time>
      </trkpt>
      <trkpt lat="45.48697" lon="2.88867">
        <ele>1369.4803</ele>
        <time>2015-08-17T08:52:12Z</time>
      </trkpt>
      <trkpt lat="45.48687" lon="2.88876">
        <ele>1368.122</ele>
        <time>2015-08-17T08:52:19Z</time>
      </trkpt>
      <trkpt lat="45.48687" lon="2.88874">
        <ele>1368.122</ele>
        <time>2015-08-17T08:52:29Z</time>
      </trkpt>
      <trkpt lat="45.48619" lon="2.88808">
        <ele>1365.8689</ele>
        <time>2015-08-17T08:53:52Z</time>
      </trkpt>
      <trkpt lat="45.48598" lon="2.88736">
        <ele>1363.138</ele>
        <time>2015-08-17T08:54:49Z</time>
      </trkpt>
      <trkpt lat="45.48597" lon="2.88734">
        <ele>1363.138</ele>
        <time>2015-08-17T08:54:51Z</time>
      </trkpt>
      <trkpt lat="45.48601" lon="2.88689">
        <ele>1360.2013</ele>
        <time>2015-08-17T08:55:32Z</time>
      </trkpt>
      <trkpt lat="45.48597" lon="2.88671">
        <ele>1357.3109</ele>
        <time>2015-08-17T08:55:46Z</time>
      </trkpt>
      <trkpt lat="45.48558" lon="2.88629">
        <ele>1354.3402</ele>
        <time>2015-08-17T08:56:47Z</time>
      </trkpt>
      <trkpt lat="45.48556" lon="2.88627">
        <ele>1354.3402</ele>
        <time>2015-08-17T08:56:52Z</time>
      </trkpt>
      <trkpt lat="45.48532" lon="2.88627">
        <ele>1351.056</ele>
        <time>2015-08-17T08:57:21Z</time>
      </trkpt>
      <trkpt lat="45.4851" lon="2.8862">
        <ele>1347.6322</ele>
        <time>2015-08-17T08:57:38Z</time>
      </trkpt>
      <trkpt lat="45.48508" lon="2.88619">
        <ele>1347.6322</ele>
        <time>2015-08-17T08:57:46Z</time>
      </trkpt>
      <trkpt lat="45.485" lon="2.8862">
        <ele>1344.1432</ele>
        <time>2015-08-17T08:57:51Z</time>
      </trkpt>
      <trkpt lat="45.48478" lon="2.88633">
        <ele>1340.5281</ele>
        <time>2015-08-17T08:58:21Z</time>
      </trkpt>
      <trkpt lat="45.4848" lon="2.88644">
        <ele>1340.5281</ele>
        <time>2015-08-17T08:58:33Z</time>
      </trkpt>
      <trkpt lat="45.4848" lon="2.88643">
        <ele>1340.5281</ele>
        <time>2015-08-17T08:58:41Z</time>
      </trkpt>
      <trkpt lat="45.48483" lon="2.88642">
        <ele>1336.9032</ele>
        <time>2015-08-17T08:58:47Z</time>
      </trkpt>
      <trkpt lat="45.48487" lon="2.88646">
        <ele>1336.9032</ele>
        <time>2015-08-17T08:58:52Z</time>
      </trkpt>
      <trkpt lat="45.4848" lon="2.88643">
        <ele>1333.3761</ele>
        <time>2015-08-17T08:59:16Z</time>
      </trkpt>
      <trkpt lat="45.48482" lon="2.88644">
        <ele>1333.3761</ele>
        <time>2015-08-17T08:59:31Z</time>
      </trkpt>
      <trkpt lat="45.4849" lon="2.88667">
        <ele>1328.8634</ele>
        <time>2015-08-17T09:00:31Z</time>
      </trkpt>
      <trkpt lat="45.48466" lon="2.88696">
        <ele>1324.5259</ele>
        <time>2015-08-17T09:00:51Z</time>
      </trkpt>
      <trkpt lat="45.48464" lon="2.88716">
        <ele>1320.299</ele>
        <time>2015-08-17T09:01:12Z</time>
      </trkpt>
      <trkpt lat="45.48449" lon="2.88742">
        <ele>1315.9781</ele>
        <time>2015-08-17T09:01:26Z</time>
      </trkpt>
      <trkpt lat="45.48432" lon="2.88771">
        <ele>1311.6328</ele>
        <time>2015-08-17T09:01:53Z</time>
      </trkpt>
      <trkpt lat="45.4843" lon="2.88772">
        <ele>1311.6328</ele>
        <time>2015-08-17T09:02:00Z</time>
      </trkpt>
      <trkpt lat="45.48406" lon="2.88785">
        <ele>1307.2117</ele>
        <time>2015-08-17T09:02:21Z</time>
      </trkpt>
      <trkpt lat="45.48382" lon="2.88788">
        <ele>1302.8971</ele>
        <time>2015-08-17T09:02:47Z</time>
      </trkpt>
      <trkpt lat="45.48361" lon="2.88785">
        <ele>1298.9581</ele>
        <time>2015-08-17T09:02:52Z</time>
      </trkpt>
      <trkpt lat="45.48358" lon="2.88784">
        <ele>1298.9581</ele>
        <time>2015-08-17T09:03:00Z</time>
      </trkpt>
      <trkpt lat="45.48299" lon="2.88777">
        <ele>1294.3167</ele>
        <time>2015-08-17T09:03:51Z</time>
      </trkpt>
      <trkpt lat="45.48276" lon="2.88779">
        <ele>1290.1077</ele>
        <time>2015-08-17T09:04:34Z</time>
      </trkpt>
      <trkpt lat="45.48227" lon="2.88781">
        <ele>1285.8104</ele>
        <time>2015-08-17T09:04:57Z</time>
      </trkpt>
      <trkpt lat="45.48217" lon="2.88783">
        <ele>1281.9363</ele>
        <time>2015-08-17T09:04:57Z</time>
      </trkpt>
      <trkpt lat="45.48215" lon="2.88782">
        <ele>1281.9363</ele>
        <time>2015-08-17T09:05:47Z</time>
      </trkpt>
      <trkpt lat="45.48161" lon="2.88818">
        <ele>1277.9484</ele>
        <time>2015-08-17T09:05:52Z</time>
      </trkpt>
      <trkpt lat="45.4816" lon="2.8882">
        <ele>1277.9484</ele>
        <time>2015-08-17T09:06:00Z</time>
      </trkpt>
      <trkpt lat="45.48118" lon="2.88829">
        <ele>1274.0264</ele>
        <time>2015-08-17T09:06:51Z</time>
      </trkpt>
      <trkpt lat="45.48117" lon="2.8883">
        <ele>1274.0264</ele>
        <time>2015-08-17T09:07:02Z</time>
      </trkpt>
      <trkpt lat="45.4811" lon="2.88839">
        <ele>1270.5521</ele>
        <time>2015-08-17T09:07:12Z</time>
      </trkpt>
      <trkpt lat="45.48084" lon="2.88842">
        <ele>1267.4741</ele>
        <time>2015-08-17T09:07:21Z</time>
      </trkpt>
      <trkpt lat="45.48077" lon="2.88843">
        <ele>1267.4741</ele>
        <time>2015-08-17T09:07:28Z</time>
      </trkpt>
      <trkpt lat="45.48053" lon="2.8885">
        <ele>1264.8148</ele>
        <time>2015-08-17T09:07:52Z</time>
      </trkpt>
      <trkpt lat="45.48048" lon="2.8885">
        <ele>1264.8148</ele>
        <time>2015-08-17T09:07:52Z</time>
      </trkpt>
      <trkpt lat="45.48046" lon="2.88851">
        <ele>1264.8148</ele>
        <time>2015-08-17T09:08:00Z</time>
      </trkpt>
      <trkpt lat="45.4803" lon="2.88857">
        <ele>1262.6079</ele>
        <time>2015-08-17T09:08:10Z</time>
      </trkpt>
      <trkpt lat="45.48016" lon="2.88898">
        <ele>1260.8826</ele>
        <time>2015-08-17T09:08:49Z</time>
      </trkpt>
      <trkpt lat="45.48018" lon="2.88903">
        <ele>1260.8826</ele>
        <time>2015-08-17T09:08:52Z</time>
      </trkpt>
      <trkpt lat="45.4802" lon="2.88903">
        <ele>1260.8826</ele>
        <time>2015-08-17T09:09:00Z</time>
      </trkpt>
      <trkpt lat="45.48032" lon="2.88956">
        <ele>1259.1886</ele>
        <time>2015-08-17T09:09:49Z</time>
      </trkpt>
      <trkpt lat="45.48035" lon="2.8896">
        <ele>1259.1886</ele>
        <time>2015-08-17T09:09:51Z</time>
      </trkpt>
      <trkpt lat="45.4805" lon="2.88987">
        <ele>1257.627</ele>
        <time>2015-08-17T09:10:55Z</time>
      </trkpt>
      <trkpt lat="45.48039" lon="2.88972">
        <ele>1256.4778</ele>
        <time>2015-08-17T09:11:21Z</time>
      </trkpt>
      <trkpt lat="45.48055" lon="2.88971">
        <ele>1256.4746</ele>
        <time>2015-08-17T09:11:54Z</time>
      </trkpt>
      <trkpt lat="45.48055" lon="2.88974">
        <ele>1256.4746</ele>
        <time>2015-08-17T09:12:00Z</time>
      </trkpt>
      <trkpt lat="45.48056" lon="2.88975">
        <ele>1256.4746</ele>
        <time>2015-08-17T09:12:02Z</time>
      </trkpt>
      <trkpt lat="45.48053" lon="2.88979">
        <ele>1256.4746</ele>
        <time>2015-08-17T09:12:48Z</time>
      </trkpt>
      <trkpt lat="45.48056" lon="2.88981">
        <ele>1256.42</ele>
        <time>2015-08-17T09:12:51Z</time>
      </trkpt>
      <trkpt lat="45.48054" lon="2.88985">
        <ele>1256.42</ele>
        <time>2015-08-17T09:12:58Z</time>
      </trkpt>
      <trkpt lat="45.48055" lon="2.88986">
        <ele>1256.42</ele>
        <time>2015-08-17T09:13:01Z</time>
      </trkpt>
      <trkpt lat="45.48056" lon="2.88991">
        <ele>1256.42</ele>
        <time>2015-08-17T09:13:08Z</time>
      </trkpt>
      <trkpt lat="45.48056" lon="2.88996">
        <ele>1256.5303</ele>
        <time>2015-08-17T09:13:13Z</time>
      </trkpt>
      <trkpt lat="45.48058" lon="2.88997">
        <ele>1256.5303</ele>
        <time>2015-08-17T09:13:16Z</time>
      </trkpt>
      <trkpt lat="45.48048" lon="2.88996">
        <ele>1256.6876</ele>
        <time>2015-08-17T09:13:49Z</time>
      </trkpt>
      <trkpt lat="45.48054" lon="2.88999">
        <ele>1256.6876</ele>
        <time>2015-08-17T09:14:41Z</time>
      </trkpt>
      <trkpt lat="45.4804" lon="2.88962">
        <ele>1256.7974</ele>
        <time>2015-08-17T09:14:50Z</time>
      </trkpt>
      <trkpt lat="45.4802" lon="2.88956">
        <ele>1257.002</ele>
        <time>2015-08-17T09:15:51Z</time>
      </trkpt>
      <trkpt lat="45.48015" lon="2.88959">
        <ele>1257.002</ele>
        <time>2015-08-17T09:15:56Z</time>
      </trkpt>
      <trkpt lat="45.4801" lon="2.8896">
        <ele>1257.3896</ele>
        <time>2015-08-17T09:16:05Z</time>
      </trkpt>
      <trkpt lat="45.47986" lon="2.89007">
        <ele>1257.6527</ele>
        <time>2015-08-17T09:16:46Z</time>
      </trkpt>
      <trkpt lat="45.47984" lon="2.89006">
        <ele>1257.6527</ele>
        <time>2015-08-17T09:16:51Z</time>
      </trkpt>
      <trkpt lat="45.47978" lon="2.89001">
        <ele>1258.0247</ele>
        <time>2015-08-17T09:16:56Z</time>
      </trkpt>
      <trkpt lat="45.47972" lon="2.88996">
        <ele>1258.0247</ele>
        <time>2015-08-17T09:17:01Z</time>
      </trkpt>
      <trkpt lat="45.47968" lon="2.88995">
        <ele>1258.5343</ele>
        <time>2015-08-17T09:17:06Z</time>
      </trkpt>
      <trkpt lat="45.47965" lon="2.88996">
        <ele>1258.5343</ele>
        <time>2015-08-17T09:17:11Z</time>
      </trkpt>
      <trkpt lat="45.47966" lon="2.88998">
        <ele>1258.5343</ele>
        <time>2015-08-17T09:17:16Z</time>
      </trkpt>
      <trkpt lat="45.47968" lon="2.89003">
        <ele>1259.3088</ele>
        <time>2015-08-17T09:17:36Z</time>
      </trkpt>
      <trkpt lat="45.47968" lon="2.89003">
        <ele>1259.3088</ele>
        <time>2015-08-17T09:17:51Z</time>
      </trkpt>
      <trkpt lat="45.47968" lon="2.89003">
        <ele>1259.3088</ele>
        <time>2015-08-17T09:17:56Z</time>
      </trkpt>
      <trkpt lat="45.47968" lon="2.89">
        <ele>1259.3088</ele>
        <time>2015-08-17T09:18:01Z</time>
      </trkpt>
      <trkpt lat="45.47971" lon="2.89003">
        <ele>1259.3088</ele>
        <time>2015-08-17T09:18:06Z</time>
      </trkpt>
      <trkpt lat="45.47978" lon="2.89014">
        <ele>1258.8799</ele>
        <time>2015-08-17T09:18:21Z</time>
      </trkpt>
      <trkpt lat="45.47974" lon="2.89028">
        <ele>1258.3114</ele>
        <time>2015-08-17T09:18:30Z</time>
      </trkpt>
      <trkpt lat="45.47975" lon="2.89035">
        <ele>1258.3114</ele>
        <time>2015-08-17T09:18:36Z</time>
      </trkpt>
      <trkpt lat="45.47983" lon="2.89067">
        <ele>1257.451</ele>
        <time>2015-08-17T09:18:48Z</time>
      </trkpt>
      <trkpt lat="45.47984" lon="2.8907">
        <ele>1257.451</ele>
        <time>2015-08-17T09:18:51Z</time>
      </trkpt>
      <trkpt lat="45.4799" lon="2.89076">
        <ele>1256.4756</ele>
        <time>2015-08-17T09:19:02Z</time>
      </trkpt>
      <trkpt lat="45.48002" lon="2.89104">
        <ele>1255.0449</ele>
        <time>2015-08-17T09:19:21Z</time>
      </trkpt>
      <trkpt lat="45.48006" lon="2.89154">
        <ele>1253.5221</ele>
        <time>2015-08-17T09:19:48Z</time>
      </trkpt>
      <trkpt lat="45.48007" lon="2.89158">
        <ele>1253.5221</ele>
        <time>2015-08-17T09:19:59Z</time>
      </trkpt>
      <trkpt lat="45.48006" lon="2.89221">
        <ele>1251.6245</ele>
        <time>2015-08-17T09:20:33Z</time>
      </trkpt>
      <trkpt lat="45.48006" lon="2.89222">
        <ele>1251.6245</ele>
        <time>2015-08-17T09:20:39Z</time>
      </trkpt>
      <trkpt lat="45.48011" lon="2.89226">
        <ele>1251.6245</ele>
        <time>2015-08-17T09:20:41Z</time>
      </trkpt>
      <trkpt lat="45.48011" lon="2.89226">
        <ele>1251.6245</ele>
        <time>2015-08-17T09:20:46Z</time>
      </trkpt>
      <trkpt lat="45.48037" lon="2.89235">
        <ele>1250.7197</ele>
        <time>2015-08-17T09:21:19Z</time>
      </trkpt>
      <trkpt lat="45.48038" lon="2.89236">
        <ele>1250.7197</ele>
        <time>2015-08-17T09:21:21Z</time>
      </trkpt>
      <trkpt lat="45.48068" lon="2.89241">
        <ele>1250.5443</ele>
        <time>2015-08-17T09:21:48Z</time>
      </trkpt>
      <trkpt lat="45.4807" lon="2.89243">
        <ele>1250.5443</ele>
        <time>2015-08-17T09:21:51Z</time>
      </trkpt>
      <trkpt lat="45.48079" lon="2.89248">
        <ele>1250.7516</ele>
        <time>2015-08-17T09:21:58Z</time>
      </trkpt>
      <trkpt lat="45.48082" lon="2.8925">
        <ele>1250.7516</ele>
        <time>2015-08-17T09:22:01Z</time>
      </trkpt>
      <trkpt lat="45.48099" lon="2.89267">
        <ele>1251.5092</ele>
        <time>2015-08-17T09:22:24Z</time>
      </trkpt>
      <trkpt lat="45.48115" lon="2.89289">
        <ele>1252.7114</ele>
        <time>2015-08-17T09:22:41Z</time>
      </trkpt>
      <trkpt lat="45.48124" lon="2.893">
        <ele>1253.9711</ele>
        <time>2015-08-17T09:22:50Z</time>
      </trkpt>
      <trkpt lat="45.48128" lon="2.89305">
        <ele>1253.9711</ele>
        <time>2015-08-17T09:22:57Z</time>
      </trkpt>
      <trkpt lat="45.48151" lon="2.89327">
        <ele>1255.5203</ele>
        <time>2015-08-17T09:23:26Z</time>
      </trkpt>
      <trkpt lat="45.48169" lon="2.89347">
        <ele>1257.1122</ele>
        <time>2015-08-17T09:23:40Z</time>
      </trkpt>
      <trkpt lat="45.4817" lon="2.89348">
        <ele>1257.1122</ele>
        <time>2015-08-17T09:23:41Z</time>
      </trkpt>
      <trkpt lat="45.48175" lon="2.89364">
        <ele>1258.6187</ele>
        <time>2015-08-17T09:23:51Z</time>
      </trkpt>
      <trkpt lat="45.48178" lon="2.89373">
        <ele>1258.6187</ele>
        <time>2015-08-17T09:24:00Z</time>
      </trkpt>
      <trkpt lat="45.48193" lon="2.89399">
        <ele>1260.239</ele>
        <time>2015-08-17T09:24:16Z</time>
      </trkpt>
      <trkpt lat="45.48197" lon="2.89442">
        <ele>1261.5664</ele>
        <time>2015-08-17T09:24:39Z</time>
      </trkpt>
      <trkpt lat="45.48198" lon="2.89447">
        <ele>1261.5664</ele>
        <time>2015-08-17T09:24:48Z</time>
      </trkpt>
      <trkpt lat="45.48206" lon="2.89459">
        <ele>1262.8016</ele>
        <time>2015-08-17T09:24:51Z</time>
      </trkpt>
      <trkpt lat="45.4823" lon="2.89483">
        <ele>1264.1453</ele>
        <time>2015-08-17T09:25:27Z</time>
      </trkpt>
      <trkpt lat="45.48246" lon="2.89505">
        <ele>1265.5962</ele>
        <time>2015-08-17T09:25:41Z</time>
      </trkpt>
      <trkpt lat="45.48257" lon="2.8951">
        <ele>1266.951</ele>
        <time>2015-08-17T09:25:50Z</time>
      </trkpt>
      <trkpt lat="45.48265" lon="2.89518">
        <ele>1268.3104</ele>
        <time>2015-08-17T09:26:01Z</time>
      </trkpt>
      <trkpt lat="45.48214" lon="2.89572">
        <ele>1269.5803</ele>
        <time>2015-08-17T09:26:52Z</time>
      </trkpt>
      <trkpt lat="45.48166" lon="2.89633">
        <ele>1270.5299</ele>
        <time>2015-08-17T09:27:50Z</time>
      </trkpt>
      <trkpt lat="45.48164" lon="2.8964">
        <ele>1270.5299</ele>
        <time>2015-08-17T09:27:56Z</time>
      </trkpt>
      <trkpt lat="45.48147" lon="2.89663">
        <ele>1271.3789</ele>
        <time>2015-08-17T09:28:14Z</time>
      </trkpt>
      <trkpt lat="45.48146" lon="2.89663">
        <ele>1271.3789</ele>
        <time>2015-08-17T09:28:20Z</time>
      </trkpt>
      <trkpt lat="45.48139" lon="2.89666">
        <ele>1271.3789</ele>
        <time>2015-08-17T09:28:21Z</time>
      </trkpt>
      <trkpt lat="45.48137" lon="2.89669">
        <ele>1272.0575</ele>
        <time>2015-08-17T09:28:32Z</time>
      </trkpt>
      <trkpt lat="45.48114" lon="2.89706">
        <ele>1272.0117</ele>
        <time>2015-08-17T09:28:51Z</time>
      </trkpt>
      <trkpt lat="45.48107" lon="2.89713">
        <ele>1272.0117</ele>
        <time>2015-08-17T09:29:06Z</time>
      </trkpt>
      <trkpt lat="45.48101" lon="2.89739">
        <ele>1271.4945</ele>
        <time>2015-08-17T09:29:16Z</time>
      </trkpt>
      <trkpt lat="45.48092" lon="2.89795">
        <ele>1270.1508</ele>
        <time>2015-08-17T09:29:51Z</time>
      </trkpt>
      <trkpt lat="45.48073" lon="2.89887">
        <ele>1268.5906</ele>
        <time>2015-08-17T09:30:51Z</time>
      </trkpt>
      <trkpt lat="45.4802" lon="2.89939">
        <ele>1267.3516</ele>
        <time>2015-08-17T09:31:51Z</time>
      </trkpt>
      <trkpt lat="45.47966" lon="2.89949">
        <ele>1265.9363</ele>
        <time>2015-08-17T09:32:51Z</time>
      </trkpt>
      <trkpt lat="45.47939" lon="2.89951">
        <ele>1264.5767</ele>
        <time>2015-08-17T09:33:20Z</time>
      </trkpt>
      <trkpt lat="45.47927" lon="2.89949">
        <ele>1262.8962</ele>
        <time>2015-08-17T09:33:46Z</time>
      </trkpt>
      <trkpt lat="45.47921" lon="2.89944">
        <ele>1262.8962</ele>
        <time>2015-08-17T09:33:53Z</time>
      </trkpt>
      <trkpt lat="45.4792" lon="2.89944">
        <ele>1262.8962</ele>
        <time>2015-08-17T09:34:03Z</time>
      </trkpt>
      <trkpt lat="45.47908" lon="2.89941">
        <ele>1261.0807</ele>
        <time>2015-08-17T09:34:12Z</time>
      </trkpt>
      <trkpt lat="45.47891" lon="2.89934">
        <ele>1259.1584</ele>
        <time>2015-08-17T09:34:28Z</time>
      </trkpt>
      <trkpt lat="45.4788" lon="2.89923">
        <ele>1257.2571</ele>
        <time>2015-08-17T09:34:36Z</time>
      </trkpt>
      <trkpt lat="45.47862" lon="2.89905">
        <ele>1255.0765</ele>
        <time>2015-08-17T09:34:50Z</time>
      </trkpt>
      <trkpt lat="45.47863" lon="2.89905">
        <ele>1255.0765</ele>
        <time>2015-08-17T09:34:51Z</time>
      </trkpt>
      <trkpt lat="45.47864" lon="2.89909">
        <ele>1255.0765</ele>
        <time>2015-08-17T09:35:12Z</time>
      </trkpt>
      <trkpt lat="45.47845" lon="2.89889">
        <ele>1252.9886</ele>
        <time>2015-08-17T09:35:51Z</time>
      </trkpt>
      <trkpt lat="45.47838" lon="2.89887">
        <ele>1252.9886</ele>
        <time>2015-08-17T09:36:00Z</time>
      </trkpt>
      <trkpt lat="45.47826" lon="2.89877">
        <ele>1251.121</ele>
        <time>2015-08-17T09:36:18Z</time>
      </trkpt>
      <trkpt lat="45.47821" lon="2.89874">
        <ele>1251.121</ele>
        <time>2015-08-17T09:36:23Z</time>
      </trkpt>
      <trkpt lat="45.47816" lon="2.89862">
        <ele>1249.4907</ele>
        <time>2015-08-17T09:36:33Z</time>
      </trkpt>
      <trkpt lat="45.47814" lon="2.89858">
        <ele>1249.4907</ele>
        <time>2015-08-17T09:36:33Z</time>
      </trkpt>
      <trkpt lat="45.47814" lon="2.89857">
        <ele>1249.4907</ele>
        <time>2015-08-17T09:36:42Z</time>
      </trkpt>
      <trkpt lat="45.47813" lon="2.89856">
        <ele>1249.4907</ele>
        <time>2015-08-17T09:36:50Z</time>
      </trkpt>
      <trkpt lat="45.47812" lon="2.89855">
        <ele>1249.4907</ele>
        <time>2015-08-17T09:36:56Z</time>
      </trkpt>
      <trkpt lat="45.47809" lon="2.89846">
        <ele>1248.084</ele>
        <time>2015-08-17T09:37:03Z</time>
      </trkpt>
      <trkpt lat="45.47786" lon="2.89826">
        <ele>1246.772</ele>
        <time>2015-08-17T09:37:26Z</time>
      </trkpt>
      <trkpt lat="45.47758" lon="2.89817">
        <ele>1245.4785</ele>
        <time>2015-08-17T09:37:58Z</time>
      </trkpt>
      <trkpt lat="45.47692" lon="2.89773">
        <ele>1244.1758</ele>
        <time>2015-08-17T09:38:53Z</time>
      </trkpt>
      <trkpt lat="45.47685" lon="2.89768">
        <ele>1244.1758</ele>
        <time>2015-08-17T09:38:57Z</time>
      </trkpt>
      <trkpt lat="45.47671" lon="2.89759">
        <ele>1242.9539</ele>
        <time>2015-08-17T09:39:44Z</time>
      </trkpt>
      <trkpt lat="45.47649" lon="2.89745">
        <ele>1241.8665</ele>
        <time>2015-08-17T09:39:50Z</time>
      </trkpt>
      <trkpt lat="45.47637" lon="2.89738">
        <ele>1240.4734</ele>
        <time>2015-08-17T09:39:51Z</time>
      </trkpt>
      <trkpt lat="45.47633" lon="2.89735">
        <ele>1240.4734</ele>
        <time>2015-08-17T09:40:00Z</time>
      </trkpt>
      <trkpt lat="45.47599" lon="2.89685">
        <ele>1238.9584</ele>
        <time>2015-08-17T09:40:42Z</time>
      </trkpt>
      <trkpt lat="45.47584" lon="2.89671">
        <ele>1237.5925</ele>
        <time>2015-08-17T09:40:52Z</time>
      </trkpt>
      <trkpt lat="45.47552" lon="2.89625">
        <ele>1236.0505</ele>
        <time>2015-08-17T09:41:36Z</time>
      </trkpt>
      <trkpt lat="45.47539" lon="2.89623">
        <ele>1234.5355</ele>
        <time>2015-08-17T09:41:50Z</time>
      </trkpt>
      <trkpt lat="45.47537" lon="2.89622">
        <ele>1234.5355</ele>
        <time>2015-08-17T09:41:51Z</time>
      </trkpt>
      <trkpt lat="45.47528" lon="2.89625">
        <ele>1233.0627</ele>
        <time>2015-08-17T09:42:07Z</time>
      </trkpt>
      <trkpt lat="45.47503" lon="2.89613">
        <ele>1231.6172</ele>
        <time>2015-08-17T09:42:21Z</time>
      </trkpt>
      <trkpt lat="45.47492" lon="2.89611">
        <ele>1230.257</ele>
        <time>2015-08-17T09:42:31Z</time>
      </trkpt>
      <trkpt lat="45.47478" lon="2.89614">
        <ele>1228.9348</ele>
        <time>2015-08-17T09:42:43Z</time>
      </trkpt>
      <trkpt lat="45.47476" lon="2.89615">
        <ele>1228.9348</ele>
        <time>2015-08-17T09:42:50Z</time>
      </trkpt>
      <trkpt lat="45.47469" lon="2.89617">
        <ele>1228.9348</ele>
        <time>2015-08-17T09:42:51Z</time>
      </trkpt>
      <trkpt lat="45.47464" lon="2.89619">
        <ele>1227.6498</ele>
        <time>2015-08-17T09:43:00Z</time>
      </trkpt>
      <trkpt lat="45.47459" lon="2.89619">
        <ele>1227.6498</ele>
        <time>2015-08-17T09:43:06Z</time>
      </trkpt>
      <trkpt lat="45.4744" lon="2.89613">
        <ele>1226.2999</ele>
        <time>2015-08-17T09:43:17Z</time>
      </trkpt>
      <trkpt lat="45.474" lon="2.89606">
        <ele>1224.8777</ele>
        <time>2015-08-17T09:43:51Z</time>
      </trkpt>
      <trkpt lat="45.47349" lon="2.89595">
        <ele>1223.4622</ele>
        <time>2015-08-17T09:44:41Z</time>
      </trkpt>
      <trkpt lat="45.47331" lon="2.89599">
        <ele>1222.1415</ele>
        <time>2015-08-17T09:44:59Z</time>
      </trkpt>
      <trkpt lat="45.47282" lon="2.89591">
        <ele>1221.0254</ele>
        <time>2015-08-17T09:45:36Z</time>
      </trkpt>
      <trkpt lat="45.47266" lon="2.89585">
        <ele>1220.3737</ele>
        <time>2015-08-17T09:45:51Z</time>
      </trkpt>
      <trkpt lat="45.47261" lon="2.89586">
        <ele>1220.3737</ele>
        <time>2015-08-17T09:46:00Z</time>
      </trkpt>
      <trkpt lat="45.47257" lon="2.89585">
        <ele>1219.849</ele>
        <time>2015-08-17T09:46:08Z</time>
      </trkpt>
      <trkpt lat="45.47239" lon="2.89587">
        <ele>1219.2827</ele>
        <time>2015-08-17T09:46:16Z</time>
      </trkpt>
      <trkpt lat="45.47209" lon="2.89589">
        <ele>1218.605</ele>
        <time>2015-08-17T09:46:39Z</time>
      </trkpt>
      <trkpt lat="45.47196" lon="2.89598">
        <ele>1217.9386</ele>
        <time>2015-08-17T09:46:51Z</time>
      </trkpt>
      <trkpt lat="45.47171" lon="2.8961">
        <ele>1217.268</ele>
        <time>2015-08-17T09:47:14Z</time>
      </trkpt>
      <trkpt lat="45.47146" lon="2.89623">
        <ele>1216.477</ele>
        <time>2015-08-17T09:47:36Z</time>
      </trkpt>
      <trkpt lat="45.47131" lon="2.89635">
        <ele>1215.4883</ele>
        <time>2015-08-17T09:47:51Z</time>
      </trkpt>
      <trkpt lat="45.47121" lon="2.89646">
        <ele>1214.5466</ele>
        <time>2015-08-17T09:48:07Z</time>
      </trkpt>
      <trkpt lat="45.4709" lon="2.89685">
        <ele>1213.9513</ele>
        <time>2015-08-17T09:48:50Z</time>
      </trkpt>
      <trkpt lat="45.47084" lon="2.89688">
        <ele>1213.9513</ele>
        <time>2015-08-17T09:48:51Z</time>
      </trkpt>
      <trkpt lat="45.47078" lon="2.8969">
        <ele>1213.6184</ele>
        <time>2015-08-17T09:49:00Z</time>
      </trkpt>
      <trkpt lat="45.47024" lon="2.8971">
        <ele>1213.1088</ele>
        <time>2015-08-17T09:49:56Z</time>
      </trkpt>
      <trkpt lat="45.47021" lon="2.8971">
        <ele>1213.1088</ele>
        <time>2015-08-17T09:50:24Z</time>
      </trkpt>
      <trkpt lat="45.47004" lon="2.89716">
        <ele>1212.3044</ele>
        <time>2015-08-17T09:50:33Z</time>
      </trkpt>
      <trkpt lat="45.46989" lon="2.89723">
        <ele>1211.2123</ele>
        <time>2015-08-17T09:50:39Z</time>
      </trkpt>
      <trkpt lat="45.46978" lon="2.89727">
        <ele>1209.8826</ele>
        <time>2015-08-17T09:50:57Z</time>
      </trkpt>
      <trkpt lat="45.46947" lon="2.89736">
        <ele>1208.91</ele>
        <time>2015-08-17T09:56:01Z</time>
      </trkpt>
      <trkpt lat="45.4694" lon="2.89739">
        <ele>1208.91</ele>
        <time>2015-08-17T09:56:06Z</time>
      </trkpt>
      <trkpt lat="45.46809" lon="2.89772">
        <ele>1206.9429</ele>
        <time>2015-08-17T09:57:56Z</time>
      </trkpt>
      <trkpt lat="45.46752" lon="2.89794">
        <ele>1203.783</ele>
        <time>2015-08-17T09:58:33Z</time>
      </trkpt>
      <trkpt lat="45.4672" lon="2.89816">
        <ele>1199.7689</ele>
        <time>2015-08-17T09:59:01Z</time>
      </trkpt>
      <trkpt lat="45.46678" lon="2.8985">
        <ele>1195.0441</ele>
        <time>2015-08-17T10:00:01Z</time>
      </trkpt>
      <trkpt lat="45.46642" lon="2.89869">
        <ele>1191.112</ele>
        <time>2015-08-17T10:01:02Z</time>
      </trkpt>
      <trkpt lat="45.46639" lon="2.89869">
        <ele>1191.112</ele>
        <time>2015-08-17T10:01:09Z</time>
      </trkpt>
      <trkpt lat="45.46632" lon="2.89867">
        <ele>1187.476</ele>
        <time>2015-08-17T10:01:28Z</time>
      </trkpt>
      <trkpt lat="45.46611" lon="2.89865">
        <ele>1184.1646</ele>
        <time>2015-08-17T10:01:33Z</time>
      </trkpt>
      <trkpt lat="45.46581" lon="2.89856">
        <ele>1181.1598</ele>
        <time>2015-08-17T10:01:57Z</time>
      </trkpt>
      <trkpt lat="45.4658" lon="2.89853">
        <ele>1181.1598</ele>
        <time>2015-08-17T10:02:01Z</time>
      </trkpt>
      <trkpt lat="45.4658" lon="2.89851">
        <ele>1181.1598</ele>
        <time>2015-08-17T10:02:09Z</time>
      </trkpt>
      <trkpt lat="45.46576" lon="2.89868">
        <ele>1178.5887</ele>
        <time>2015-08-17T10:03:40Z</time>
      </trkpt>
      <trkpt lat="45.46546" lon="2.89876">
        <ele>1176.3943</ele>
        <time>2015-08-17T10:03:51Z</time>
      </trkpt>
      <trkpt lat="45.46541" lon="2.89879">
        <ele>1176.3943</ele>
        <time>2015-08-17T10:03:56Z</time>
      </trkpt>
      <trkpt lat="45.46536" lon="2.89881">
        <ele>1174.6378</ele>
        <time>2015-08-17T10:04:01Z</time>
      </trkpt>
      <trkpt lat="45.4653" lon="2.89882">
        <ele>1174.6378</ele>
        <time>2015-08-17T10:04:06Z</time>
      </trkpt>
      <trkpt lat="45.46526" lon="2.89883">
        <ele>1173.2164</ele>
        <time>2015-08-17T10:04:16Z</time>
      </trkpt>
      <trkpt lat="45.46504" lon="2.8989">
        <ele>1171.9473</ele>
        <time>2015-08-17T10:04:30Z</time>
      </trkpt>
      <trkpt lat="45.46495" lon="2.89892">
        <ele>1170.8474</ele>
        <time>2015-08-17T10:04:40Z</time>
      </trkpt>
      <trkpt lat="45.46485" lon="2.89902">
        <ele>1169.918</ele>
        <time>2015-08-17T10:04:50Z</time>
      </trkpt>
      <trkpt lat="45.46482" lon="2.89905">
        <ele>1169.918</ele>
        <time>2015-08-17T10:04:51Z</time>
      </trkpt>
      <trkpt lat="45.46475" lon="2.89912">
        <ele>1169.1593</ele>
        <time>2015-08-17T10:05:07Z</time>
      </trkpt>
      <trkpt lat="45.46465" lon="2.89919">
        <ele>1168.5713</ele>
        <time>2015-08-17T10:05:46Z</time>
      </trkpt>
      <trkpt lat="45.46419" lon="2.8996">
        <ele>1168.2251</ele>
        <time>2015-08-17T10:05:51Z</time>
      </trkpt>
      <trkpt lat="45.46412" lon="2.89967">
        <ele>1168.2251</ele>
        <time>2015-08-17T10:05:56Z</time>
      </trkpt>
      <trkpt lat="45.46406" lon="2.89973">
        <ele>1168.0133</ele>
        <time>2015-08-17T10:06:05Z</time>
      </trkpt>
      <trkpt lat="45.46403" lon="2.89979">
        <ele>1168.0133</ele>
        <time>2015-08-17T10:06:09Z</time>
      </trkpt>
      <trkpt lat="45.46398" lon="2.89985">
        <ele>1167.9366</ele>
        <time>2015-08-17T10:06:18Z</time>
      </trkpt>
      <trkpt lat="45.46374" lon="2.9002">
        <ele>1168.0096</ele>
        <time>2015-08-17T10:06:41Z</time>
      </trkpt>
      <trkpt lat="45.46361" lon="2.90044">
        <ele>1168.1881</ele>
        <time>2015-08-17T10:06:52Z</time>
      </trkpt>
      <trkpt lat="45.4636" lon="2.9005">
        <ele>1168.1881</ele>
        <time>2015-08-17T10:07:02Z</time>
      </trkpt>
      <trkpt lat="45.46354" lon="2.90062">
        <ele>1168.4448</ele>
        <time>2015-08-17T10:07:11Z</time>
      </trkpt>
      <trkpt lat="45.46346" lon="2.90088">
        <ele>1168.769</ele>
        <time>2015-08-17T10:07:26Z</time>
      </trkpt>
      <trkpt lat="45.46334" lon="2.90115">
        <ele>1169.2368</ele>
        <time>2015-08-17T10:07:44Z</time>
      </trkpt>
      <trkpt lat="45.46328" lon="2.90131">
        <ele>1169.8899</ele>
        <time>2015-08-17T10:07:47Z</time>
      </trkpt>
      <trkpt lat="45.46327" lon="2.90141">
        <ele>1169.8899</ele>
        <time>2015-08-17T10:07:52Z</time>
      </trkpt>
      <trkpt lat="45.46326" lon="2.90142">
        <ele>1169.8899</ele>
        <time>2015-08-17T10:08:01Z</time>
      </trkpt>
      <trkpt lat="45.46315" lon="2.90172">
        <ele>1170.766</ele>
        <time>2015-08-17T10:08:11Z</time>
      </trkpt>
      <trkpt lat="45.46304" lon="2.90231">
        <ele>1172.1304</ele>
        <time>2015-08-17T10:08:47Z</time>
      </trkpt>
      <trkpt lat="45.46301" lon="2.90236">
        <ele>1172.1304</ele>
        <time>2015-08-17T10:08:51Z</time>
      </trkpt>
      <trkpt lat="45.46277" lon="2.9028">
        <ele>1173.6798</ele>
        <time>2015-08-17T10:09:47Z</time>
      </trkpt>
      <trkpt lat="45.46249" lon="2.90303">
        <ele>1175.5798</ele>
        <time>2015-08-17T10:09:55Z</time>
      </trkpt>
      <trkpt lat="45.46243" lon="2.90305">
        <ele>1175.5798</ele>
        <time>2015-08-17T10:10:03Z</time>
      </trkpt>
      <trkpt lat="45.46229" lon="2.9031">
        <ele>1177.3776</ele>
        <time>2015-08-17T10:10:17Z</time>
      </trkpt>
      <trkpt lat="45.46216" lon="2.90313">
        <ele>1179.1869</ele>
        <time>2015-08-17T10:10:20Z</time>
      </trkpt>
      <trkpt lat="45.46215" lon="2.90313">
        <ele>1179.1869</ele>
        <time>2015-08-17T10:10:21Z</time>
      </trkpt>
      <trkpt lat="45.46199" lon="2.90311">
        <ele>1180.8542</ele>
        <time>2015-08-17T10:10:51Z</time>
      </trkpt>
      <trkpt lat="45.46191" lon="2.90302">
        <ele>1181.9497</ele>
        <time>2015-08-17T10:11:49Z</time>
      </trkpt>
      <trkpt lat="45.46179" lon="2.90278">
        <ele>1182.5667</ele>
        <time>2015-08-17T10:13:25Z</time>
      </trkpt>
      <trkpt lat="45.46175" lon="2.90269">
        <ele>1182.5667</ele>
        <time>2015-08-17T10:13:42Z</time>
      </trkpt>
      <trkpt lat="45.46166" lon="2.90252">
        <ele>1183.038</ele>
        <time>2015-08-17T10:13:51Z</time>
      </trkpt>
      <trkpt lat="45.46163" lon="2.90255">
        <ele>1183.038</ele>
        <time>2015-08-17T10:14:24Z</time>
      </trkpt>
      <trkpt lat="45.46161" lon="2.90257">
        <ele>1183.038</ele>
        <time>2015-08-17T10:14:33Z</time>
      </trkpt>
      <trkpt lat="45.46156" lon="2.90256">
        <ele>1183.4135</ele>
        <time>2015-08-17T10:14:38Z</time>
      </trkpt>
      <trkpt lat="45.46156" lon="2.90259">
        <ele>1183.4135</ele>
        <time>2015-08-17T10:14:51Z</time>
      </trkpt>
      <trkpt lat="45.46152" lon="2.90264">
        <ele>1183.4135</ele>
        <time>2015-08-17T10:14:56Z</time>
      </trkpt>
      <trkpt lat="45.4615" lon="2.90267">
        <ele>1183.7253</ele>
        <time>2015-08-17T10:15:01Z</time>
      </trkpt>
      <trkpt lat="45.46147" lon="2.90273">
        <ele>1183.7253</ele>
        <time>2015-08-17T10:15:08Z</time>
      </trkpt>
      <trkpt lat="45.46146" lon="2.90274">
        <ele>1183.7253</ele>
        <time>2015-08-17T10:15:11Z</time>
      </trkpt>
      <trkpt lat="45.46144" lon="2.90285">
        <ele>1184.0181</ele>
        <time>2015-08-17T10:15:22Z</time>
      </trkpt>
      <trkpt lat="45.46141" lon="2.90291">
        <ele>1184.0181</ele>
        <time>2015-08-17T10:16:21Z</time>
      </trkpt>
      <trkpt lat="45.46139" lon="2.90297">
        <ele>1184.6934</ele>
        <time>2015-08-17T10:16:27Z</time>
      </trkpt>
      <trkpt lat="45.46138" lon="2.90308">
        <ele>1184.6934</ele>
        <time>2015-08-17T10:16:40Z</time>
      </trkpt>
      <trkpt lat="45.46141" lon="2.90327">
        <ele>1185.2869</ele>
        <time>2015-08-17T10:16:49Z</time>
      </trkpt>
      <trkpt lat="45.46141" lon="2.90329">
        <ele>1185.2869</ele>
        <time>2015-08-17T10:16:53Z</time>
      </trkpt>
      <trkpt lat="45.46145" lon="2.90353">
        <ele>1185.9451</ele>
        <time>2015-08-17T10:17:17Z</time>
      </trkpt>
      <trkpt lat="45.46149" lon="2.90385">
        <ele>1186.674</ele>
        <time>2015-08-17T10:17:27Z</time>
      </trkpt>
      <trkpt lat="45.4615" lon="2.90392">
        <ele>1186.674</ele>
        <time>2015-08-17T10:17:43Z</time>
      </trkpt>
      <trkpt lat="45.46153" lon="2.90472">
        <ele>1188.3292</ele>
        <time>2015-08-17T10:18:26Z</time>
      </trkpt>
      <trkpt lat="45.46147" lon="2.90567">
        <ele>1190.8657</ele>
        <time>2015-08-17T10:19:32Z</time>
      </trkpt>
      <trkpt lat="45.46145" lon="2.9058">
        <ele>1193.2014</ele>
        <time>2015-08-17T10:20:08Z</time>
      </trkpt>
      <trkpt lat="45.4615" lon="2.90686">
        <ele>1195.2139</ele>
        <time>2015-08-17T10:20:27Z</time>
      </trkpt>
      <trkpt lat="45.4615" lon="2.90694">
        <ele>1195.2139</ele>
        <time>2015-08-17T10:20:33Z</time>
      </trkpt>
      <trkpt lat="45.46165" lon="2.90725">
        <ele>1196.1276</ele>
        <time>2015-08-17T10:20:51Z</time>
      </trkpt>
      <trkpt lat="45.46166" lon="2.90738">
        <ele>1196.6685</ele>
        <time>2015-08-17T10:21:07Z</time>
      </trkpt>
      <trkpt lat="45.46176" lon="2.90748">
        <ele>1195.9972</ele>
        <time>2015-08-17T10:21:16Z</time>
      </trkpt>
      <trkpt lat="45.46176" lon="2.90747">
        <ele>1195.9972</ele>
        <time>2015-08-17T10:21:21Z</time>
      </trkpt>
      <trkpt lat="45.46183" lon="2.90751">
        <ele>1195.9972</ele>
        <time>2015-08-17T10:21:36Z</time>
      </trkpt>
      <trkpt lat="45.46186" lon="2.90752">
        <ele>1194.6512</ele>
        <time>2015-08-17T10:21:41Z</time>
      </trkpt>
      <trkpt lat="45.46193" lon="2.90753">
        <ele>1194.6512</ele>
        <time>2015-08-17T10:21:46Z</time>
      </trkpt>
      <trkpt lat="45.46198" lon="2.90753">
        <ele>1193.0007</ele>
        <time>2015-08-17T10:21:51Z</time>
      </trkpt>
      <trkpt lat="45.46205" lon="2.90752">
        <ele>1193.0007</ele>
        <time>2015-08-17T10:21:56Z</time>
      </trkpt>
      <trkpt lat="45.4621" lon="2.90753">
        <ele>1191.2023</ele>
        <time>2015-08-17T10:22:01Z</time>
      </trkpt>
      <trkpt lat="45.46216" lon="2.90752">
        <ele>1191.2023</ele>
        <time>2015-08-17T10:22:06Z</time>
      </trkpt>
      <trkpt lat="45.46222" lon="2.90757">
        <ele>1189.2288</ele>
        <time>2015-08-17T10:22:11Z</time>
      </trkpt>
      <trkpt lat="45.46229" lon="2.90764">
        <ele>1189.2288</ele>
        <time>2015-08-17T10:22:18Z</time>
      </trkpt>
      <trkpt lat="45.4623" lon="2.90765">
        <ele>1187.2427</ele>
        <time>2015-08-17T10:22:23Z</time>
      </trkpt>
      <trkpt lat="45.46233" lon="2.90774">
        <ele>1187.2427</ele>
        <time>2015-08-17T10:22:28Z</time>
      </trkpt>
      <trkpt lat="45.46236" lon="2.90778">
        <ele>1185.0636</ele>
        <time>2015-08-17T10:22:36Z</time>
      </trkpt>
      <trkpt lat="45.46248" lon="2.90801">
        <ele>1182.712</ele>
        <time>2015-08-17T10:22:53Z</time>
      </trkpt>
      <trkpt lat="45.4625" lon="2.90837">
        <ele>1180.1499</ele>
        <time>2015-08-17T10:23:06Z</time>
      </trkpt>
      <trkpt lat="45.46255" lon="2.90866">
        <ele>1177.3427</ele>
        <time>2015-08-17T10:23:33Z</time>
      </trkpt>
      <trkpt lat="45.46257" lon="2.909">
        <ele>1174.3739</ele>
        <time>2015-08-17T10:23:46Z</time>
      </trkpt>
      <trkpt lat="45.46261" lon="2.90942">
        <ele>1171.1923</ele>
        <time>2015-08-17T10:24:09Z</time>
      </trkpt>
      <trkpt lat="45.46259" lon="2.9097">
        <ele>1167.9664</ele>
        <time>2015-08-17T10:24:25Z</time>
      </trkpt>
      <trkpt lat="45.46258" lon="2.90972">
        <ele>1167.9664</ele>
        <time>2015-08-17T10:24:26Z</time>
      </trkpt>
      <trkpt lat="45.4626" lon="2.91015">
        <ele>1164.4926</ele>
        <time>2015-08-17T10:24:51Z</time>
      </trkpt>
      <trkpt lat="45.46254" lon="2.91058">
        <ele>1160.9573</ele>
        <time>2015-08-17T10:25:17Z</time>
      </trkpt>
      <trkpt lat="45.4625" lon="2.91075">
        <ele>1157.6775</ele>
        <time>2015-08-17T10:25:25Z</time>
      </trkpt>
      <trkpt lat="45.46246" lon="2.91108">
        <ele>1154.3982</ele>
        <time>2015-08-17T10:25:46Z</time>
      </trkpt>
      <trkpt lat="45.46232" lon="2.91147">
        <ele>1151.2147</ele>
        <time>2015-08-17T10:26:16Z</time>
      </trkpt>
      <trkpt lat="45.46196" lon="2.91201">
        <ele>1147.5518</ele>
        <time>2015-08-17T10:27:00Z</time>
      </trkpt>
      <trkpt lat="45.46178" lon="2.91211">
        <ele>1143.8864</ele>
        <time>2015-08-17T10:27:09Z</time>
      </trkpt>
      <trkpt lat="45.46176" lon="2.91212">
        <ele>1143.8864</ele>
        <time>2015-08-17T10:27:11Z</time>
      </trkpt>
      <trkpt lat="45.46161" lon="2.91224">
        <ele>1140.3143</ele>
        <time>2015-08-17T10:27:25Z</time>
      </trkpt>
      <trkpt lat="45.4616" lon="2.91225">
        <ele>1140.3143</ele>
        <time>2015-08-17T10:27:26Z</time>
      </trkpt>
      <trkpt lat="45.46155" lon="2.91229">
        <ele>1140.3143</ele>
        <time>2015-08-17T10:27:34Z</time>
      </trkpt>
      <trkpt lat="45.46151" lon="2.91233">
        <ele>1136.9385</ele>
        <time>2015-08-17T10:27:36Z</time>
      </trkpt>
      <trkpt lat="45.46147" lon="2.91238">
        <ele>1136.9385</ele>
        <time>2015-08-17T10:27:41Z</time>
      </trkpt>
      <trkpt lat="45.46144" lon="2.91246">
        <ele>1133.9254</ele>
        <time>2015-08-17T10:27:52Z</time>
      </trkpt>
      <trkpt lat="45.46133" lon="2.91274">
        <ele>1131.0822</ele>
        <time>2015-08-17T10:28:06Z</time>
      </trkpt>
      <trkpt lat="45.46117" lon="2.91299">
        <ele>1128.6184</ele>
        <time>2015-08-17T10:28:26Z</time>
      </trkpt>
      <trkpt lat="45.4611" lon="2.91309">
        <ele>1126.4391</ele>
        <time>2015-08-17T10:28:32Z</time>
      </trkpt>
      <trkpt lat="45.46106" lon="2.91312">
        <ele>1126.4391</ele>
        <time>2015-08-17T10:28:41Z</time>
      </trkpt>
      <trkpt lat="45.46094" lon="2.9133">
        <ele>1124.6709</ele>
        <time>2015-08-17T10:28:58Z</time>
      </trkpt>
      <trkpt lat="45.46059" lon="2.91482">
        <ele>1124.2518</ele>
        <time>2015-08-17T10:30:27Z</time>
      </trkpt>
      <trkpt lat="45.46058" lon="2.91486">
        <ele>1124.2518</ele>
        <time>2015-08-17T10:30:31Z</time>
      </trkpt>
      <trkpt lat="45.46056" lon="2.9152">
        <ele>1124.2449</ele>
        <time>2015-08-17T10:30:49Z</time>
      </trkpt>
      <trkpt lat="45.46056" lon="2.91585">
        <ele>1124.5739</ele>
        <time>2015-08-17T10:31:27Z</time>
      </trkpt>
      <trkpt lat="45.46056" lon="2.91587">
        <ele>1124.5739</ele>
        <time>2015-08-17T10:31:34Z</time>
      </trkpt>
      <trkpt lat="45.46071" lon="2.91625">
        <ele>1124.9359</ele>
        <time>2015-08-17T10:32:06Z</time>
      </trkpt>
      <trkpt lat="45.4607" lon="2.91623">
        <ele>1124.9359</ele>
        <time>2015-08-17T10:35:41Z</time>
      </trkpt>
      <trkpt lat="45.46071" lon="2.91627">
        <ele>1124.9359</ele>
        <time>2015-08-17T10:35:46Z</time>
      </trkpt>
      <trkpt lat="45.46075" lon="2.91632">
        <ele>1123.4796</ele>
        <time>2015-08-17T10:35:51Z</time>
      </trkpt>
      <trkpt lat="45.46079" lon="2.91637">
        <ele>1123.4796</ele>
        <time>2015-08-17T10:35:56Z</time>
      </trkpt>
      <trkpt lat="45.46082" lon="2.91643">
        <ele>1122.1838</ele>
        <time>2015-08-17T10:36:01Z</time>
      </trkpt>
      <trkpt lat="45.46085" lon="2.91649">
        <ele>1122.1838</ele>
        <time>2015-08-17T10:36:06Z</time>
      </trkpt>
      <trkpt lat="45.46089" lon="2.91655">
        <ele>1121.0801</ele>
        <time>2015-08-17T10:36:11Z</time>
      </trkpt>
      <trkpt lat="45.46091" lon="2.91661">
        <ele>1121.0801</ele>
        <time>2015-08-17T10:36:16Z</time>
      </trkpt>
      <trkpt lat="45.46095" lon="2.91668">
        <ele>1120.1249</ele>
        <time>2015-08-17T10:36:21Z</time>
      </trkpt>
      <trkpt lat="45.46099" lon="2.91671">
        <ele>1120.1249</ele>
        <time>2015-08-17T10:36:26Z</time>
      </trkpt>
      <trkpt lat="45.46102" lon="2.91677">
        <ele>1119.2195</ele>
        <time>2015-08-17T10:36:31Z</time>
      </trkpt>
      <trkpt lat="45.46108" lon="2.91681">
        <ele>1119.2195</ele>
        <time>2015-08-17T10:36:36Z</time>
      </trkpt>
      <trkpt lat="45.46115" lon="2.91685">
        <ele>1118.359</ele>
        <time>2015-08-17T10:36:41Z</time>
      </trkpt>
      <trkpt lat="45.46122" lon="2.91688">
        <ele>1118.359</ele>
        <time>2015-08-17T10:36:46Z</time>
      </trkpt>
      <trkpt lat="45.46128" lon="2.9169">
        <ele>1117.6971</ele>
        <time>2015-08-17T10:36:51Z</time>
      </trkpt>
      <trkpt lat="45.46135" lon="2.91692">
        <ele>1117.6971</ele>
        <time>2015-08-17T10:36:56Z</time>
      </trkpt>
      <trkpt lat="45.4614" lon="2.91696">
        <ele>1117.0298</ele>
        <time>2015-08-17T10:37:01Z</time>
      </trkpt>
      <trkpt lat="45.46145" lon="2.91697">
        <ele>1117.0298</ele>
        <time>2015-08-17T10:37:06Z</time>
      </trkpt>
      <trkpt lat="45.46147" lon="2.91697">
        <ele>1117.0298</ele>
        <time>2015-08-17T10:37:11Z</time>
      </trkpt>
      <trkpt lat="45.46152" lon="2.917">
        <ele>1116.7009</ele>
        <time>2015-08-17T10:37:16Z</time>
      </trkpt>
      <trkpt lat="45.46156" lon="2.91705">
        <ele>1116.7009</ele>
        <time>2015-08-17T10:37:21Z</time>
      </trkpt>
      <trkpt lat="45.4616" lon="2.9171">
        <ele>1116.625</ele>
        <time>2015-08-17T10:37:26Z</time>
      </trkpt>
      <trkpt lat="45.46162" lon="2.91716">
        <ele>1116.625</ele>
        <time>2015-08-17T10:37:31Z</time>
      </trkpt>
      <trkpt lat="45.46163" lon="2.91725">
        <ele>1116.7938</ele>
        <time>2015-08-17T10:37:36Z</time>
      </trkpt>
      <trkpt lat="45.4616" lon="2.9173">
        <ele>1116.7938</ele>
        <time>2015-08-17T10:37:41Z</time>
      </trkpt>
      <trkpt lat="45.46159" lon="2.91735">
        <ele>1116.7938</ele>
        <time>2015-08-17T10:37:46Z</time>
      </trkpt>
      <trkpt lat="45.46158" lon="2.91742">
        <ele>1117.3433</ele>
        <time>2015-08-17T10:37:51Z</time>
      </trkpt>
      <trkpt lat="45.46157" lon="2.91743">
        <ele>1117.3433</ele>
        <time>2015-08-17T10:37:56Z</time>
      </trkpt>
      <trkpt lat="45.46157" lon="2.91746">
        <ele>1117.3433</ele>
        <time>2015-08-17T10:38:01Z</time>
      </trkpt>
      <trkpt lat="45.46158" lon="2.91751">
        <ele>1117.3433</ele>
        <time>2015-08-17T10:38:06Z</time>
      </trkpt>
      <trkpt lat="45.46161" lon="2.91756">
        <ele>1118.2397</ele>
        <time>2015-08-17T10:38:11Z</time>
      </trkpt>
      <trkpt lat="45.46167" lon="2.91756">
        <ele>1118.2397</ele>
        <time>2015-08-17T10:38:16Z</time>
      </trkpt>
      <trkpt lat="45.46173" lon="2.91756">
        <ele>1119.2493</ele>
        <time>2015-08-17T10:38:21Z</time>
      </trkpt>
      <trkpt lat="45.4618" lon="2.91759">
        <ele>1119.2493</ele>
        <time>2015-08-17T10:38:26Z</time>
      </trkpt>
      <trkpt lat="45.46186" lon="2.9176">
        <ele>1120.3567</ele>
        <time>2015-08-17T10:38:31Z</time>
      </trkpt>
      <trkpt lat="45.4619" lon="2.91764">
        <ele>1120.3567</ele>
        <time>2015-08-17T10:38:36Z</time>
      </trkpt>
      <trkpt lat="45.46195" lon="2.91768">
        <ele>1121.6198</ele>
        <time>2015-08-17T10:38:41Z</time>
      </trkpt>
      <trkpt lat="45.46203" lon="2.9177">
        <ele>1121.6198</ele>
        <time>2015-08-17T10:38:46Z</time>
      </trkpt>
      <trkpt lat="45.46208" lon="2.91774">
        <ele>1122.9906</ele>
        <time>2015-08-17T10:38:51Z</time>
      </trkpt>
      <trkpt lat="45.46213" lon="2.91778">
        <ele>1122.9906</ele>
        <time>2015-08-17T10:38:56Z</time>
      </trkpt>
      <trkpt lat="45.46218" lon="2.9178">
        <ele>1124.54</ele>
        <time>2015-08-17T10:39:01Z</time>
      </trkpt>
      <trkpt lat="45.46223" lon="2.91782">
        <ele>1124.54</ele>
        <time>2015-08-17T10:39:06Z</time>
      </trkpt>
      <trkpt lat="45.46229" lon="2.91786">
        <ele>1126.391</ele>
        <time>2015-08-17T10:39:11Z</time>
      </trkpt>
      <trkpt lat="45.46232" lon="2.91791">
        <ele>1126.391</ele>
        <time>2015-08-17T10:39:16Z</time>
      </trkpt>
      <trkpt lat="45.46238" lon="2.91794">
        <ele>1128.1954</ele>
        <time>2015-08-17T10:39:21Z</time>
      </trkpt>
      <trkpt lat="45.46242" lon="2.91792">
        <ele>1128.1954</ele>
        <time>2015-08-17T10:39:26Z</time>
      </trkpt>
      <trkpt lat="45.46247" lon="2.91792">
        <ele>1129.7177</ele>
        <time>2015-08-17T10:39:31Z</time>
      </trkpt>
      <trkpt lat="45.46276" lon="2.9177">
        <ele>1131.8641</ele>
        <time>2015-08-17T10:40:01Z</time>
      </trkpt>
      <trkpt lat="45.4628" lon="2.91766">
        <ele>1131.8641</ele>
        <time>2015-08-17T10:40:06Z</time>
      </trkpt>
      <trkpt lat="45.46338" lon="2.91704">
        <ele>1136.5398</ele>
        <time>2015-08-17T10:41:07Z</time>
      </trkpt>
      <trkpt lat="45.46381" lon="2.91679">
        <ele>1141.9862</ele>
        <time>2015-08-17T10:41:50Z</time>
      </trkpt>
      <trkpt lat="45.464" lon="2.91656">
        <ele>1147.1633</ele>
        <time>2015-08-17T10:42:11Z</time>
      </trkpt>
      <trkpt lat="45.46411" lon="2.91647">
        <ele>1152.1316</ele>
        <time>2015-08-17T10:42:21Z</time>
      </trkpt>
      <trkpt lat="45.46468" lon="2.91621">
        <ele>1157.9851</ele>
        <time>2015-08-17T10:43:07Z</time>
      </trkpt>
      <trkpt lat="45.4647" lon="2.9162">
        <ele>1157.9851</ele>
        <time>2015-08-17T10:43:16Z</time>
      </trkpt>
      <trkpt lat="45.46545" lon="2.916">
        <ele>1161.3551</ele>
        <time>2015-08-17T10:44:31Z</time>
      </trkpt>
      <trkpt lat="45.46557" lon="2.91565">
        <ele>1164.4447</ele>
        <time>2015-08-17T10:44:56Z</time>
      </trkpt>
      <trkpt lat="45.46558" lon="2.91563">
        <ele>1164.4447</ele>
        <time>2015-08-17T10:44:56Z</time>
      </trkpt>
      <trkpt lat="45.46567" lon="2.91546">
        <ele>1167.4521</ele>
        <time>2015-08-17T10:45:10Z</time>
      </trkpt>
      <trkpt lat="45.46567" lon="2.91545">
        <ele>1167.4521</ele>
        <time>2015-08-17T10:45:11Z</time>
      </trkpt>
      <trkpt lat="45.46571" lon="2.9154">
        <ele>1167.4521</ele>
        <time>2015-08-17T10:45:22Z</time>
      </trkpt>
      <trkpt lat="45.4658" lon="2.91535">
        <ele>1170.5037</ele>
        <time>2015-08-17T10:45:31Z</time>
      </trkpt>
      <trkpt lat="45.46604" lon="2.91532">
        <ele>1173.4285</ele>
        <time>2015-08-17T10:45:46Z</time>
      </trkpt>
      <trkpt lat="45.4662" lon="2.91549">
        <ele>1175.8094</ele>
        <time>2015-08-17T10:46:01Z</time>
      </trkpt>
      <trkpt lat="45.46626" lon="2.91556">
        <ele>1175.8094</ele>
        <time>2015-08-17T10:46:06Z</time>
      </trkpt>
      <trkpt lat="45.4663" lon="2.91566">
        <ele>1177.8099</ele>
        <time>2015-08-17T10:46:12Z</time>
      </trkpt>
      <trkpt lat="45.46638" lon="2.91585">
        <ele>1179.4816</ele>
        <time>2015-08-17T10:47:00Z</time>
      </trkpt>
      <trkpt lat="45.46671" lon="2.91641">
        <ele>1181.6948</ele>
        <time>2015-08-17T10:47:11Z</time>
      </trkpt>
      <trkpt lat="45.46679" lon="2.91645">
        <ele>1181.6948</ele>
        <time>2015-08-17T10:47:26Z</time>
      </trkpt>
      <trkpt lat="45.46724" lon="2.9165">
        <ele>1183.7133</ele>
        <time>2015-08-17T10:48:10Z</time>
      </trkpt>
      <trkpt lat="45.46746" lon="2.91649">
        <ele>1184.8552</ele>
        <time>2015-08-17T10:48:11Z</time>
      </trkpt>
      <trkpt lat="45.46751" lon="2.9165">
        <ele>1184.8552</ele>
        <time>2015-08-17T10:48:17Z</time>
      </trkpt>
      <trkpt lat="45.46817" lon="2.91655">
        <ele>1187.0283</ele>
        <time>2015-08-17T10:49:11Z</time>
      </trkpt>
      <trkpt lat="45.46895" lon="2.91664">
        <ele>1188.8269</ele>
        <time>2015-08-17T10:50:13Z</time>
      </trkpt>
      <trkpt lat="45.46901" lon="2.91664">
        <ele>1188.8269</ele>
        <time>2015-08-17T10:50:17Z</time>
      </trkpt>
      <trkpt lat="45.46925" lon="2.91665">
        <ele>1190.2183</ele>
        <time>2015-08-17T10:50:40Z</time>
      </trkpt>
      <trkpt lat="45.46937" lon="2.91667">
        <ele>1191.7065</ele>
        <time>2015-08-17T10:51:01Z</time>
      </trkpt>
      <trkpt lat="45.46951" lon="2.91668">
        <ele>1193.312</ele>
        <time>2015-08-17T10:51:02Z</time>
      </trkpt>
      <trkpt lat="45.46967" lon="2.91673">
        <ele>1194.8519</ele>
        <time>2015-08-17T10:51:14Z</time>
      </trkpt>
      <trkpt lat="45.4697" lon="2.91674">
        <ele>1194.8519</ele>
        <time>2015-08-17T10:51:16Z</time>
      </trkpt>
      <trkpt lat="45.46978" lon="2.91678">
        <ele>1196.1857</ele>
        <time>2015-08-17T10:51:23Z</time>
      </trkpt>
      <trkpt lat="45.46981" lon="2.91679">
        <ele>1196.1857</ele>
        <time>2015-08-17T10:51:31Z</time>
      </trkpt>
      <trkpt lat="45.4701" lon="2.91692">
        <ele>1197.2275</ele>
        <time>2015-08-17T10:51:59Z</time>
      </trkpt>
      <trkpt lat="45.47029" lon="2.91698">
        <ele>1197.9708</ele>
        <time>2015-08-17T10:52:12Z</time>
      </trkpt>
      <trkpt lat="45.47046" lon="2.91707">
        <ele>1198.5978</ele>
        <time>2015-08-17T10:52:17Z</time>
      </trkpt>
      <trkpt lat="45.4705" lon="2.9171">
        <ele>1198.5978</ele>
        <time>2015-08-17T10:52:25Z</time>
      </trkpt>
      <trkpt lat="45.47108" lon="2.91757">
        <ele>1199.0759</ele>
        <time>2015-08-17T10:53:14Z</time>
      </trkpt>
      <trkpt lat="45.47108" lon="2.91758">
        <ele>1199.0759</ele>
        <time>2015-08-17T10:53:16Z</time>
      </trkpt>
      <trkpt lat="45.47119" lon="2.91787">
        <ele>1199.4191</ele>
        <time>2015-08-17T10:54:03Z</time>
      </trkpt>
      <trkpt lat="45.47144" lon="2.91856">
        <ele>1199.9719</ele>
        <time>2015-08-17T10:54:14Z</time>
      </trkpt>
      <trkpt lat="45.47144" lon="2.9186">
        <ele>1199.9719</ele>
        <time>2015-08-17T10:54:16Z</time>
      </trkpt>
      <trkpt lat="45.47156" lon="2.91963">
        <ele>1200.8513</ele>
        <time>2015-08-17T10:55:16Z</time>
      </trkpt>
      <trkpt lat="45.47162" lon="2.91973">
        <ele>1201.56</ele>
        <time>2015-08-17T10:55:56Z</time>
      </trkpt>
      <trkpt lat="45.47217" lon="2.92035">
        <ele>1202.0121</ele>
        <time>2015-08-17T10:56:16Z</time>
      </trkpt>
      <trkpt lat="45.47229" lon="2.92068">
        <ele>1202.3018</ele>
        <time>2015-08-17T10:57:07Z</time>
      </trkpt>
      <trkpt lat="45.47218" lon="2.92118">
        <ele>1201.9402</ele>
        <time>2015-08-17T10:57:16Z</time>
      </trkpt>
      <trkpt lat="45.4721" lon="2.92151">
        <ele>1201.4279</ele>
        <time>2015-08-17T10:57:39Z</time>
      </trkpt>
      <trkpt lat="45.47209" lon="2.92158">
        <ele>1201.4279</ele>
        <time>2015-08-17T10:58:07Z</time>
      </trkpt>
      <trkpt lat="45.47185" lon="2.92206">
        <ele>1199.8163</ele>
        <time>2015-08-17T10:58:16Z</time>
      </trkpt>
      <trkpt lat="45.47165" lon="2.92224">
        <ele>1198.1177</ele>
        <time>2015-08-17T10:58:41Z</time>
      </trkpt>
      <trkpt lat="45.47159" lon="2.92229">
        <ele>1198.1177</ele>
        <time>2015-08-17T10:58:58Z</time>
      </trkpt>
      <trkpt lat="45.47116" lon="2.9226">
        <ele>1196.0308</ele>
        <time>2015-08-17T10:59:17Z</time>
      </trkpt>
      <trkpt lat="45.47111" lon="2.92265">
        <ele>1196.0308</ele>
        <time>2015-08-17T10:59:22Z</time>
      </trkpt>
      <trkpt lat="45.47088" lon="2.92284">
        <ele>1193.9258</ele>
        <time>2015-08-17T11:00:04Z</time>
      </trkpt>
      <trkpt lat="45.4706" lon="2.92304">
        <ele>1191.6993</ele>
        <time>2015-08-17T11:00:19Z</time>
      </trkpt>
      <trkpt lat="45.47058" lon="2.92305">
        <ele>1191.6993</ele>
        <time>2015-08-17T11:00:21Z</time>
      </trkpt>
      <trkpt lat="45.4705" lon="2.92305">
        <ele>1189.6012</ele>
        <time>2015-08-17T11:00:54Z</time>
      </trkpt>
      <trkpt lat="45.47018" lon="2.9234">
        <ele>1187.3009</ele>
        <time>2015-08-17T11:01:14Z</time>
      </trkpt>
      <trkpt lat="45.47018" lon="2.9234">
        <ele>1187.3009</ele>
        <time>2015-08-17T11:01:16Z</time>
      </trkpt>
      <trkpt lat="45.47018" lon="2.9234">
        <ele>1187.3009</ele>
        <time>2015-08-17T11:01:23Z</time>
      </trkpt>
      <trkpt lat="45.47035" lon="2.92322">
        <ele>1184.8811</ele>
        <time>2015-08-17T11:03:46Z</time>
      </trkpt>
      <trkpt lat="45.4704" lon="2.92324">
        <ele>1184.8811</ele>
        <time>2015-08-17T11:03:51Z</time>
      </trkpt>
      <trkpt lat="45.47045" lon="2.92326">
        <ele>1182.4767</ele>
        <time>2015-08-17T11:03:56Z</time>
      </trkpt>
      <trkpt lat="45.47045" lon="2.92326">
        <ele>1182.4767</ele>
        <time>2015-08-17T11:04:01Z</time>
      </trkpt>
      <trkpt lat="45.47048" lon="2.92329">
        <ele>1182.4767</ele>
        <time>2015-08-17T11:04:36Z</time>
      </trkpt>
      <trkpt lat="45.47051" lon="2.92334">
        <ele>1182.4767</ele>
        <time>2015-08-17T11:04:41Z</time>
      </trkpt>
      <trkpt lat="45.47053" lon="2.92339">
        <ele>1180.1112</ele>
        <time>2015-08-17T11:04:46Z</time>
      </trkpt>
      <trkpt lat="45.47053" lon="2.92339">
        <ele>1180.1112</ele>
        <time>2015-08-17T11:04:51Z</time>
      </trkpt>
      <trkpt lat="45.47055" lon="2.92345">
        <ele>1180.1112</ele>
        <time>2015-08-17T11:05:01Z</time>
      </trkpt>
      <trkpt lat="45.47055" lon="2.92348">
        <ele>1180.1112</ele>
        <time>2015-08-17T11:05:12Z</time>
      </trkpt>
      <trkpt lat="45.47074" lon="2.92372">
        <ele>1178.0947</ele>
        <time>2015-08-17T11:05:28Z</time>
      </trkpt>
      <trkpt lat="45.47082" lon="2.92372">
        <ele>1178.0947</ele>
        <time>2015-08-17T11:05:33Z</time>
      </trkpt>
      <trkpt lat="45.4709" lon="2.92378">
        <ele>1176.3383</ele>
        <time>2015-08-17T11:05:41Z</time>
      </trkpt>
      <trkpt lat="45.47098" lon="2.92382">
        <ele>1176.3383</ele>
        <time>2015-08-17T11:05:48Z</time>
      </trkpt>
      <trkpt lat="45.47101" lon="2.92387">
        <ele>1174.7441</ele>
        <time>2015-08-17T11:06:00Z</time>
      </trkpt>
      <trkpt lat="45.47112" lon="2.92402">
        <ele>1173.4086</ele>
        <time>2015-08-17T11:06:17Z</time>
      </trkpt>
      <trkpt lat="45.47118" lon="2.92411">
        <ele>1173.4086</ele>
        <time>2015-08-17T11:06:41Z</time>
      </trkpt>
      <trkpt lat="45.47133" lon="2.92442">
        <ele>1172.463</ele>
        <time>2015-08-17T11:06:46Z</time>
      </trkpt>
      <trkpt lat="45.47138" lon="2.92458">
        <ele>1171.264</ele>
        <time>2015-08-17T11:07:47Z</time>
      </trkpt>
      <trkpt lat="45.47148" lon="2.92514">
        <ele>1169.9796</ele>
        <time>2015-08-17T11:08:51Z</time>
      </trkpt>
      <trkpt lat="45.47151" lon="2.92527">
        <ele>1168.9386</ele>
        <time>2015-08-17T11:09:00Z</time>
      </trkpt>
      <trkpt lat="45.47151" lon="2.92535">
        <ele>1168.9386</ele>
        <time>2015-08-17T11:09:07Z</time>
      </trkpt>
      <trkpt lat="45.47144" lon="2.92607">
        <ele>1168.185</ele>
        <time>2015-08-17T11:09:48Z</time>
      </trkpt>
      <trkpt lat="45.47144" lon="2.92609">
        <ele>1168.185</ele>
        <time>2015-08-17T11:09:59Z</time>
      </trkpt>
      <trkpt lat="45.47149" lon="2.92625">
        <ele>1167.4564</ele>
        <time>2015-08-17T11:10:07Z</time>
      </trkpt>
      <trkpt lat="45.47157" lon="2.92675">
        <ele>1166.7828</ele>
        <time>2015-08-17T11:10:46Z</time>
      </trkpt>
      <trkpt lat="45.47143" lon="2.92715">
        <ele>1165.9468</ele>
        <time>2015-08-17T11:11:42Z</time>
      </trkpt>
      <trkpt lat="45.47143" lon="2.92718">
        <ele>1165.9468</ele>
        <time>2015-08-17T11:11:50Z</time>
      </trkpt>
      <trkpt lat="45.4714" lon="2.92725">
        <ele>1165.9468</ele>
        <time>2015-08-17T11:11:58Z</time>
      </trkpt>
      <trkpt lat="45.47131" lon="2.92745">
        <ele>1165.1217</ele>
        <time>2015-08-17T11:12:06Z</time>
      </trkpt>
      <trkpt lat="45.4713" lon="2.92746">
        <ele>1165.1217</ele>
        <time>2015-08-17T11:12:07Z</time>
      </trkpt>
      <trkpt lat="45.47117" lon="2.92777">
        <ele>1164.324</ele>
        <time>2015-08-17T11:12:41Z</time>
      </trkpt>
      <trkpt lat="45.47117" lon="2.92782">
        <ele>1164.324</ele>
        <time>2015-08-17T11:12:46Z</time>
      </trkpt>
      <trkpt lat="45.47084" lon="2.92832">
        <ele>1163.5109</ele>
        <time>2015-08-17T11:13:46Z</time>
      </trkpt>
      <trkpt lat="45.47085" lon="2.92835">
        <ele>1163.5109</ele>
        <time>2015-08-17T11:13:53Z</time>
      </trkpt>
      <trkpt lat="45.47085" lon="2.92838">
        <ele>1163.5109</ele>
        <time>2015-08-17T11:13:56Z</time>
      </trkpt>
      <trkpt lat="45.47084" lon="2.92838">
        <ele>1163.5109</ele>
        <time>2015-08-17T11:14:03Z</time>
      </trkpt>
      <trkpt lat="45.4706" lon="2.92874">
        <ele>1162.6283</ele>
        <time>2015-08-17T11:15:47Z</time>
      </trkpt>
      <trkpt lat="45.47046" lon="2.92893">
        <ele>1161.871</ele>
        <time>2015-08-17T11:16:49Z</time>
      </trkpt>
      <trkpt lat="45.47043" lon="2.92895">
        <ele>1161.871</ele>
        <time>2015-08-17T11:16:51Z</time>
      </trkpt>
      <trkpt lat="45.47038" lon="2.92899">
        <ele>1161.871</ele>
        <time>2015-08-17T11:16:56Z</time>
      </trkpt>
      <trkpt lat="45.47006" lon="2.92907">
        <ele>1160.9578</ele>
        <time>2015-08-17T11:18:13Z</time>
      </trkpt>
      <trkpt lat="45.46965" lon="2.92903">
        <ele>1159.8302</ele>
        <time>2015-08-17T11:19:51Z</time>
      </trkpt>
      <trkpt lat="45.46964" lon="2.92909">
        <ele>1159.8302</ele>
        <time>2015-08-17T11:20:01Z</time>
      </trkpt>
      <trkpt lat="45.46961" lon="2.9291">
        <ele>1159.8302</ele>
        <time>2015-08-17T11:20:06Z</time>
      </trkpt>
      <trkpt lat="45.4698" lon="2.92898">
        <ele>1158.838</ele>
        <time>2015-08-17T11:20:48Z</time>
      </trkpt>
      <trkpt lat="45.46981" lon="2.92897">
        <ele>1158.838</ele>
        <time>2015-08-17T11:21:44Z</time>
      </trkpt>
      <trkpt lat="45.46987" lon="2.92896">
        <ele>1158.838</ele>
        <time>2015-08-17T11:21:52Z</time>
      </trkpt>
      <trkpt lat="45.46988" lon="2.92895">
        <ele>1158.838</ele>
        <time>2015-08-17T11:22:02Z</time>
      </trkpt>
      <trkpt lat="45.46989" lon="2.92895">
        <ele>1158.1461</ele>
        <time>2015-08-17T11:28:44Z</time>
      </trkpt>
      <trkpt lat="45.46995" lon="2.92894">
        <ele>1158.1461</ele>
        <time>2015-08-17T11:28:46Z</time>
      </trkpt>
      <trkpt lat="45.47002" lon="2.9289">
        <ele>1157.6615</ele>
        <time>2015-08-17T11:28:51Z</time>
      </trkpt>
      <trkpt lat="45.47007" lon="2.92885">
        <ele>1157.6615</ele>
        <time>2015-08-17T11:28:56Z</time>
      </trkpt>
      <trkpt lat="45.47012" lon="2.92882">
        <ele>1157.2539</ele>
        <time>2015-08-17T11:29:03Z</time>
      </trkpt>
      <trkpt lat="45.47016" lon="2.92878">
        <ele>1157.2539</ele>
        <time>2015-08-17T11:29:12Z</time>
      </trkpt>
      <trkpt lat="45.47057" lon="2.92851">
        <ele>1157.1771</ele>
        <time>2015-08-17T11:29:51Z</time>
      </trkpt>
      <trkpt lat="45.47071" lon="2.92837">
        <ele>1157.0165</ele>
        <time>2015-08-17T11:30:49Z</time>
      </trkpt>
      <trkpt lat="45.47072" lon="2.92836">
        <ele>1157.0165</ele>
        <time>2015-08-17T11:30:51Z</time>
      </trkpt>
      <trkpt lat="45.4711" lon="2.92794">
        <ele>1156.8207</ele>
        <time>2015-08-17T11:31:41Z</time>
      </trkpt>
      <trkpt lat="45.47119" lon="2.9277">
        <ele>1156.6919</ele>
        <time>2015-08-17T11:31:51Z</time>
      </trkpt>
      <trkpt lat="45.47122" lon="2.92759">
        <ele>1156.6919</ele>
        <time>2015-08-17T11:32:00Z</time>
      </trkpt>
      <trkpt lat="45.47123" lon="2.92756">
        <ele>1156.6097</ele>
        <time>2015-08-17T11:32:06Z</time>
      </trkpt>
      <trkpt lat="45.47152" lon="2.92691">
        <ele>1156.6847</ele>
        <time>2015-08-17T11:32:51Z</time>
      </trkpt>
      <trkpt lat="45.47156" lon="2.9267">
        <ele>1156.8455</ele>
        <time>2015-08-17T11:33:13Z</time>
      </trkpt>
      <trkpt lat="45.47156" lon="2.92668">
        <ele>1156.8455</ele>
        <time>2015-08-17T11:33:23Z</time>
      </trkpt>
      <trkpt lat="45.47145" lon="2.92595">
        <ele>1157.1123</ele>
        <time>2015-08-17T11:33:51Z</time>
      </trkpt>
      <trkpt lat="45.47147" lon="2.92588">
        <ele>1157.1123</ele>
        <time>2015-08-17T11:34:00Z</time>
      </trkpt>
      <trkpt lat="45.47151" lon="2.92512">
        <ele>1157.7343</ele>
        <time>2015-08-17T11:34:51Z</time>
      </trkpt>
      <trkpt lat="45.47149" lon="2.92498">
        <ele>1158.3936</ele>
        <time>2015-08-17T11:35:06Z</time>
      </trkpt>
      <trkpt lat="45.47131" lon="2.92417">
        <ele>1159.1699</ele>
        <time>2015-08-17T11:35:51Z</time>
      </trkpt>
      <trkpt lat="45.47067" lon="2.92355">
        <ele>1159.777</ele>
        <time>2015-08-17T11:36:51Z</time>
      </trkpt>
      <trkpt lat="45.47062" lon="2.92351">
        <ele>1159.777</ele>
        <time>2015-08-17T11:36:57Z</time>
      </trkpt>
      <trkpt lat="45.47057" lon="2.92349">
        <ele>1160.3678</ele>
        <time>2015-08-17T11:37:03Z</time>
      </trkpt>
      <trkpt lat="45.47048" lon="2.92334">
        <ele>1160.7957</ele>
        <time>2015-08-17T11:37:18Z</time>
      </trkpt>
      <trkpt lat="45.47045" lon="2.92328">
        <ele>1160.7957</ele>
        <time>2015-08-17T11:37:24Z</time>
      </trkpt>
      <trkpt lat="45.47048" lon="2.92315">
        <ele>1161.2281</ele>
        <time>2015-08-17T11:37:27Z</time>
      </trkpt>
      <trkpt lat="45.47069" lon="2.92296">
        <ele>1161.6908</ele>
        <time>2015-08-17T11:37:52Z</time>
      </trkpt>
      <trkpt lat="45.47073" lon="2.92294">
        <ele>1161.6908</ele>
        <time>2015-08-17T11:37:58Z</time>
      </trkpt>
      <trkpt lat="45.47135" lon="2.92244">
        <ele>1162.3077</ele>
        <time>2015-08-17T11:38:58Z</time>
      </trkpt>
      <trkpt lat="45.47142" lon="2.92241">
        <ele>1162.3077</ele>
        <time>2015-08-17T11:39:00Z</time>
      </trkpt>
      <trkpt lat="45.47196" lon="2.92192">
        <ele>1163.612</ele>
        <time>2015-08-17T11:39:57Z</time>
      </trkpt>
      <trkpt lat="45.4721" lon="2.92153">
        <ele>1165.1731</ele>
        <time>2015-08-17T11:40:25Z</time>
      </trkpt>
      <trkpt lat="45.47211" lon="2.9215">
        <ele>1165.1731</ele>
        <time>2015-08-17T11:40:27Z</time>
      </trkpt>
      <trkpt lat="45.47221" lon="2.92104">
        <ele>1167.0957</ele>
        <time>2015-08-17T11:40:56Z</time>
      </trkpt>
      <trkpt lat="45.47225" lon="2.92083">
        <ele>1168.9285</ele>
        <time>2015-08-17T11:41:51Z</time>
      </trkpt>
      <trkpt lat="45.47266" lon="2.92083">
        <ele>1170.3256</ele>
        <time>2015-08-17T11:42:00Z</time>
      </trkpt>
      <trkpt lat="45.47271" lon="2.92091">
        <ele>1170.3256</ele>
        <time>2015-08-17T11:42:09Z</time>
      </trkpt>
      <trkpt lat="45.47308" lon="2.92128">
        <ele>1171.4291</ele>
        <time>2015-08-17T11:42:39Z</time>
      </trkpt>
      <trkpt lat="45.47308" lon="2.92129">
        <ele>1171.4291</ele>
        <time>2015-08-17T11:42:41Z</time>
      </trkpt>
      <trkpt lat="45.47312" lon="2.92134">
        <ele>1171.4291</ele>
        <time>2015-08-17T11:42:46Z</time>
      </trkpt>
      <trkpt lat="45.47316" lon="2.92141">
        <ele>1172.2849</ele>
        <time>2015-08-17T11:42:51Z</time>
      </trkpt>
      <trkpt lat="45.47318" lon="2.92145">
        <ele>1172.2849</ele>
        <time>2015-08-17T11:42:56Z</time>
      </trkpt>
      <trkpt lat="45.47318" lon="2.92147">
        <ele>1172.2849</ele>
        <time>2015-08-17T11:43:01Z</time>
      </trkpt>
      <trkpt lat="45.47317" lon="2.92146">
        <ele>1172.2849</ele>
        <time>2015-08-17T11:43:11Z</time>
      </trkpt>
      <trkpt lat="45.47312" lon="2.92139">
        <ele>1173.47</ele>
        <time>2015-08-17T11:43:16Z</time>
      </trkpt>
      <trkpt lat="45.47308" lon="2.92136">
        <ele>1173.47</ele>
        <time>2015-08-17T11:43:21Z</time>
      </trkpt>
      <trkpt lat="45.4729" lon="2.92112">
        <ele>1174.6385</ele>
        <time>2015-08-17T11:43:41Z</time>
      </trkpt>
      <trkpt lat="45.47284" lon="2.92106">
        <ele>1174.6385</ele>
        <time>2015-08-17T11:43:46Z</time>
      </trkpt>
      <trkpt lat="45.4728" lon="2.92099">
        <ele>1176.2202</ele>
        <time>2015-08-17T11:43:51Z</time>
      </trkpt>
      <trkpt lat="45.47273" lon="2.92092">
        <ele>1176.2202</ele>
        <time>2015-08-17T11:43:56Z</time>
      </trkpt>
      <trkpt lat="45.47269" lon="2.92088">
        <ele>1177.8622</ele>
        <time>2015-08-17T11:44:01Z</time>
      </trkpt>
      <trkpt lat="45.47263" lon="2.92081">
        <ele>1177.8622</ele>
        <time>2015-08-17T11:44:06Z</time>
      </trkpt>
      <trkpt lat="45.47259" lon="2.92076">
        <ele>1179.5117</ele>
        <time>2015-08-17T11:44:16Z</time>
      </trkpt>
      <trkpt lat="45.47253" lon="2.92054">
        <ele>1181.1488</ele>
        <time>2015-08-17T11:44:31Z</time>
      </trkpt>
      <trkpt lat="45.47263" lon="2.92056">
        <ele>1182.5675</ele>
        <time>2015-08-17T11:44:39Z</time>
      </trkpt>
      <trkpt lat="45.47264" lon="2.92056">
        <ele>1182.5675</ele>
        <time>2015-08-17T11:44:41Z</time>
      </trkpt>
      <trkpt lat="45.47269" lon="2.92058">
        <ele>1182.5675</ele>
        <time>2015-08-17T11:44:47Z</time>
      </trkpt>
      <trkpt lat="45.47291" lon="2.92065">
        <ele>1183.1025</ele>
        <time>2015-08-17T11:45:12Z</time>
      </trkpt>
      <trkpt lat="45.47327" lon="2.92102">
        <ele>1182.6732</ele>
        <time>2015-08-17T11:45:41Z</time>
      </trkpt>
      <trkpt lat="45.4733" lon="2.92107">
        <ele>1182.6732</ele>
        <time>2015-08-17T11:45:46Z</time>
      </trkpt>
      <trkpt lat="45.47334" lon="2.92112">
        <ele>1182.0288</ele>
        <time>2015-08-17T11:45:51Z</time>
      </trkpt>
      <trkpt lat="45.47339" lon="2.92118">
        <ele>1182.0288</ele>
        <time>2015-08-17T11:46:11Z</time>
      </trkpt>
      <trkpt lat="45.47368" lon="2.92172">
        <ele>1180.4811</ele>
        <time>2015-08-17T11:46:34Z</time>
      </trkpt>
      <trkpt lat="45.47368" lon="2.92174">
        <ele>1180.4811</ele>
        <time>2015-08-17T11:46:40Z</time>
      </trkpt>
      <trkpt lat="45.47374" lon="2.92189">
        <ele>1178.7352</ele>
        <time>2015-08-17T11:46:46Z</time>
      </trkpt>
      <trkpt lat="45.47378" lon="2.92196">
        <ele>1178.7352</ele>
        <time>2015-08-17T11:46:51Z</time>
      </trkpt>
      <trkpt lat="45.47381" lon="2.92202">
        <ele>1176.7822</ele>
        <time>2015-08-17T11:46:56Z</time>
      </trkpt>
      <trkpt lat="45.47402" lon="2.92237">
        <ele>1174.2399</ele>
        <time>2015-08-17T11:47:20Z</time>
      </trkpt>
      <trkpt lat="45.47424" lon="2.92256">
        <ele>1171.6632</ele>
        <time>2015-08-17T11:47:41Z</time>
      </trkpt>
      <trkpt lat="45.47432" lon="2.9226">
        <ele>1171.6632</ele>
        <time>2015-08-17T11:48:00Z</time>
      </trkpt>
      <trkpt lat="45.47455" lon="2.92263">
        <ele>1168.8611</ele>
        <time>2015-08-17T11:48:06Z</time>
      </trkpt>
      <trkpt lat="45.47503" lon="2.92279">
        <ele>1165.0369</ele>
        <time>2015-08-17T11:48:46Z</time>
      </trkpt>
      <trkpt lat="45.47508" lon="2.92283">
        <ele>1165.0369</ele>
        <time>2015-08-17T11:48:51Z</time>
      </trkpt>
      <trkpt lat="45.47512" lon="2.92284">
        <ele>1161.1991</ele>
        <time>2015-08-17T11:49:00Z</time>
      </trkpt>
      <trkpt lat="45.47535" lon="2.92299">
        <ele>1156.8413</ele>
        <time>2015-08-17T11:49:17Z</time>
      </trkpt>
      <trkpt lat="45.47563" lon="2.92315">
        <ele>1152.3889</ele>
        <time>2015-08-17T11:49:42Z</time>
      </trkpt>
      <trkpt lat="45.47567" lon="2.9232">
        <ele>1152.3889</ele>
        <time>2015-08-17T11:49:46Z</time>
      </trkpt>
      <trkpt lat="45.47598" lon="2.92336">
        <ele>1147.7606</ele>
        <time>2015-08-17T11:50:12Z</time>
      </trkpt>
      <trkpt lat="45.47624" lon="2.92354">
        <ele>1143.0978</ele>
        <time>2015-08-17T11:50:34Z</time>
      </trkpt>
      <trkpt lat="45.47636" lon="2.92359">
        <ele>1138.9778</ele>
        <time>2015-08-17T11:50:53Z</time>
      </trkpt>
      <trkpt lat="45.47662" lon="2.92369">
        <ele>1134.8966</ele>
        <time>2015-08-17T11:51:09Z</time>
      </trkpt>
      <trkpt lat="45.47679" lon="2.92374">
        <ele>1131.2512</ele>
        <time>2015-08-17T11:51:21Z</time>
      </trkpt>
      <trkpt lat="45.47706" lon="2.92385">
        <ele>1127.8174</ele>
        <time>2015-08-17T11:51:42Z</time>
      </trkpt>
      <trkpt lat="45.47711" lon="2.92386">
        <ele>1127.8174</ele>
        <time>2015-08-17T11:51:46Z</time>
      </trkpt>
      <trkpt lat="45.47715" lon="2.92389">
        <ele>1124.6602</ele>
        <time>2015-08-17T11:51:51Z</time>
      </trkpt>
      <trkpt lat="45.47719" lon="2.92391">
        <ele>1124.6602</ele>
        <time>2015-08-17T11:52:02Z</time>
      </trkpt>
      <trkpt lat="45.47732" lon="2.92399">
        <ele>1121.5796</ele>
        <time>2015-08-17T11:52:08Z</time>
      </trkpt>
      <trkpt lat="45.47734" lon="2.92402">
        <ele>1121.5796</ele>
        <time>2015-08-17T11:52:11Z</time>
      </trkpt>
      <trkpt lat="45.47734" lon="2.92404">
        <ele>1121.5796</ele>
        <time>2015-08-17T11:52:21Z</time>
      </trkpt>
      <trkpt lat="45.47762" lon="2.92416">
        <ele>1118.7499</ele>
        <time>2015-08-17T11:52:46Z</time>
      </trkpt>
      <trkpt lat="45.47766" lon="2.9242">
        <ele>1118.7499</ele>
        <time>2015-08-17T11:52:55Z</time>
      </trkpt>
      <trkpt lat="45.47772" lon="2.92423">
        <ele>1116.3174</ele>
        <time>2015-08-17T11:53:00Z</time>
      </trkpt>
      <trkpt lat="45.47822" lon="2.92453">
        <ele>1114.5459</ele>
        <time>2015-08-17T11:53:52Z</time>
      </trkpt>
      <trkpt lat="45.47869" lon="2.92517">
        <ele>1113.6488</ele>
        <time>2015-08-17T11:54:48Z</time>
      </trkpt>
      <trkpt lat="45.47873" lon="2.92521">
        <ele>1113.6488</ele>
        <time>2015-08-17T11:54:52Z</time>
      </trkpt>
      <trkpt lat="45.47916" lon="2.92591">
        <ele>1113.7638</ele>
        <time>2015-08-17T11:55:44Z</time>
      </trkpt>
      <trkpt lat="45.47918" lon="2.92594">
        <ele>1113.7638</ele>
        <time>2015-08-17T11:55:46Z</time>
      </trkpt>
      <trkpt lat="45.47921" lon="2.926">
        <ele>1113.7638</ele>
        <time>2015-08-17T11:55:51Z</time>
      </trkpt>
      <trkpt lat="45.47963" lon="2.92675">
        <ele>1115.0438</ele>
        <time>2015-08-17T11:56:46Z</time>
      </trkpt>
      <trkpt lat="45.47979" lon="2.92706">
        <ele>1116.5609</ele>
        <time>2015-08-17T11:57:17Z</time>
      </trkpt>
      <trkpt lat="45.4801" lon="2.92753">
        <ele>1118.348</ele>
        <time>2015-08-17T11:57:46Z</time>
      </trkpt>
      <trkpt lat="45.48015" lon="2.92757">
        <ele>1118.348</ele>
        <time>2015-08-17T11:58:00Z</time>
      </trkpt>
      <trkpt lat="45.48045" lon="2.92823">
        <ele>1120.6941</ele>
        <time>2015-08-17T11:58:36Z</time>
      </trkpt>
      <trkpt lat="45.48053" lon="2.92834">
        <ele>1122.9427</ele>
        <time>2015-08-17T11:58:45Z</time>
      </trkpt>
      <trkpt lat="45.48054" lon="2.92835">
        <ele>1122.9427</ele>
        <time>2015-08-17T11:58:46Z</time>
      </trkpt>
      <trkpt lat="45.48056" lon="2.92839">
        <ele>1122.9427</ele>
        <time>2015-08-17T11:58:53Z</time>
      </trkpt>
      <trkpt lat="45.48061" lon="2.92851">
        <ele>1125.2932</ele>
        <time>2015-08-17T11:58:56Z</time>
      </trkpt>
      <trkpt lat="45.48064" lon="2.92858">
        <ele>1125.2932</ele>
        <time>2015-08-17T11:59:01Z</time>
      </trkpt>
      <trkpt lat="45.4807" lon="2.92866">
        <ele>1127.8002</ele>
        <time>2015-08-17T11:59:07Z</time>
      </trkpt>
      <trkpt lat="45.48074" lon="2.92872">
        <ele>1127.8002</ele>
        <time>2015-08-17T11:59:11Z</time>
      </trkpt>
      <trkpt lat="45.481" lon="2.92919">
        <ele>1131.0901</ele>
        <time>2015-08-17T11:59:46Z</time>
      </trkpt>
      <trkpt lat="45.48113" lon="2.92937">
        <ele>1134.3722</ele>
        <time>2015-08-17T12:00:08Z</time>
      </trkpt>
      <trkpt lat="45.48126" lon="2.92962">
        <ele>1137.4618</ele>
        <time>2015-08-17T12:00:46Z</time>
      </trkpt>
      <trkpt lat="45.48154" lon="2.93007">
        <ele>1140.7933</ele>
        <time>2015-08-17T12:00:51Z</time>
      </trkpt>
      <trkpt lat="45.48168" lon="2.93039">
        <ele>1144.034</ele>
        <time>2015-08-17T12:01:45Z</time>
      </trkpt>
      <trkpt lat="45.4819" lon="2.93101">
        <ele>1146.9337</ele>
        <time>2015-08-17T12:01:51Z</time>
      </trkpt>
      <trkpt lat="45.48225" lon="2.93192">
        <ele>1149.42</ele>
        <time>2015-08-17T12:02:49Z</time>
      </trkpt>
      <trkpt lat="45.48261" lon="2.93293">
        <ele>1151.8164</ele>
        <time>2015-08-17T12:03:52Z</time>
      </trkpt>
      <trkpt lat="45.48292" lon="2.93393">
        <ele>1153.4865</ele>
        <time>2015-08-17T12:04:51Z</time>
      </trkpt>
      <trkpt lat="45.48325" lon="2.93495">
        <ele>1154.6351</ele>
        <time>2015-08-17T12:06:07Z</time>
      </trkpt>
      <trkpt lat="45.48326" lon="2.93496">
        <ele>1154.6351</ele>
        <time>2015-08-17T12:06:11Z</time>
      </trkpt>
      <trkpt lat="45.4833" lon="2.93503">
        <ele>1154.6351</ele>
        <time>2015-08-17T12:06:23Z</time>
      </trkpt>
      <trkpt lat="45.48361" lon="2.93529">
        <ele>1155.584</ele>
        <time>2015-08-17T12:06:48Z</time>
      </trkpt>
      <trkpt lat="45.48367" lon="2.93532">
        <ele>1155.584</ele>
        <time>2015-08-17T12:06:52Z</time>
      </trkpt>
      <trkpt lat="45.48369" lon="2.93533">
        <ele>1155.584</ele>
        <time>2015-08-17T12:06:56Z</time>
      </trkpt>
      <trkpt lat="45.4837" lon="2.93533">
        <ele>1155.584</ele>
        <time>2015-08-17T12:07:01Z</time>
      </trkpt>
      <trkpt lat="45.4838" lon="2.93536">
        <ele>1156.5164</ele>
        <time>2015-08-17T12:07:11Z</time>
      </trkpt>
      <trkpt lat="45.48384" lon="2.93538">
        <ele>1156.5164</ele>
        <time>2015-08-17T12:07:16Z</time>
      </trkpt>
      <trkpt lat="45.48386" lon="2.93539">
        <ele>1156.5164</ele>
        <time>2015-08-17T12:07:21Z</time>
      </trkpt>
      <trkpt lat="45.48391" lon="2.9354">
        <ele>1157.2709</ele>
        <time>2015-08-17T12:07:26Z</time>
      </trkpt>
      <trkpt lat="45.48395" lon="2.93534">
        <ele>1157.2709</ele>
        <time>2015-08-17T12:07:31Z</time>
      </trkpt>
      <trkpt lat="45.48398" lon="2.93527">
        <ele>1157.8861</ele>
        <time>2015-08-17T12:07:36Z</time>
      </trkpt>
      <trkpt lat="45.48402" lon="2.93522">
        <ele>1157.8861</ele>
        <time>2015-08-17T12:07:41Z</time>
      </trkpt>
      <trkpt lat="45.48408" lon="2.93518">
        <ele>1158.4272</ele>
        <time>2015-08-17T12:07:46Z</time>
      </trkpt>
      <trkpt lat="45.4841" lon="2.93511">
        <ele>1158.4272</ele>
        <time>2015-08-17T12:07:51Z</time>
      </trkpt>
      <trkpt lat="45.48412" lon="2.93507">
        <ele>1158.4272</ele>
        <time>2015-08-17T12:07:56Z</time>
      </trkpt>
      <trkpt lat="45.48417" lon="2.93505">
        <ele>1158.7678</ele>
        <time>2015-08-17T12:08:01Z</time>
      </trkpt>
      <trkpt lat="45.4842" lon="2.93503">
        <ele>1158.7678</ele>
        <time>2015-08-17T12:08:06Z</time>
      </trkpt>
      <trkpt lat="45.48428" lon="2.93503">
        <ele>1158.993</ele>
        <time>2015-08-17T12:08:11Z</time>
      </trkpt>
      <trkpt lat="45.48434" lon="2.93505">
        <ele>1158.993</ele>
        <time>2015-08-17T12:08:16Z</time>
      </trkpt>
      <trkpt lat="45.48444" lon="2.93507">
        <ele>1159.1678</ele>
        <time>2015-08-17T12:08:21Z</time>
      </trkpt>
      <trkpt lat="45.48448" lon="2.93506">
        <ele>1159.1678</ele>
        <time>2015-08-17T12:08:26Z</time>
      </trkpt>
      <trkpt lat="45.48452" lon="2.93502">
        <ele>1159.1678</ele>
        <time>2015-08-17T12:08:31Z</time>
      </trkpt>
      <trkpt lat="45.48454" lon="2.93501">
        <ele>1159.3676</ele>
        <time>2015-08-17T12:08:36Z</time>
      </trkpt>
      <trkpt lat="45.48456" lon="2.93509">
        <ele>1159.3676</ele>
        <time>2015-08-17T12:08:56Z</time>
      </trkpt>
      <trkpt lat="45.48454" lon="2.93516">
        <ele>1159.8202</ele>
        <time>2015-08-17T12:09:01Z</time>
      </trkpt>
      <trkpt lat="45.48453" lon="2.93525">
        <ele>1159.8202</ele>
        <time>2015-08-17T12:09:06Z</time>
      </trkpt>
      <trkpt lat="45.48451" lon="2.93534">
        <ele>1160.016</ele>
        <time>2015-08-17T12:09:11Z</time>
      </trkpt>
      <trkpt lat="45.48449" lon="2.93544">
        <ele>1160.016</ele>
        <time>2015-08-17T12:09:16Z</time>
      </trkpt>
      <trkpt lat="45.48448" lon="2.9355">
        <ele>1159.988</ele>
        <time>2015-08-17T12:09:21Z</time>
      </trkpt>
      <trkpt lat="45.48445" lon="2.93556">
        <ele>1159.988</ele>
        <time>2015-08-17T12:09:26Z</time>
      </trkpt>
      <trkpt lat="45.48442" lon="2.93561">
        <ele>1159.8972</ele>
        <time>2015-08-17T12:09:31Z</time>
      </trkpt>
      <trkpt lat="45.48439" lon="2.93567">
        <ele>1159.8972</ele>
        <time>2015-08-17T12:09:36Z</time>
      </trkpt>
      <trkpt lat="45.48435" lon="2.93574">
        <ele>1159.7778</ele>
        <time>2015-08-17T12:09:41Z</time>
      </trkpt>
      <trkpt lat="45.48431" lon="2.93583">
        <ele>1159.7778</ele>
        <time>2015-08-17T12:09:46Z</time>
      </trkpt>
      <trkpt lat="45.48429" lon="2.93593">
        <ele>1159.7482</ele>
        <time>2015-08-17T12:09:51Z</time>
      </trkpt>
      <trkpt lat="45.48431" lon="2.93602">
        <ele>1159.7482</ele>
        <time>2015-08-17T12:09:56Z</time>
      </trkpt>
      <trkpt lat="45.48437" lon="2.93608">
        <ele>1159.5431</ele>
        <time>2015-08-17T12:10:01Z</time>
      </trkpt>
      <trkpt lat="45.48441" lon="2.93614">
        <ele>1159.5431</ele>
        <time>2015-08-17T12:10:06Z</time>
      </trkpt>
      <trkpt lat="45.48446" lon="2.9362">
        <ele>1159.1913</ele>
        <time>2015-08-17T12:10:11Z</time>
      </trkpt>
      <trkpt lat="45.48452" lon="2.93622">
        <ele>1159.1913</ele>
        <time>2015-08-17T12:10:16Z</time>
      </trkpt>
      <trkpt lat="45.48458" lon="2.93624">
        <ele>1158.7053</ele>
        <time>2015-08-17T12:10:21Z</time>
      </trkpt>
      <trkpt lat="45.48464" lon="2.93626">
        <ele>1158.7053</ele>
        <time>2015-08-17T12:10:26Z</time>
      </trkpt>
      <trkpt lat="45.48469" lon="2.93626">
        <ele>1158.0397</ele>
        <time>2015-08-17T12:10:31Z</time>
      </trkpt>
      <trkpt lat="45.48475" lon="2.93626">
        <ele>1158.0397</ele>
        <time>2015-08-17T12:10:36Z</time>
      </trkpt>
      <trkpt lat="45.48481" lon="2.93627">
        <ele>1156.9944</ele>
        <time>2015-08-17T12:10:41Z</time>
      </trkpt>
      <trkpt lat="45.48488" lon="2.93628">
        <ele>1156.9944</ele>
        <time>2015-08-17T12:10:46Z</time>
      </trkpt>
      <trkpt lat="45.48494" lon="2.93627">
        <ele>1156.0337</ele>
        <time>2015-08-17T12:10:51Z</time>
      </trkpt>
      <trkpt lat="45.485" lon="2.93625">
        <ele>1156.0337</ele>
        <time>2015-08-17T12:10:56Z</time>
      </trkpt>
      <trkpt lat="45.48506" lon="2.9362">
        <ele>1155.0973</ele>
        <time>2015-08-17T12:11:01Z</time>
      </trkpt>
      <trkpt lat="45.48509" lon="2.93612">
        <ele>1155.0973</ele>
        <time>2015-08-17T12:11:06Z</time>
      </trkpt>
      <trkpt lat="45.48514" lon="2.93606">
        <ele>1154.3602</ele>
        <time>2015-08-17T12:11:11Z</time>
      </trkpt>
      <trkpt lat="45.48519" lon="2.93601">
        <ele>1154.3602</ele>
        <time>2015-08-17T12:11:16Z</time>
      </trkpt>
      <trkpt lat="45.48523" lon="2.93595">
        <ele>1153.6093</ele>
        <time>2015-08-17T12:11:21Z</time>
      </trkpt>
      <trkpt lat="45.48527" lon="2.93589">
        <ele>1153.6093</ele>
        <time>2015-08-17T12:11:26Z</time>
      </trkpt>
      <trkpt lat="45.48531" lon="2.93581">
        <ele>1152.7189</ele>
        <time>2015-08-17T12:11:31Z</time>
      </trkpt>
      <trkpt lat="45.48535" lon="2.93574">
        <ele>1152.7189</ele>
        <time>2015-08-17T12:11:36Z</time>
      </trkpt>
      <trkpt lat="45.4854" lon="2.93571">
        <ele>1151.6884</ele>
        <time>2015-08-17T12:11:41Z</time>
      </trkpt>
      <trkpt lat="45.48549" lon="2.93568">
        <ele>1150.5032</ele>
        <time>2015-08-17T12:11:48Z</time>
      </trkpt>
      <trkpt lat="45.48575" lon="2.9355">
        <ele>1149.0638</ele>
        <time>2015-08-17T12:12:11Z</time>
      </trkpt>
      <trkpt lat="45.48581" lon="2.93545">
        <ele>1149.0638</ele>
        <time>2015-08-17T12:12:18Z</time>
      </trkpt>
      <trkpt lat="45.48584" lon="2.93543">
        <ele>1147.7542</ele>
        <time>2015-08-17T12:12:21Z</time>
      </trkpt>
      <trkpt lat="45.48589" lon="2.93538">
        <ele>1147.7542</ele>
        <time>2015-08-17T12:12:26Z</time>
      </trkpt>
      <trkpt lat="45.48593" lon="2.93533">
        <ele>1146.4539</ele>
        <time>2015-08-17T12:12:31Z</time>
      </trkpt>
      <trkpt lat="45.48597" lon="2.93526">
        <ele>1146.4539</ele>
        <time>2015-08-17T12:12:36Z</time>
      </trkpt>
      <trkpt lat="45.48601" lon="2.9352">
        <ele>1145.2245</ele>
        <time>2015-08-17T12:12:41Z</time>
      </trkpt>
      <trkpt lat="45.48611" lon="2.93507">
        <ele>1143.9065</ele>
        <time>2015-08-17T12:12:50Z</time>
      </trkpt>
      <trkpt lat="45.48614" lon="2.93499">
        <ele>1143.9065</ele>
        <time>2015-08-17T12:12:56Z</time>
      </trkpt>
      <trkpt lat="45.48623" lon="2.9348">
        <ele>1142.2224</ele>
        <time>2015-08-17T12:13:09Z</time>
      </trkpt>
      <trkpt lat="45.48636" lon="2.93447">
        <ele>1140.0894</ele>
        <time>2015-08-17T12:13:31Z</time>
      </trkpt>
      <trkpt lat="45.48637" lon="2.93416">
        <ele>1137.7195</ele>
        <time>2015-08-17T12:13:51Z</time>
      </trkpt>
      <trkpt lat="45.48636" lon="2.93407">
        <ele>1137.7195</ele>
        <time>2015-08-17T12:13:56Z</time>
      </trkpt>
      <trkpt lat="45.48635" lon="2.93399">
        <ele>1135.3966</ele>
        <time>2015-08-17T12:14:01Z</time>
      </trkpt>
      <trkpt lat="45.48633" lon="2.93393">
        <ele>1135.3966</ele>
        <time>2015-08-17T12:14:06Z</time>
      </trkpt>
      <trkpt lat="45.48631" lon="2.93386">
        <ele>1133.0955</ele>
        <time>2015-08-17T12:14:17Z</time>
      </trkpt>
      <trkpt lat="45.48627" lon="2.93356">
        <ele>1130.6766</ele>
        <time>2015-08-17T12:14:36Z</time>
      </trkpt>
      <trkpt lat="45.48643" lon="2.93358">
        <ele>1128.415</ele>
        <time>2015-08-17T12:14:46Z</time>
      </trkpt>
      <trkpt lat="45.48644" lon="2.93365">
        <ele>1128.415</ele>
        <time>2015-08-17T12:14:51Z</time>
      </trkpt>
      <trkpt lat="45.48646" lon="2.93364">
        <ele>1128.415</ele>
        <time>2015-08-17T12:14:56Z</time>
      </trkpt>
      <trkpt lat="45.48652" lon="2.93372">
        <ele>1126.262</ele>
        <time>2015-08-17T12:15:11Z</time>
      </trkpt>
      <trkpt lat="45.48655" lon="2.9338">
        <ele>1126.262</ele>
        <time>2015-08-17T12:15:16Z</time>
      </trkpt>
      <trkpt lat="45.48658" lon="2.93387">
        <ele>1124.2008</ele>
        <time>2015-08-17T12:15:21Z</time>
      </trkpt>
      <trkpt lat="45.48691" lon="2.93406">
        <ele>1121.9274</ele>
        <time>2015-08-17T12:15:51Z</time>
      </trkpt>
      <trkpt lat="45.48694" lon="2.93412">
        <ele>1121.9274</ele>
        <time>2015-08-17T12:16:00Z</time>
      </trkpt>
      <trkpt lat="45.48761" lon="2.93472">
        <ele>1120.1259</ele>
        <time>2015-08-17T12:16:56Z</time>
      </trkpt>
      <trkpt lat="45.48773" lon="2.93479">
        <ele>1118.5641</ele>
        <time>2015-08-17T12:17:01Z</time>
      </trkpt>
      <trkpt lat="45.48821" lon="2.93532">
        <ele>1116.882</ele>
        <time>2015-08-17T12:18:00Z</time>
      </trkpt>
      <trkpt lat="45.48856" lon="2.93573">
        <ele>1114.9188</ele>
        <time>2015-08-17T12:18:56Z</time>
      </trkpt>
      <trkpt lat="45.48862" lon="2.93573">
        <ele>1114.9188</ele>
        <time>2015-08-17T12:19:10Z</time>
      </trkpt>
      <trkpt lat="45.48942" lon="2.93623">
        <ele>1112.8148</ele>
        <time>2015-08-17T12:19:56Z</time>
      </trkpt>
      <trkpt lat="45.48945" lon="2.93625">
        <ele>1112.8148</ele>
        <time>2015-08-17T12:20:01Z</time>
      </trkpt>
      <trkpt lat="45.48965" lon="2.93654">
        <ele>1110.7144</ele>
        <time>2015-08-17T12:20:30Z</time>
      </trkpt>
      <trkpt lat="45.48965" lon="2.93655">
        <ele>1110.7144</ele>
        <time>2015-08-17T12:20:31Z</time>
      </trkpt>
      <trkpt lat="45.48969" lon="2.93663">
        <ele>1110.7144</ele>
        <time>2015-08-17T12:20:36Z</time>
      </trkpt>
      <trkpt lat="45.48973" lon="2.93669">
        <ele>1108.7654</ele>
        <time>2015-08-17T12:20:41Z</time>
      </trkpt>
      <trkpt lat="45.48995" lon="2.93687">
        <ele>1106.7732</ele>
        <time>2015-08-17T12:20:54Z</time>
      </trkpt>
      <trkpt lat="45.48996" lon="2.93689">
        <ele>1106.7732</ele>
        <time>2015-08-17T12:20:56Z</time>
      </trkpt>
      <trkpt lat="45.49003" lon="2.93695">
        <ele>1104.9893</ele>
        <time>2015-08-17T12:21:06Z</time>
      </trkpt>
      <trkpt lat="45.49004" lon="2.93696">
        <ele>1104.9893</ele>
        <time>2015-08-17T12:21:26Z</time>
      </trkpt>
      <trkpt lat="45.49044" lon="2.93759">
        <ele>1102.09</ele>
        <time>2015-08-17T12:21:56Z</time>
      </trkpt>
      <trkpt lat="45.49044" lon="2.93757">
        <ele>1102.09</ele>
        <time>2015-08-17T12:22:01Z</time>
      </trkpt>
      <trkpt lat="45.49043" lon="2.93757">
        <ele>1102.09</ele>
        <time>2015-08-17T12:22:06Z</time>
      </trkpt>
      <trkpt lat="45.49045" lon="2.93759">
        <ele>1102.09</ele>
        <time>2015-08-17T12:22:16Z</time>
      </trkpt>
      <trkpt lat="45.49044" lon="2.93751">
        <ele>1098.6384</ele>
        <time>2015-08-17T12:22:21Z</time>
      </trkpt>
      <trkpt lat="45.49046" lon="2.93742">
        <ele>1098.6384</ele>
        <time>2015-08-17T12:22:26Z</time>
      </trkpt>
      <trkpt lat="45.49049" lon="2.93739">
        <ele>1094.4373</ele>
        <time>2015-08-17T12:22:31Z</time>
      </trkpt>
      <trkpt lat="45.49051" lon="2.93735">
        <ele>1094.4373</ele>
        <time>2015-08-17T12:22:36Z</time>
      </trkpt>
      <trkpt lat="45.4905" lon="2.93727">
        <ele>1088.9888</ele>
        <time>2015-08-17T12:22:41Z</time>
      </trkpt>
      <trkpt lat="45.49048" lon="2.93718">
        <ele>1088.9888</ele>
        <time>2015-08-17T12:22:46Z</time>
      </trkpt>
      <trkpt lat="45.49046" lon="2.9371">
        <ele>1083.1174</ele>
        <time>2015-08-17T12:22:51Z</time>
      </trkpt>
      <trkpt lat="45.49045" lon="2.93702">
        <ele>1083.1174</ele>
        <time>2015-08-17T12:22:56Z</time>
      </trkpt>
      <trkpt lat="45.49042" lon="2.93695">
        <ele>1077.0839</ele>
        <time>2015-08-17T12:23:01Z</time>
      </trkpt>
      <trkpt lat="45.49041" lon="2.93687">
        <ele>1077.0839</ele>
        <time>2015-08-17T12:23:06Z</time>
      </trkpt>
      <trkpt lat="45.4904" lon="2.9368">
        <ele>1070.9855</ele>
        <time>2015-08-17T12:23:11Z</time>
      </trkpt>
      <trkpt lat="45.49038" lon="2.93674">
        <ele>1070.9855</ele>
        <time>2015-08-17T12:23:16Z</time>
      </trkpt>
      <trkpt lat="45.49037" lon="2.93664">
        <ele>1064.5525</ele>
        <time>2015-08-17T12:23:21Z</time>
      </trkpt>
      <trkpt lat="45.49037" lon="2.93656">
        <ele>1064.5525</ele>
        <time>2015-08-17T12:23:26Z</time>
      </trkpt>
      <trkpt lat="45.49039" lon="2.93648">
        <ele>1058.3567</ele>
        <time>2015-08-17T12:23:31Z</time>
      </trkpt>
      <trkpt lat="45.49039" lon="2.93641">
        <ele>1058.3567</ele>
        <time>2015-08-17T12:23:36Z</time>
      </trkpt>
      <trkpt lat="45.49039" lon="2.93634">
        <ele>1052.466</ele>
        <time>2015-08-17T12:23:41Z</time>
      </trkpt>
      <trkpt lat="45.4904" lon="2.93627">
        <ele>1052.466</ele>
        <time>2015-08-17T12:23:46Z</time>
      </trkpt>
      <trkpt lat="45.49042" lon="2.93621">
        <ele>1046.9564</ele>
        <time>2015-08-17T12:23:51Z</time>
      </trkpt>
      <trkpt lat="45.49043" lon="2.93612">
        <ele>1046.9564</ele>
        <time>2015-08-17T12:23:56Z</time>
      </trkpt>
      <trkpt lat="45.49044" lon="2.93602">
        <ele>1041.9258</ele>
        <time>2015-08-17T12:24:01Z</time>
      </trkpt>
      <trkpt lat="45.49047" lon="2.93592">
        <ele>1041.9258</ele>
        <time>2015-08-17T12:24:06Z</time>
      </trkpt>
      <trkpt lat="45.49079" lon="2.93564">
        <ele>1036.6708</ele>
        <time>2015-08-17T12:24:46Z</time>
      </trkpt>
      <trkpt lat="45.491" lon="2.93569">
        <ele>1031.606</ele>
        <time>2015-08-17T12:24:58Z</time>
      </trkpt>
      <trkpt lat="45.49127" lon="2.93644">
        <ele>1026.6106</ele>
        <time>2015-08-17T12:26:01Z</time>
      </trkpt>
      <trkpt lat="45.49131" lon="2.93649">
        <ele>1026.6106</ele>
        <time>2015-08-17T12:26:06Z</time>
      </trkpt>
      <trkpt lat="45.49136" lon="2.93654">
        <ele>1022.29266</ele>
        <time>2015-08-17T12:26:11Z</time>
      </trkpt>
      <trkpt lat="45.49188" lon="2.93705">
        <ele>1018.3773</ele>
        <time>2015-08-17T12:26:59Z</time>
      </trkpt>
      <trkpt lat="45.49189" lon="2.93706">
        <ele>1018.3773</ele>
        <time>2015-08-17T12:27:05Z</time>
      </trkpt>
      <trkpt lat="45.49209" lon="2.93727">
        <ele>1015.0121</ele>
        <time>2015-08-17T12:27:31Z</time>
      </trkpt>
      <trkpt lat="45.4921" lon="2.93728">
        <ele>1015.0121</ele>
        <time>2015-08-17T12:27:36Z</time>
      </trkpt>
      <trkpt lat="45.49214" lon="2.93743">
        <ele>1012.44714</ele>
        <time>2015-08-17T12:28:11Z</time>
      </trkpt>
      <trkpt lat="45.4922" lon="2.93745">
        <ele>1012.44714</ele>
        <time>2015-08-17T12:28:16Z</time>
      </trkpt>
      <trkpt lat="45.49225" lon="2.93749">
        <ele>1010.4505</ele>
        <time>2015-08-17T12:28:21Z</time>
      </trkpt>
      <trkpt lat="45.49229" lon="2.93753">
        <ele>1010.4505</ele>
        <time>2015-08-17T12:28:26Z</time>
      </trkpt>
      <trkpt lat="45.49235" lon="2.93756">
        <ele>1008.9926</ele>
        <time>2015-08-17T12:28:31Z</time>
      </trkpt>
      <trkpt lat="45.49239" lon="2.93755">
        <ele>1008.9926</ele>
        <time>2015-08-17T12:28:36Z</time>
      </trkpt>
      <trkpt lat="45.4924" lon="2.93754">
        <ele>1008.9926</ele>
        <time>2015-08-17T12:28:41Z</time>
      </trkpt>
      <trkpt lat="45.49238" lon="2.9375">
        <ele>1007.9724</ele>
        <time>2015-08-17T12:28:46Z</time>
      </trkpt>
      <trkpt lat="45.49233" lon="2.93743">
        <ele>1007.9724</ele>
        <time>2015-08-17T12:28:51Z</time>
      </trkpt>
      <trkpt lat="45.49229" lon="2.93739">
        <ele>1007.30927</ele>
        <time>2015-08-17T12:28:56Z</time>
      </trkpt>
      <trkpt lat="45.49224" lon="2.93733">
        <ele>1007.30927</ele>
        <time>2015-08-17T12:29:01Z</time>
      </trkpt>
      <trkpt lat="45.49218" lon="2.93728">
        <ele>1006.95593</ele>
        <time>2015-08-17T12:29:07Z</time>
      </trkpt>
      <trkpt lat="45.49192" lon="2.93702">
        <ele>1006.839</ele>
        <time>2015-08-17T12:29:36Z</time>
      </trkpt>
      <trkpt lat="45.49185" lon="2.93693">
        <ele>1006.839</ele>
        <time>2015-08-17T12:29:41Z</time>
      </trkpt>
      <trkpt lat="45.49176" lon="2.93683">
        <ele>1006.97595</ele>
        <time>2015-08-17T12:29:57Z</time>
      </trkpt>
      <trkpt lat="45.49121" lon="2.93644">
        <ele>1007.78577</ele>
        <time>2015-08-17T12:30:36Z</time>
      </trkpt>
      <trkpt lat="45.49109" lon="2.93607">
        <ele>1008.8622</ele>
        <time>2015-08-17T12:31:02Z</time>
      </trkpt>
      <trkpt lat="45.49076" lon="2.93562">
        <ele>1010.2315</ele>
        <time>2015-08-17T12:31:36Z</time>
      </trkpt>
      <trkpt lat="45.49071" lon="2.93564">
        <ele>1010.2315</ele>
        <time>2015-08-17T12:31:41Z</time>
      </trkpt>
      <trkpt lat="45.49068" lon="2.93565">
        <ele>1010.2315</ele>
        <time>2015-08-17T12:31:46Z</time>
      </trkpt>
      <trkpt lat="45.49062" lon="2.93566">
        <ele>1011.8739</ele>
        <time>2015-08-17T12:31:57Z</time>
      </trkpt>
      <trkpt lat="45.49019" lon="2.93574">
        <ele>1013.84265</ele>
        <time>2015-08-17T12:32:32Z</time>
      </trkpt>
      <trkpt lat="45.49012" lon="2.93574">
        <ele>1013.84265</ele>
        <time>2015-08-17T12:32:36Z</time>
      </trkpt>
      <trkpt lat="45.49008" lon="2.9357">
        <ele>1015.9122</ele>
        <time>2015-08-17T12:32:41Z</time>
      </trkpt>
      <trkpt lat="45.49003" lon="2.93567">
        <ele>1015.9122</ele>
        <time>2015-08-17T12:32:46Z</time>
      </trkpt>
      <trkpt lat="45.48996" lon="2.93563">
        <ele>1018.1906</ele>
        <time>2015-08-17T12:32:52Z</time>
      </trkpt>
      <trkpt lat="45.48965" lon="2.93543">
        <ele>1020.7344</ele>
        <time>2015-08-17T12:33:27Z</time>
      </trkpt>
      <trkpt lat="45.48943" lon="2.9352">
        <ele>1023.40784</ele>
        <time>2015-08-17T12:33:41Z</time>
      </trkpt>
      <trkpt lat="45.4894" lon="2.93517">
        <ele>1023.40784</ele>
        <time>2015-08-17T12:34:26Z</time>
      </trkpt>
      <trkpt lat="45.48887" lon="2.93453">
        <ele>1027.4111</ele>
        <time>2015-08-17T12:34:38Z</time>
      </trkpt>
      <trkpt lat="45.48884" lon="2.93451">
        <ele>1027.4111</ele>
        <time>2015-08-17T12:34:41Z</time>
      </trkpt>
      <trkpt lat="45.48875" lon="2.93438">
        <ele>1031.4603</ele>
        <time>2015-08-17T12:34:48Z</time>
      </trkpt>
      <trkpt lat="45.48873" lon="2.93435">
        <ele>1031.4603</ele>
        <time>2015-08-17T12:34:51Z</time>
      </trkpt>
      <trkpt lat="45.48869" lon="2.93429">
        <ele>1031.4603</ele>
        <time>2015-08-17T12:34:56Z</time>
      </trkpt>
      <trkpt lat="45.48864" lon="2.93426">
        <ele>1035.6488</ele>
        <time>2015-08-17T12:35:01Z</time>
      </trkpt>
      <trkpt lat="45.48858" lon="2.93421">
        <ele>1035.6488</ele>
        <time>2015-08-17T12:35:06Z</time>
      </trkpt>
      <trkpt lat="45.48854" lon="2.93417">
        <ele>1039.7601</ele>
        <time>2015-08-17T12:35:11Z</time>
      </trkpt>
      <trkpt lat="45.48851" lon="2.93414">
        <ele>1039.7601</ele>
        <time>2015-08-17T12:35:22Z</time>
      </trkpt>
      <trkpt lat="45.48827" lon="2.9339">
        <ele>1043.7963</ele>
        <time>2015-08-17T12:35:41Z</time>
      </trkpt>
      <trkpt lat="45.48817" lon="2.93385">
        <ele>1047.6155</ele>
        <time>2015-08-17T12:35:50Z</time>
      </trkpt>
      <trkpt lat="45.48789" lon="2.93363">
        <ele>1051.1595</ele>
        <time>2015-08-17T12:36:26Z</time>
      </trkpt>
      <trkpt lat="45.48766" lon="2.93346">
        <ele>1054.3325</ele>
        <time>2015-08-17T12:36:38Z</time>
      </trkpt>
      <trkpt lat="45.48765" lon="2.93345">
        <ele>1054.3325</ele>
        <time>2015-08-17T12:36:43Z</time>
      </trkpt>
      <trkpt lat="45.48763" lon="2.93336">
        <ele>1054.3325</ele>
        <time>2015-08-17T12:36:49Z</time>
      </trkpt>
      <trkpt lat="45.48767" lon="2.93335">
        <ele>1057.3062</ele>
        <time>2015-08-17T12:36:52Z</time>
      </trkpt>
      <trkpt lat="45.48771" lon="2.93337">
        <ele>1057.3062</ele>
        <time>2015-08-17T12:36:56Z</time>
      </trkpt>
      <trkpt lat="45.48777" lon="2.93343">
        <ele>1060.0536</ele>
        <time>2015-08-17T12:37:02Z</time>
      </trkpt>
      <trkpt lat="45.48791" lon="2.93353">
        <ele>1062.4209</ele>
        <time>2015-08-17T12:37:26Z</time>
      </trkpt>
      <trkpt lat="45.4879" lon="2.93351">
        <ele>1062.4209</ele>
        <time>2015-08-17T12:37:38Z</time>
      </trkpt>
      <trkpt lat="45.48806" lon="2.93359">
        <ele>1064.1666</ele>
        <time>2015-08-17T12:37:43Z</time>
      </trkpt>
      <trkpt lat="45.4881" lon="2.93358">
        <ele>1064.1666</ele>
        <time>2015-08-17T12:37:52Z</time>
      </trkpt>
      <trkpt lat="45.48832" lon="2.9336">
        <ele>1065.876</ele>
        <time>2015-08-17T12:38:05Z</time>
      </trkpt>
      <trkpt lat="45.4886" lon="2.93367">
        <ele>1066.9963</ele>
        <time>2015-08-17T12:38:33Z</time>
      </trkpt>
      <trkpt lat="45.48873" lon="2.93373">
        <ele>1067.2341</ele>
        <time>2015-08-17T12:38:38Z</time>
      </trkpt>
      <trkpt lat="45.48876" lon="2.93371">
        <ele>1067.2341</ele>
        <time>2015-08-17T12:38:41Z</time>
      </trkpt>
      <trkpt lat="45.4888" lon="2.93369">
        <ele>1067.2341</ele>
        <time>2015-08-17T12:38:48Z</time>
      </trkpt>
      <trkpt lat="45.48885" lon="2.93368">
        <ele>1066.9976</ele>
        <time>2015-08-17T12:38:58Z</time>
      </trkpt>
      <trkpt lat="45.48939" lon="2.93379">
        <ele>1065.2253</ele>
        <time>2015-08-17T12:39:42Z</time>
      </trkpt>
      <trkpt lat="45.48993" lon="2.93375">
        <ele>1063.5618</ele>
        <time>2015-08-17T12:40:43Z</time>
      </trkpt>
      <trkpt lat="45.48998" lon="2.93373">
        <ele>1063.5618</ele>
        <time>2015-08-17T12:40:47Z</time>
      </trkpt>
      <trkpt lat="45.49043" lon="2.93369">
        <ele>1060.8353</ele>
        <time>2015-08-17T12:41:41Z</time>
      </trkpt>
      <trkpt lat="45.49047" lon="2.9337">
        <ele>1060.8353</ele>
        <time>2015-08-17T12:41:46Z</time>
      </trkpt>
      <trkpt lat="45.49077" lon="2.93385">
        <ele>1058.5869</ele>
        <time>2015-08-17T12:42:35Z</time>
      </trkpt>
      <trkpt lat="45.49085" lon="2.93386">
        <ele>1058.5869</ele>
        <time>2015-08-17T12:42:41Z</time>
      </trkpt>
      <trkpt lat="45.49129" lon="2.93415">
        <ele>1057.7239</ele>
        <time>2015-08-17T12:43:41Z</time>
      </trkpt>
      <trkpt lat="45.49135" lon="2.93416">
        <ele>1057.7239</ele>
        <time>2015-08-17T12:43:55Z</time>
      </trkpt>
      <trkpt lat="45.49179" lon="2.93473">
        <ele>1058.4785</ele>
        <time>2015-08-17T12:44:41Z</time>
      </trkpt>
      <trkpt lat="45.49181" lon="2.93479">
        <ele>1058.4785</ele>
        <time>2015-08-17T12:44:48Z</time>
      </trkpt>
      <trkpt lat="45.49213" lon="2.9355">
        <ele>1060.4706</ele>
        <time>2015-08-17T12:45:41Z</time>
      </trkpt>
      <trkpt lat="45.49241" lon="2.93564">
        <ele>1063.9785</ele>
        <time>2015-08-17T12:46:22Z</time>
      </trkpt>
      <trkpt lat="45.4925" lon="2.93555">
        <ele>1068.1322</ele>
        <time>2015-08-17T12:46:41Z</time>
      </trkpt>
      <trkpt lat="45.49254" lon="2.93541">
        <ele>1072.369</ele>
        <time>2015-08-17T12:46:56Z</time>
      </trkpt>
      <trkpt lat="45.49255" lon="2.93529">
        <ele>1072.369</ele>
        <time>2015-08-17T12:47:04Z</time>
      </trkpt>
      <trkpt lat="45.49255" lon="2.93525">
        <ele>1076.6863</ele>
        <time>2015-08-17T12:47:06Z</time>
      </trkpt>
      <trkpt lat="45.49253" lon="2.93519">
        <ele>1076.6863</ele>
        <time>2015-08-17T12:47:11Z</time>
      </trkpt>
      <trkpt lat="45.49249" lon="2.93488">
        <ele>1081.4274</ele>
        <time>2015-08-17T12:47:38Z</time>
      </trkpt>
      <trkpt lat="45.49245" lon="2.93487">
        <ele>1081.4274</ele>
        <time>2015-08-17T12:47:41Z</time>
      </trkpt>
      <trkpt lat="45.49243" lon="2.93483">
        <ele>1081.4274</ele>
        <time>2015-08-17T12:47:46Z</time>
      </trkpt>
      <trkpt lat="45.49235" lon="2.93422">
        <ele>1086.6069</ele>
        <time>2015-08-17T12:48:29Z</time>
      </trkpt>
      <trkpt lat="45.49234" lon="2.93421">
        <ele>1086.6069</ele>
        <time>2015-08-17T12:48:31Z</time>
      </trkpt>
      <trkpt lat="45.49234" lon="2.93407">
        <ele>1091.7332</ele>
        <time>2015-08-17T12:48:41Z</time>
      </trkpt>
      <trkpt lat="45.49228" lon="2.93382">
        <ele>1097.0568</ele>
        <time>2015-08-17T12:49:13Z</time>
      </trkpt>
      <trkpt lat="45.49235" lon="2.93362">
        <ele>1102.5796</ele>
        <time>2015-08-17T12:49:25Z</time>
      </trkpt>
      <trkpt lat="45.49235" lon="2.93361">
        <ele>1102.5796</ele>
        <time>2015-08-17T12:49:26Z</time>
      </trkpt>
      <trkpt lat="45.49243" lon="2.93349">
        <ele>1107.8704</ele>
        <time>2015-08-17T12:49:39Z</time>
      </trkpt>
      <trkpt lat="45.49243" lon="2.93348">
        <ele>1107.8704</ele>
        <time>2015-08-17T12:49:41Z</time>
      </trkpt>
      <trkpt lat="45.49253" lon="2.93326">
        <ele>1113.1217</ele>
        <time>2015-08-17T12:50:10Z</time>
      </trkpt>
      <trkpt lat="45.49257" lon="2.93298">
        <ele>1118.3104</ele>
        <time>2015-08-17T12:50:26Z</time>
      </trkpt>
      <trkpt lat="45.49243" lon="2.93282">
        <ele>1123.142</ele>
        <time>2015-08-17T12:50:41Z</time>
      </trkpt>
      <trkpt lat="45.49238" lon="2.93277">
        <ele>1123.142</ele>
        <time>2015-08-17T12:50:46Z</time>
      </trkpt>
      <trkpt lat="45.49226" lon="2.93253">
        <ele>1127.5753</ele>
        <time>2015-08-17T12:51:11Z</time>
      </trkpt>
      <trkpt lat="45.49224" lon="2.9324">
        <ele>1131.2856</ele>
        <time>2015-08-17T12:51:16Z</time>
      </trkpt>
      <trkpt lat="45.49222" lon="2.93233">
        <ele>1131.2856</ele>
        <time>2015-08-17T12:51:21Z</time>
      </trkpt>
      <trkpt lat="45.49221" lon="2.93228">
        <ele>1134.7094</ele>
        <time>2015-08-17T12:51:26Z</time>
      </trkpt>
      <trkpt lat="45.49219" lon="2.93222">
        <ele>1134.7094</ele>
        <time>2015-08-17T12:51:31Z</time>
      </trkpt>
      <trkpt lat="45.4922" lon="2.93216">
        <ele>1134.7094</ele>
        <time>2015-08-17T12:51:36Z</time>
      </trkpt>
      <trkpt lat="45.49222" lon="2.93211">
        <ele>1137.9349</ele>
        <time>2015-08-17T12:51:41Z</time>
      </trkpt>
      <trkpt lat="45.49227" lon="2.93207">
        <ele>1137.9349</ele>
        <time>2015-08-17T12:51:46Z</time>
      </trkpt>
      <trkpt lat="45.49232" lon="2.93203">
        <ele>1140.685</ele>
        <time>2015-08-17T12:51:51Z</time>
      </trkpt>
      <trkpt lat="45.49236" lon="2.932">
        <ele>1140.685</ele>
        <time>2015-08-17T12:51:56Z</time>
      </trkpt>
      <trkpt lat="45.49245" lon="2.93193">
        <ele>1143.1941</ele>
        <time>2015-08-17T12:52:04Z</time>
      </trkpt>
      <trkpt lat="45.49248" lon="2.93174">
        <ele>1145.4788</ele>
        <time>2015-08-17T12:52:19Z</time>
      </trkpt>
      <trkpt lat="45.49248" lon="2.93173">
        <ele>1145.4788</ele>
        <time>2015-08-17T12:52:23Z</time>
      </trkpt>
      <trkpt lat="45.4925" lon="2.93167">
        <ele>1145.4788</ele>
        <time>2015-08-17T12:52:32Z</time>
      </trkpt>
      <trkpt lat="45.49258" lon="2.93142">
        <ele>1147.8003</ele>
        <time>2015-08-17T12:52:41Z</time>
      </trkpt>
      <trkpt lat="45.49259" lon="2.93135">
        <ele>1147.8003</ele>
        <time>2015-08-17T12:52:49Z</time>
      </trkpt>
      <trkpt lat="45.49271" lon="2.93106">
        <ele>1150.3575</ele>
        <time>2015-08-17T12:53:06Z</time>
      </trkpt>
      <trkpt lat="45.49274" lon="2.93101">
        <ele>1150.3575</ele>
        <time>2015-08-17T12:53:29Z</time>
      </trkpt>
      <trkpt lat="45.4927" lon="2.93094">
        <ele>1152.6573</ele>
        <time>2015-08-17T12:53:53Z</time>
      </trkpt>
      <trkpt lat="45.49272" lon="2.93093">
        <ele>1152.6573</ele>
        <time>2015-08-17T12:53:56Z</time>
      </trkpt>
      <trkpt lat="45.49273" lon="2.93093">
        <ele>1152.6573</ele>
        <time>2015-08-17T12:54:01Z</time>
      </trkpt>
      <trkpt lat="45.49273" lon="2.93093">
        <ele>1152.6573</ele>
        <time>2015-08-17T12:54:06Z</time>
      </trkpt>
      <trkpt lat="45.49276" lon="2.93087">
        <ele>1152.6573</ele>
        <time>2015-08-17T12:54:11Z</time>
      </trkpt>
      <trkpt lat="45.49291" lon="2.93052">
        <ele>1154.8054</ele>
        <time>2015-08-17T12:54:34Z</time>
      </trkpt>
      <trkpt lat="45.49292" lon="2.9305">
        <ele>1154.8054</ele>
        <time>2015-08-17T12:54:36Z</time>
      </trkpt>
      <trkpt lat="45.49296" lon="2.93042">
        <ele>1154.8054</ele>
        <time>2015-08-17T12:54:42Z</time>
      </trkpt>
      <trkpt lat="45.49346" lon="2.92967">
        <ele>1157.5923</ele>
        <time>2015-08-17T12:55:55Z</time>
      </trkpt>
      <trkpt lat="45.49375" lon="2.92888">
        <ele>1160.2931</ele>
        <time>2015-08-17T12:56:46Z</time>
      </trkpt>
      <trkpt lat="45.49375" lon="2.92888">
        <ele>1160.2931</ele>
        <time>2015-08-17T12:56:51Z</time>
      </trkpt>
      <trkpt lat="45.49371" lon="2.92885">
        <ele>1160.2931</ele>
        <time>2015-08-17T12:57:11Z</time>
      </trkpt>
      <trkpt lat="45.49372" lon="2.9288">
        <ele>1162.5681</ele>
        <time>2015-08-17T12:57:16Z</time>
      </trkpt>
      <trkpt lat="45.4939" lon="2.92828">
        <ele>1164.2196</ele>
        <time>2015-08-17T12:57:48Z</time>
      </trkpt>
      <trkpt lat="45.49392" lon="2.92825">
        <ele>1164.2196</ele>
        <time>2015-08-17T12:57:59Z</time>
      </trkpt>
      <trkpt lat="45.49415" lon="2.92752">
        <ele>1165.8007</ele>
        <time>2015-08-17T12:58:38Z</time>
      </trkpt>
      <trkpt lat="45.49417" lon="2.92749">
        <ele>1165.8007</ele>
        <time>2015-08-17T12:58:48Z</time>
      </trkpt>
      <trkpt lat="45.49423" lon="2.92731">
        <ele>1167.2623</ele>
        <time>2015-08-17T12:58:58Z</time>
      </trkpt>
      <trkpt lat="45.49455" lon="2.92638">
        <ele>1169.4387</ele>
        <time>2015-08-17T12:59:51Z</time>
      </trkpt>
      <trkpt lat="45.49458" lon="2.9263">
        <ele>1169.4387</ele>
        <time>2015-08-17T12:59:56Z</time>
      </trkpt>
      <trkpt lat="45.4946" lon="2.92624">
        <ele>1171.3138</ele>
        <time>2015-08-17T13:00:01Z</time>
      </trkpt>
      <trkpt lat="45.49492" lon="2.92553">
        <ele>1173.0135</ele>
        <time>2015-08-17T13:00:57Z</time>
      </trkpt>
      <trkpt lat="45.49543" lon="2.92481">
        <ele>1174.511</ele>
        <time>2015-08-17T13:01:53Z</time>
      </trkpt>
      <trkpt lat="45.49575" lon="2.92431">
        <ele>1175.7963</ele>
        <time>2015-08-17T13:02:31Z</time>
      </trkpt>
      <trkpt lat="45.49594" lon="2.92401">
        <ele>1176.9327</ele>
        <time>2015-08-17T13:02:53Z</time>
      </trkpt>
      <trkpt lat="45.49595" lon="2.92398">
        <ele>1176.9327</ele>
        <time>2015-08-17T13:03:00Z</time>
      </trkpt>
      <trkpt lat="45.49601" lon="2.92392">
        <ele>1177.8647</ele>
        <time>2015-08-17T13:03:01Z</time>
      </trkpt>
      <trkpt lat="45.4964" lon="2.92327">
        <ele>1178.7567</ele>
        <time>2015-08-17T13:03:51Z</time>
      </trkpt>
      <trkpt lat="45.49656" lon="2.92293">
        <ele>1179.4879</ele>
        <time>2015-08-17T13:04:26Z</time>
      </trkpt>
      <trkpt lat="45.49653" lon="2.92287">
        <ele>1179.4879</ele>
        <time>2015-08-17T13:05:36Z</time>
      </trkpt>
      <trkpt lat="45.49653" lon="2.92286">
        <ele>1179.4879</ele>
        <time>2015-08-17T13:05:41Z</time>
      </trkpt>
      <trkpt lat="45.49639" lon="2.92264">
        <ele>1179.9465</ele>
        <time>2015-08-17T13:06:26Z</time>
      </trkpt>
      <trkpt lat="45.49638" lon="2.92264">
        <ele>1179.9465</ele>
        <time>2015-08-17T13:06:31Z</time>
      </trkpt>
      <trkpt lat="45.49636" lon="2.92259">
        <ele>1179.9465</ele>
        <time>2015-08-17T13:07:11Z</time>
      </trkpt>
      <trkpt lat="45.49623" lon="2.92245">
        <ele>1180.2604</ele>
        <time>2015-08-17T13:07:26Z</time>
      </trkpt>
      <trkpt lat="45.49618" lon="2.92237">
        <ele>1180.2604</ele>
        <time>2015-08-17T13:07:31Z</time>
      </trkpt>
      <trkpt lat="45.49616" lon="2.92233">
        <ele>1180.4618</ele>
        <time>2015-08-17T13:07:36Z</time>
      </trkpt>
      <trkpt lat="45.49614" lon="2.92228">
        <ele>1180.4618</ele>
        <time>2015-08-17T13:07:41Z</time>
      </trkpt>
      <trkpt lat="45.49608" lon="2.92223">
        <ele>1180.5952</ele>
        <time>2015-08-17T13:07:46Z</time>
      </trkpt>
      <trkpt lat="45.49604" lon="2.92217">
        <ele>1180.5952</ele>
        <time>2015-08-17T13:07:51Z</time>
      </trkpt>
      <trkpt lat="45.49602" lon="2.92213">
        <ele>1180.6589</ele>
        <time>2015-08-17T13:07:56Z</time>
      </trkpt>
      <trkpt lat="45.496" lon="2.92209">
        <ele>1180.6589</ele>
        <time>2015-08-17T13:08:01Z</time>
      </trkpt>
      <trkpt lat="45.49599" lon="2.92206">
        <ele>1180.6589</ele>
        <time>2015-08-17T13:08:08Z</time>
      </trkpt>
      <trkpt lat="45.49594" lon="2.92202">
        <ele>1180.6799</ele>
        <time>2015-08-17T13:08:11Z</time>
      </trkpt>
      <trkpt lat="45.4959" lon="2.92194">
        <ele>1180.6799</ele>
        <time>2015-08-17T13:08:16Z</time>
      </trkpt>
      <trkpt lat="45.49587" lon="2.92192">
        <ele>1180.6401</ele>
        <time>2015-08-17T13:08:25Z</time>
      </trkpt>
      <trkpt lat="45.4958" lon="2.92181">
        <ele>1180.5663</ele>
        <time>2015-08-17T13:08:31Z</time>
      </trkpt>
      <trkpt lat="45.49563" lon="2.9216">
        <ele>1180.6123</ele>
        <time>2015-08-17T13:08:56Z</time>
      </trkpt>
      <trkpt lat="45.4954" lon="2.92131">
        <ele>1181.0504</ele>
        <time>2015-08-17T13:09:31Z</time>
      </trkpt>
      <trkpt lat="45.49534" lon="2.92117">
        <ele>1181.3389</ele>
        <time>2015-08-17T13:10:05Z</time>
      </trkpt>
      <trkpt lat="45.49501" lon="2.92071">
        <ele>1182.6619</ele>
        <time>2015-08-17T13:10:31Z</time>
      </trkpt>
      <trkpt lat="45.49482" lon="2.92045">
        <ele>1184.2114</ele>
        <time>2015-08-17T13:10:57Z</time>
      </trkpt>
      <trkpt lat="45.49478" lon="2.92041">
        <ele>1184.2114</ele>
        <time>2015-08-17T13:11:01Z</time>
      </trkpt>
      <trkpt lat="45.49474" lon="2.92036">
        <ele>1185.7137</ele>
        <time>2015-08-17T13:11:06Z</time>
      </trkpt>
      <trkpt lat="45.49469" lon="2.92029">
        <ele>1185.7137</ele>
        <time>2015-08-17T13:11:11Z</time>
      </trkpt>
      <trkpt lat="45.49456" lon="2.9201">
        <ele>1187.4913</ele>
        <time>2015-08-17T13:11:31Z</time>
      </trkpt>
      <trkpt lat="45.49453" lon="2.92007">
        <ele>1187.4913</ele>
        <time>2015-08-17T13:11:36Z</time>
      </trkpt>
      <trkpt lat="45.49449" lon="2.92003">
        <ele>1187.4913</ele>
        <time>2015-08-17T13:11:41Z</time>
      </trkpt>
      <trkpt lat="45.49445" lon="2.91996">
        <ele>1189.3812</ele>
        <time>2015-08-17T13:11:46Z</time>
      </trkpt>
      <trkpt lat="45.49441" lon="2.91991">
        <ele>1189.3812</ele>
        <time>2015-08-17T13:11:51Z</time>
      </trkpt>
      <trkpt lat="45.49437" lon="2.91986">
        <ele>1191.4476</ele>
        <time>2015-08-17T13:11:56Z</time>
      </trkpt>
      <trkpt lat="45.49433" lon="2.91981">
        <ele>1191.4476</ele>
        <time>2015-08-17T13:12:01Z</time>
      </trkpt>
      <trkpt lat="45.49428" lon="2.91977">
        <ele>1193.5338</ele>
        <time>2015-08-17T13:12:06Z</time>
      </trkpt>
      <trkpt lat="45.49424" lon="2.91972">
        <ele>1193.5338</ele>
        <time>2015-08-17T13:12:11Z</time>
      </trkpt>
      <trkpt lat="45.4942" lon="2.91967">
        <ele>1195.4362</ele>
        <time>2015-08-17T13:12:16Z</time>
      </trkpt>
      <trkpt lat="45.49416" lon="2.91962">
        <ele>1195.4362</ele>
        <time>2015-08-17T13:12:21Z</time>
      </trkpt>
      <trkpt lat="45.49412" lon="2.91957">
        <ele>1197.2119</ele>
        <time>2015-08-17T13:12:26Z</time>
      </trkpt>
      <trkpt lat="45.49408" lon="2.91951">
        <ele>1197.2119</ele>
        <time>2015-08-17T13:12:31Z</time>
      </trkpt>
      <trkpt lat="45.49404" lon="2.91946">
        <ele>1198.6833</ele>
        <time>2015-08-17T13:12:36Z</time>
      </trkpt>
      <trkpt lat="45.49348" lon="2.91906">
        <ele>1199.5427</ele>
        <time>2015-08-17T13:13:31Z</time>
      </trkpt>
      <trkpt lat="45.49314" lon="2.91832">
        <ele>1200.7601</ele>
        <time>2015-08-17T13:14:34Z</time>
      </trkpt>
      <trkpt lat="45.49314" lon="2.91828">
        <ele>1200.7601</ele>
        <time>2015-08-17T13:14:36Z</time>
      </trkpt>
      <trkpt lat="45.49315" lon="2.91822">
        <ele>1200.7601</ele>
        <time>2015-08-17T13:14:41Z</time>
      </trkpt>
      <trkpt lat="45.49317" lon="2.91812">
        <ele>1201.9218</ele>
        <time>2015-08-17T13:14:46Z</time>
      </trkpt>
      <trkpt lat="45.49288" lon="2.9175">
        <ele>1203.1635</ele>
        <time>2015-08-17T13:15:36Z</time>
      </trkpt>
      <trkpt lat="45.49258" lon="2.91721">
        <ele>1204.5814</ele>
        <time>2015-08-17T13:16:32Z</time>
      </trkpt>
      <trkpt lat="45.49209" lon="2.91664">
        <ele>1206.8411</ele>
        <time>2015-08-17T13:17:17Z</time>
      </trkpt>
      <trkpt lat="45.4919" lon="2.91627">
        <ele>1209.1871</ele>
        <time>2015-08-17T13:17:36Z</time>
      </trkpt>
      <trkpt lat="45.49172" lon="2.91587">
        <ele>1211.3953</ele>
        <time>2015-08-17T13:18:24Z</time>
      </trkpt>
      <trkpt lat="45.49159" lon="2.91546">
        <ele>1213.4309</ele>
        <time>2015-08-17T13:18:39Z</time>
      </trkpt>
      <trkpt lat="45.49131" lon="2.91466">
        <ele>1215.781</ele>
        <time>2015-08-17T13:19:32Z</time>
      </trkpt>
      <trkpt lat="45.49127" lon="2.91458">
        <ele>1215.781</ele>
        <time>2015-08-17T13:19:38Z</time>
      </trkpt>
      <trkpt lat="45.49109" lon="2.91427">
        <ele>1218.3052</ele>
        <time>2015-08-17T13:20:06Z</time>
      </trkpt>
      <trkpt lat="45.49089" lon="2.91399">
        <ele>1221.2041</ele>
        <time>2015-08-17T13:20:36Z</time>
      </trkpt>
      <trkpt lat="45.49083" lon="2.91391">
        <ele>1221.2041</ele>
        <time>2015-08-17T13:20:43Z</time>
      </trkpt>
      <trkpt lat="45.4908" lon="2.9139">
        <ele>1223.9565</ele>
        <time>2015-08-17T13:20:46Z</time>
      </trkpt>
      <trkpt lat="45.49077" lon="2.91387">
        <ele>1223.9565</ele>
        <time>2015-08-17T13:20:54Z</time>
      </trkpt>
      <trkpt lat="45.49073" lon="2.91382">
        <ele>1226.5125</ele>
        <time>2015-08-17T13:20:56Z</time>
      </trkpt>
      <trkpt lat="45.4907" lon="2.91376">
        <ele>1226.5125</ele>
        <time>2015-08-17T13:21:03Z</time>
      </trkpt>
      <trkpt lat="45.49069" lon="2.91372">
        <ele>1226.5125</ele>
        <time>2015-08-17T13:21:06Z</time>
      </trkpt>
      <trkpt lat="45.49067" lon="2.91368">
        <ele>1228.9844</ele>
        <time>2015-08-17T13:21:15Z</time>
      </trkpt>
      <trkpt lat="45.49063" lon="2.91358">
        <ele>1228.9844</ele>
        <time>2015-08-17T13:21:16Z</time>
      </trkpt>
      <trkpt lat="45.49059" lon="2.91356">
        <ele>1231.4192</ele>
        <time>2015-08-17T13:21:21Z</time>
      </trkpt>
      <trkpt lat="45.49055" lon="2.91353">
        <ele>1231.4192</ele>
        <time>2015-08-17T13:21:26Z</time>
      </trkpt>
      <trkpt lat="45.49052" lon="2.9135">
        <ele>1231.4192</ele>
        <time>2015-08-17T13:21:31Z</time>
      </trkpt>
      <trkpt lat="45.49049" lon="2.91345">
        <ele>1233.8748</ele>
        <time>2015-08-17T13:21:36Z</time>
      </trkpt>
      <trkpt lat="45.49046" lon="2.91342">
        <ele>1233.8748</ele>
        <time>2015-08-17T13:21:41Z</time>
      </trkpt>
      <trkpt lat="45.49043" lon="2.91338">
        <ele>1233.8748</ele>
        <time>2015-08-17T13:21:46Z</time>
      </trkpt>
      <trkpt lat="45.49038" lon="2.91335">
        <ele>1236.2896</ele>
        <time>2015-08-17T13:21:51Z</time>
      </trkpt>
      <trkpt lat="45.49034" lon="2.9133">
        <ele>1236.2896</ele>
        <time>2015-08-17T13:21:56Z</time>
      </trkpt>
      <trkpt lat="45.49032" lon="2.91325">
        <ele>1238.6211</ele>
        <time>2015-08-17T13:22:01Z</time>
      </trkpt>
      <trkpt lat="45.49029" lon="2.91321">
        <ele>1238.6211</ele>
        <time>2015-08-17T13:22:06Z</time>
      </trkpt>
      <trkpt lat="45.49027" lon="2.91317">
        <ele>1238.6211</ele>
        <time>2015-08-17T13:22:11Z</time>
      </trkpt>
      <trkpt lat="45.49026" lon="2.91313">
        <ele>1241.032</ele>
        <time>2015-08-17T13:22:16Z</time>
      </trkpt>
      <trkpt lat="45.49024" lon="2.91309">
        <ele>1241.032</ele>
        <time>2015-08-17T13:22:21Z</time>
      </trkpt>
      <trkpt lat="45.49022" lon="2.91301">
        <ele>1243.3987</ele>
        <time>2015-08-17T13:22:27Z</time>
      </trkpt>
      <trkpt lat="45.49016" lon="2.91288">
        <ele>1245.6937</ele>
        <time>2015-08-17T13:22:35Z</time>
      </trkpt>
      <trkpt lat="45.49006" lon="2.91268">
        <ele>1247.7043</ele>
        <time>2015-08-17T13:23:14Z</time>
      </trkpt>
      <trkpt lat="45.48988" lon="2.91241">
        <ele>1250.517</ele>
        <time>2015-08-17T13:23:36Z</time>
      </trkpt>
      <trkpt lat="45.48982" lon="2.91238">
        <ele>1250.517</ele>
        <time>2015-08-17T13:23:51Z</time>
      </trkpt>
      <trkpt lat="45.4898" lon="2.91231">
        <ele>1253.0892</ele>
        <time>2015-08-17T13:23:56Z</time>
      </trkpt>
      <trkpt lat="45.48974" lon="2.91226">
        <ele>1253.0892</ele>
        <time>2015-08-17T13:24:01Z</time>
      </trkpt>
      <trkpt lat="45.48969" lon="2.9122">
        <ele>1255.3214</ele>
        <time>2015-08-17T13:24:06Z</time>
      </trkpt>
      <trkpt lat="45.48966" lon="2.91213">
        <ele>1255.3214</ele>
        <time>2015-08-17T13:24:11Z</time>
      </trkpt>
      <trkpt lat="45.48962" lon="2.91207">
        <ele>1257.597</ele>
        <time>2015-08-17T13:24:21Z</time>
      </trkpt>
      <trkpt lat="45.48955" lon="2.91201">
        <ele>1257.597</ele>
        <time>2015-08-17T13:24:26Z</time>
      </trkpt>
      <trkpt lat="45.48952" lon="2.91197">
        <ele>1259.6665</ele>
        <time>2015-08-17T13:24:31Z</time>
      </trkpt>
      <trkpt lat="45.48949" lon="2.91193">
        <ele>1259.6665</ele>
        <time>2015-08-17T13:24:36Z</time>
      </trkpt>
      <trkpt lat="45.48944" lon="2.91185">
        <ele>1261.4431</ele>
        <time>2015-08-17T13:24:42Z</time>
      </trkpt>
      <trkpt lat="45.48909" lon="2.91112">
        <ele>1262.8907</ele>
        <time>2015-08-17T13:25:37Z</time>
      </trkpt>
      <trkpt lat="45.48904" lon="2.91089">
        <ele>1264.0778</ele>
        <time>2015-08-17T13:26:01Z</time>
      </trkpt>
      <trkpt lat="45.48893" lon="2.91037">
        <ele>1265.3419</ele>
        <time>2015-08-17T13:26:26Z</time>
      </trkpt>
      <trkpt lat="45.48893" lon="2.91031">
        <ele>1265.3419</ele>
        <time>2015-08-17T13:26:31Z</time>
      </trkpt>
      <trkpt lat="45.48892" lon="2.91025">
        <ele>1265.3419</ele>
        <time>2015-08-17T13:26:36Z</time>
      </trkpt>
      <trkpt lat="45.48893" lon="2.91021">
        <ele>1266.5063</ele>
        <time>2015-08-17T13:26:41Z</time>
      </trkpt>
      <trkpt lat="45.48895" lon="2.91012">
        <ele>1266.5063</ele>
        <time>2015-08-17T13:26:51Z</time>
      </trkpt>
      <trkpt lat="45.48901" lon="2.90989">
        <ele>1267.753</ele>
        <time>2015-08-17T13:27:06Z</time>
      </trkpt>
      <trkpt lat="45.48901" lon="2.90985">
        <ele>1267.753</ele>
        <time>2015-08-17T13:27:11Z</time>
      </trkpt>
      <trkpt lat="45.48901" lon="2.90976">
        <ele>1268.9335</ele>
        <time>2015-08-17T13:27:16Z</time>
      </trkpt>
      <trkpt lat="45.48903" lon="2.9097">
        <ele>1268.9335</ele>
        <time>2015-08-17T13:27:21Z</time>
      </trkpt>
      <trkpt lat="45.48907" lon="2.90959">
        <ele>1269.9391</ele>
        <time>2015-08-17T13:27:31Z</time>
      </trkpt>
      <trkpt lat="45.48909" lon="2.90952">
        <ele>1269.9391</ele>
        <time>2015-08-17T13:27:36Z</time>
      </trkpt>
      <trkpt lat="45.48907" lon="2.9094">
        <ele>1271.0587</ele>
        <time>2015-08-17T13:27:41Z</time>
      </trkpt>
      <trkpt lat="45.48906" lon="2.90933">
        <ele>1271.0587</ele>
        <time>2015-08-17T13:27:51Z</time>
      </trkpt>
      <trkpt lat="45.48902" lon="2.90925">
        <ele>1272.0411</ele>
        <time>2015-08-17T13:27:56Z</time>
      </trkpt>
      <trkpt lat="45.48903" lon="2.90913">
        <ele>1272.0411</ele>
        <time>2015-08-17T13:28:01Z</time>
      </trkpt>
      <trkpt lat="45.48904" lon="2.90905">
        <ele>1272.8411</ele>
        <time>2015-08-17T13:28:11Z</time>
      </trkpt>
      <trkpt lat="45.48905" lon="2.90898">
        <ele>1272.8411</ele>
        <time>2015-08-17T13:28:16Z</time>
      </trkpt>
      <trkpt lat="45.48905" lon="2.90889">
        <ele>1273.4604</ele>
        <time>2015-08-17T13:28:21Z</time>
      </trkpt>
      <trkpt lat="45.48903" lon="2.90875">
        <ele>1274.0167</ele>
        <time>2015-08-17T13:28:31Z</time>
      </trkpt>
      <trkpt lat="45.48905" lon="2.90869">
        <ele>1274.0167</ele>
        <time>2015-08-17T13:28:36Z</time>
      </trkpt>
      <trkpt lat="45.4891" lon="2.90857">
        <ele>1274.4172</ele>
        <time>2015-08-17T13:28:46Z</time>
      </trkpt>
      <trkpt lat="45.48912" lon="2.90852">
        <ele>1274.4172</ele>
        <time>2015-08-17T13:28:51Z</time>
      </trkpt>
      <trkpt lat="45.48918" lon="2.90837">
        <ele>1274.7203</ele>
        <time>2015-08-17T13:29:01Z</time>
      </trkpt>
      <trkpt lat="45.48918" lon="2.90822">
        <ele>1274.8943</ele>
        <time>2015-08-17T13:29:11Z</time>
      </trkpt>
      <trkpt lat="45.48919" lon="2.90815">
        <ele>1274.8943</ele>
        <time>2015-08-17T13:29:16Z</time>
      </trkpt>
      <trkpt lat="45.48923" lon="2.90806">
        <ele>1274.9674</ele>
        <time>2015-08-17T13:29:23Z</time>
      </trkpt>
      <trkpt lat="45.48927" lon="2.90797">
        <ele>1274.9674</ele>
        <time>2015-08-17T13:29:26Z</time>
      </trkpt>
      <trkpt lat="45.48935" lon="2.90781">
        <ele>1275.0237</ele>
        <time>2015-08-17T13:29:46Z</time>
      </trkpt>
      <trkpt lat="45.48936" lon="2.90774">
        <ele>1275.0237</ele>
        <time>2015-08-17T13:29:51Z</time>
      </trkpt>
      <trkpt lat="45.48938" lon="2.90768">
        <ele>1275.1123</ele>
        <time>2015-08-17T13:29:56Z</time>
      </trkpt>
      <trkpt lat="45.48939" lon="2.90763">
        <ele>1275.1123</ele>
        <time>2015-08-17T13:30:01Z</time>
      </trkpt>
      <trkpt lat="45.48941" lon="2.90756">
        <ele>1275.1123</ele>
        <time>2015-08-17T13:30:06Z</time>
      </trkpt>
      <trkpt lat="45.48946" lon="2.9075">
        <ele>1275.192</ele>
        <time>2015-08-17T13:30:11Z</time>
      </trkpt>
      <trkpt lat="45.48948" lon="2.90746">
        <ele>1275.192</ele>
        <time>2015-08-17T13:30:16Z</time>
      </trkpt>
      <trkpt lat="45.48952" lon="2.9074">
        <ele>1275.3113</ele>
        <time>2015-08-17T13:30:21Z</time>
      </trkpt>
      <trkpt lat="45.48954" lon="2.90736">
        <ele>1275.3113</ele>
        <time>2015-08-17T13:30:26Z</time>
      </trkpt>
      <trkpt lat="45.48959" lon="2.90734">
        <ele>1275.3113</ele>
        <time>2015-08-17T13:30:31Z</time>
      </trkpt>
      <trkpt lat="45.48961" lon="2.9073">
        <ele>1275.5143</ele>
        <time>2015-08-17T13:30:36Z</time>
      </trkpt>
      <trkpt lat="45.48963" lon="2.90727">
        <ele>1275.5143</ele>
        <time>2015-08-17T13:30:41Z</time>
      </trkpt>
      <trkpt lat="45.48962" lon="2.90727">
        <ele>1275.5143</ele>
        <time>2015-08-17T13:30:46Z</time>
      </trkpt>
      <trkpt lat="45.48969" lon="2.90726">
        <ele>1275.7126</ele>
        <time>2015-08-17T13:30:52Z</time>
      </trkpt>
      <trkpt lat="45.48983" lon="2.90724">
        <ele>1275.838</ele>
        <time>2015-08-17T13:31:06Z</time>
      </trkpt>
      <trkpt lat="45.48997" lon="2.90714">
        <ele>1275.9863</ele>
        <time>2015-08-17T13:31:11Z</time>
      </trkpt>
      <trkpt lat="45.48999" lon="2.90708">
        <ele>1275.9863</ele>
        <time>2015-08-17T13:31:16Z</time>
      </trkpt>
      <trkpt lat="45.49004" lon="2.90695">
        <ele>1276.0874</ele>
        <time>2015-08-17T13:31:21Z</time>
      </trkpt>
      <trkpt lat="45.49005" lon="2.90689">
        <ele>1276.0874</ele>
        <time>2015-08-17T13:31:26Z</time>
      </trkpt>
      <trkpt lat="45.49004" lon="2.90683">
        <ele>1276.0874</ele>
        <time>2015-08-17T13:31:31Z</time>
      </trkpt>
      <trkpt lat="45.49006" lon="2.90674">
        <ele>1276.2205</ele>
        <time>2015-08-17T13:31:36Z</time>
      </trkpt>
      <trkpt lat="45.49006" lon="2.90668">
        <ele>1276.2205</ele>
        <time>2015-08-17T13:31:41Z</time>
      </trkpt>
      <trkpt lat="45.49005" lon="2.90662">
        <ele>1276.2205</ele>
        <time>2015-08-17T13:31:46Z</time>
      </trkpt>
      <trkpt lat="45.49006" lon="2.90655">
        <ele>1276.6461</ele>
        <time>2015-08-17T13:31:51Z</time>
      </trkpt>
      <trkpt lat="45.49004" lon="2.90646">
        <ele>1276.6461</ele>
        <time>2015-08-17T13:31:56Z</time>
      </trkpt>
      <trkpt lat="45.49002" lon="2.90637">
        <ele>1277.158</ele>
        <time>2015-08-17T13:32:01Z</time>
      </trkpt>
      <trkpt lat="45.49002" lon="2.9063">
        <ele>1277.158</ele>
        <time>2015-08-17T13:32:06Z</time>
      </trkpt>
      <trkpt lat="45.49" lon="2.90624">
        <ele>1277.8384</ele>
        <time>2015-08-17T13:32:11Z</time>
      </trkpt>
      <trkpt lat="45.48998" lon="2.90617">
        <ele>1277.8384</ele>
        <time>2015-08-17T13:32:16Z</time>
      </trkpt>
      <trkpt lat="45.48998" lon="2.90615">
        <ele>1277.8384</ele>
        <time>2015-08-17T13:32:21Z</time>
      </trkpt>
      <trkpt lat="45.48997" lon="2.90607">
        <ele>1278.5468</ele>
        <time>2015-08-17T13:32:26Z</time>
      </trkpt>
      <trkpt lat="45.48995" lon="2.90596">
        <ele>1278.5468</ele>
        <time>2015-08-17T13:32:31Z</time>
      </trkpt>
      <trkpt lat="45.48992" lon="2.90545">
        <ele>1279.9167</ele>
        <time>2015-08-17T13:33:07Z</time>
      </trkpt>
      <trkpt lat="45.48992" lon="2.9053">
        <ele>1281.3372</ele>
        <time>2015-08-17T13:33:11Z</time>
      </trkpt>
      <trkpt lat="45.48994" lon="2.90521">
        <ele>1281.3372</ele>
        <time>2015-08-17T13:33:16Z</time>
      </trkpt>
      <trkpt lat="45.48998" lon="2.90514">
        <ele>1282.8754</ele>
        <time>2015-08-17T13:33:21Z</time>
      </trkpt>
      <trkpt lat="45.49002" lon="2.90511">
        <ele>1282.8754</ele>
        <time>2015-08-17T13:33:26Z</time>
      </trkpt>
      <trkpt lat="45.49009" lon="2.90507">
        <ele>1284.5072</ele>
        <time>2015-08-17T13:33:31Z</time>
      </trkpt>
      <trkpt lat="45.49013" lon="2.90502">
        <ele>1284.5072</ele>
        <time>2015-08-17T13:33:36Z</time>
      </trkpt>
      <trkpt lat="45.49053" lon="2.905">
        <ele>1285.8495</ele>
        <time>2015-08-17T13:34:10Z</time>
      </trkpt>
      <trkpt lat="45.49055" lon="2.905">
        <ele>1285.8495</ele>
        <time>2015-08-17T13:34:11Z</time>
      </trkpt>
      <trkpt lat="45.4906" lon="2.90499">
        <ele>1285.8495</ele>
        <time>2015-08-17T13:34:16Z</time>
      </trkpt>
      <trkpt lat="45.49115" lon="2.90445">
        <ele>1285.7988</ele>
        <time>2015-08-17T13:35:11Z</time>
      </trkpt>
      <trkpt lat="45.49131" lon="2.90424">
        <ele>1284.6765</ele>
        <time>2015-08-17T13:36:16Z</time>
      </trkpt>
      <trkpt lat="45.49134" lon="2.90418">
        <ele>1284.6765</ele>
        <time>2015-08-17T13:36:21Z</time>
      </trkpt>
      <trkpt lat="45.49137" lon="2.90415">
        <ele>1283.3889</ele>
        <time>2015-08-17T13:36:33Z</time>
      </trkpt>
      <trkpt lat="45.49182" lon="2.90387">
        <ele>1281.5508</ele>
        <time>2015-08-17T13:37:11Z</time>
      </trkpt>
      <trkpt lat="45.49192" lon="2.90373">
        <ele>1279.5275</ele>
        <time>2015-08-17T13:37:18Z</time>
      </trkpt>
      <trkpt lat="45.49193" lon="2.90371">
        <ele>1279.5275</ele>
        <time>2015-08-17T13:37:21Z</time>
      </trkpt>
      <trkpt lat="45.49197" lon="2.90365">
        <ele>1279.5275</ele>
        <time>2015-08-17T13:37:27Z</time>
      </trkpt>
      <trkpt lat="45.492" lon="2.90359">
        <ele>1277.4562</ele>
        <time>2015-08-17T13:37:37Z</time>
      </trkpt>
      <trkpt lat="45.49212" lon="2.90342">
        <ele>1275.2334</ele>
        <time>2015-08-17T13:37:51Z</time>
      </trkpt>
      <trkpt lat="45.49245" lon="2.90302">
        <ele>1272.2733</ele>
        <time>2015-08-17T13:38:21Z</time>
      </trkpt>
      <trkpt lat="45.49252" lon="2.90298">
        <ele>1272.2733</ele>
        <time>2015-08-17T13:38:26Z</time>
      </trkpt>
      <trkpt lat="45.49254" lon="2.90297">
        <ele>1269.5343</ele>
        <time>2015-08-17T13:38:31Z</time>
      </trkpt>
      <trkpt lat="45.49262" lon="2.90297">
        <ele>1269.5343</ele>
        <time>2015-08-17T13:38:43Z</time>
      </trkpt>
      <trkpt lat="45.49274" lon="2.90293">
        <ele>1267.1392</ele>
        <time>2015-08-17T13:39:07Z</time>
      </trkpt>
      <trkpt lat="45.49275" lon="2.90293">
        <ele>1267.1392</ele>
        <time>2015-08-17T13:39:07Z</time>
      </trkpt>
      <trkpt lat="45.49285" lon="2.90291">
        <ele>1264.9128</ele>
        <time>2015-08-17T13:39:16Z</time>
      </trkpt>
      <trkpt lat="45.49302" lon="2.9028">
        <ele>1262.764</ele>
        <time>2015-08-17T13:39:21Z</time>
      </trkpt>
      <trkpt lat="45.49308" lon="2.90276">
        <ele>1262.764</ele>
        <time>2015-08-17T13:39:33Z</time>
      </trkpt>
      <trkpt lat="45.49316" lon="2.9027">
        <ele>1260.8387</ele>
        <time>2015-08-17T13:40:17Z</time>
      </trkpt>
      <trkpt lat="45.49369" lon="2.9015">
        <ele>1258.1903</ele>
        <time>2015-08-17T13:41:23Z</time>
      </trkpt>
      <trkpt lat="45.49371" lon="2.90147">
        <ele>1258.1903</ele>
        <time>2015-08-17T13:41:33Z</time>
      </trkpt>
      <trkpt lat="45.49367" lon="2.9009">
        <ele>1255.4711</ele>
        <time>2015-08-17T13:42:07Z</time>
      </trkpt>
      <trkpt lat="45.49351" lon="2.90061">
        <ele>1252.7955</ele>
        <time>2015-08-17T13:42:21Z</time>
      </trkpt>
      <trkpt lat="45.49348" lon="2.90058">
        <ele>1252.7955</ele>
        <time>2015-08-17T13:42:33Z</time>
      </trkpt>
      <trkpt lat="45.49327" lon="2.90009">
        <ele>1250.0962</ele>
        <time>2015-08-17T13:43:11Z</time>
      </trkpt>
      <trkpt lat="45.49328" lon="2.90001">
        <ele>1250.0962</ele>
        <time>2015-08-17T13:43:16Z</time>
      </trkpt>
      <trkpt lat="45.49331" lon="2.89958">
        <ele>1247.7285</ele>
        <time>2015-08-17T13:43:41Z</time>
      </trkpt>
      <trkpt lat="45.49336" lon="2.89919">
        <ele>1245.473</ele>
        <time>2015-08-17T13:44:06Z</time>
      </trkpt>
      <trkpt lat="45.49335" lon="2.89892">
        <ele>1243.4862</ele>
        <time>2015-08-17T13:44:27Z</time>
      </trkpt>
      <trkpt lat="45.49343" lon="2.89861">
        <ele>1241.8684</ele>
        <time>2015-08-17T13:44:40Z</time>
      </trkpt>
      <trkpt lat="45.49344" lon="2.89842">
        <ele>1240.5532</ele>
        <time>2015-08-17T13:45:00Z</time>
      </trkpt>
      <trkpt lat="45.49348" lon="2.89808">
        <ele>1239.5787</ele>
        <time>2015-08-17T13:45:14Z</time>
      </trkpt>
      <trkpt lat="45.49345" lon="2.89798">
        <ele>1239.5787</ele>
        <time>2015-08-17T13:45:21Z</time>
      </trkpt>
      <trkpt lat="45.4934" lon="2.89777">
        <ele>1238.9647</ele>
        <time>2015-08-17T13:45:46Z</time>
      </trkpt>
      <trkpt lat="45.49347" lon="2.89767">
        <ele>1239.2902</ele>
        <time>2015-08-17T13:47:55Z</time>
      </trkpt>
      <trkpt lat="45.49347" lon="2.89768">
        <ele>1239.2902</ele>
        <time>2015-08-17T13:48:12Z</time>
      </trkpt>
      <trkpt lat="45.49358" lon="2.89755">
        <ele>1239.7917</ele>
        <time>2015-08-17T13:49:09Z</time>
      </trkpt>
      <trkpt lat="45.4936" lon="2.89751">
        <ele>1239.7917</ele>
        <time>2015-08-17T13:49:21Z</time>
      </trkpt>
      <trkpt lat="45.49363" lon="2.89742">
        <ele>1240.1941</ele>
        <time>2015-08-17T13:49:48Z</time>
      </trkpt>
      <trkpt lat="45.49364" lon="2.89739">
        <ele>1240.1941</ele>
        <time>2015-08-17T13:50:12Z</time>
      </trkpt>
      <trkpt lat="45.49365" lon="2.89731">
        <ele>1240.1941</ele>
        <time>2015-08-17T13:50:51Z</time>
      </trkpt>
      <trkpt lat="45.49366" lon="2.89729">
        <ele>1240.6887</ele>
        <time>2015-08-17T13:51:17Z</time>
      </trkpt>
      <trkpt lat="45.49365" lon="2.89728">
        <ele>1240.6887</ele>
        <time>2015-08-17T13:51:21Z</time>
      </trkpt>
      <trkpt lat="45.49367" lon="2.89724">
        <ele>1240.6887</ele>
        <time>2015-08-17T13:51:41Z</time>
      </trkpt>
      <trkpt lat="45.49369" lon="2.89719">
        <ele>1241.1788</ele>
        <time>2015-08-17T13:51:46Z</time>
      </trkpt>
      <trkpt lat="45.49369" lon="2.89716">
        <ele>1241.1788</ele>
        <time>2015-08-17T13:51:51Z</time>
      </trkpt>
      <trkpt lat="45.49369" lon="2.89716">
        <ele>1241.1788</ele>
        <time>2015-08-17T13:51:56Z</time>
      </trkpt>
      <trkpt lat="45.49369" lon="2.89711">
        <ele>1241.1788</ele>
        <time>2015-08-17T13:52:04Z</time>
      </trkpt>
      <trkpt lat="45.49368" lon="2.89707">
        <ele>1241.1788</ele>
        <time>2015-08-17T13:52:29Z</time>
      </trkpt>
      <trkpt lat="45.49382" lon="2.89553">
        <ele>1242.1079</ele>
        <time>2015-08-17T13:54:23Z</time>
      </trkpt>
      <trkpt lat="45.49381" lon="2.89548">
        <ele>1242.1079</ele>
        <time>2015-08-17T13:54:26Z</time>
      </trkpt>
      <trkpt lat="45.4936" lon="2.89396">
        <ele>1244.1163</ele>
        <time>2015-08-17T13:56:17Z</time>
      </trkpt>
      <trkpt lat="45.49344" lon="2.8938">
        <ele>1246.3384</ele>
        <time>2015-08-17T13:56:27Z</time>
      </trkpt>
      <trkpt lat="45.49309" lon="2.89358">
        <ele>1248.822</ele>
        <time>2015-08-17T13:57:11Z</time>
      </trkpt>
      <trkpt lat="45.49305" lon="2.89356">
        <ele>1248.822</ele>
        <time>2015-08-17T13:57:16Z</time>
      </trkpt>
      <trkpt lat="45.49302" lon="2.89355">
        <ele>1248.822</ele>
        <time>2015-08-17T13:57:21Z</time>
      </trkpt>
      <trkpt lat="45.49301" lon="2.89354">
        <ele>1248.822</ele>
        <time>2015-08-17T13:57:26Z</time>
      </trkpt>
      <trkpt lat="45.49294" lon="2.89349">
        <ele>1251.2358</ele>
        <time>2015-08-17T13:57:31Z</time>
      </trkpt>
      <trkpt lat="45.4929" lon="2.89344">
        <ele>1251.2358</ele>
        <time>2015-08-17T13:57:36Z</time>
      </trkpt>
      <trkpt lat="45.49285" lon="2.8934">
        <ele>1253.5905</ele>
        <time>2015-08-17T13:57:41Z</time>
      </trkpt>
      <trkpt lat="45.49283" lon="2.89338">
        <ele>1253.5905</ele>
        <time>2015-08-17T13:57:46Z</time>
      </trkpt>
      <trkpt lat="45.49278" lon="2.89332">
        <ele>1255.8954</ele>
        <time>2015-08-17T13:57:51Z</time>
      </trkpt>
      <trkpt lat="45.49277" lon="2.8933">
        <ele>1255.8954</ele>
        <time>2015-08-17T13:57:56Z</time>
      </trkpt>
    </trkseg>
  </trk>
</gpx>